<?xml version="1.0" encoding="UTF-8" standalone="no" ?>
<gpx xmlns="http://www.topografix.com/GPX/1/1" xmlns:xsi="http://www.w3.org/2001/XMLSchema-instance" xsi:schemaLocation="http://www.topografix.com/GPX/1/1 http://www.topografix.com/GPX/1/1/gpx.xsd" version="1.1" creator="VisuGPX - https://www.visugpx.com">
  <metadata>
    <name>Vénasque - Combe de Capellan</name>
    <desc><![CDATA[Boucle de 14.5 km avec un dénivelé cumulé de 530 m, au départ de Vénasque]]></desc>
  </metadata>
  <trk>
    <name><![CDATA[Track 24 oct. 2018 à 09:57]]></name>
    <trkseg>
      <trkpt lat="43.99496" lon="5.14809">
        <ele>293</ele>
        <time>2018-10-24T07:57:13Z</time>
      </trkpt>
      <trkpt lat="43.99496" lon="5.14809">
        <ele>293</ele>
        <time>2018-10-24T07:57:19Z</time>
      </trkpt>
      <trkpt lat="43.99482" lon="5.14807">
        <ele>290</ele>
        <time>2018-10-24T08:03:25Z</time>
      </trkpt>
      <trkpt lat="43.99474" lon="5.14799">
        <ele>289</ele>
        <time>2018-10-24T08:03:38Z</time>
      </trkpt>
      <trkpt lat="43.99465" lon="5.14792">
        <ele>291</ele>
        <time>2018-10-24T08:03:47Z</time>
      </trkpt>
      <trkpt lat="43.99456" lon="5.14788">
        <ele>290</ele>
        <time>2018-10-24T08:03:56Z</time>
      </trkpt>
      <trkpt lat="43.99448" lon="5.14794">
        <ele>289</ele>
        <time>2018-10-24T08:04:09Z</time>
      </trkpt>
      <trkpt lat="43.99441" lon="5.14802">
        <ele>289</ele>
        <time>2018-10-24T08:04:20Z</time>
      </trkpt>
      <trkpt lat="43.99435" lon="5.14813">
        <ele>289</ele>
        <time>2018-10-24T08:04:29Z</time>
      </trkpt>
      <trkpt lat="43.99431" lon="5.14826">
        <ele>288</ele>
        <time>2018-10-24T08:04:39Z</time>
      </trkpt>
      <trkpt lat="43.99427" lon="5.14838">
        <ele>289</ele>
        <time>2018-10-24T08:04:49Z</time>
      </trkpt>
      <trkpt lat="43.99424" lon="5.1485">
        <ele>291</ele>
        <time>2018-10-24T08:04:57Z</time>
      </trkpt>
      <trkpt lat="43.99418" lon="5.14861">
        <ele>291</ele>
        <time>2018-10-24T08:05:05Z</time>
      </trkpt>
      <trkpt lat="43.99411" lon="5.14871">
        <ele>292</ele>
        <time>2018-10-24T08:05:13Z</time>
      </trkpt>
      <trkpt lat="43.99405" lon="5.14882">
        <ele>292</ele>
        <time>2018-10-24T08:05:21Z</time>
      </trkpt>
      <trkpt lat="43.994" lon="5.14892">
        <ele>293</ele>
        <time>2018-10-24T08:05:29Z</time>
      </trkpt>
      <trkpt lat="43.99392" lon="5.14902">
        <ele>294</ele>
        <time>2018-10-24T08:05:38Z</time>
      </trkpt>
      <trkpt lat="43.99385" lon="5.14911">
        <ele>294</ele>
        <time>2018-10-24T08:05:46Z</time>
      </trkpt>
      <trkpt lat="43.99379" lon="5.14921">
        <ele>295</ele>
        <time>2018-10-24T08:05:54Z</time>
      </trkpt>
      <trkpt lat="43.99372" lon="5.14931">
        <ele>295</ele>
        <time>2018-10-24T08:06:04Z</time>
      </trkpt>
      <trkpt lat="43.99366" lon="5.1494">
        <ele>296</ele>
        <time>2018-10-24T08:06:12Z</time>
      </trkpt>
      <trkpt lat="43.99362" lon="5.14953">
        <ele>296</ele>
        <time>2018-10-24T08:06:20Z</time>
      </trkpt>
      <trkpt lat="43.99355" lon="5.14964">
        <ele>296</ele>
        <time>2018-10-24T08:06:29Z</time>
      </trkpt>
      <trkpt lat="43.99349" lon="5.14974">
        <ele>296</ele>
        <time>2018-10-24T08:06:37Z</time>
      </trkpt>
      <trkpt lat="43.99343" lon="5.14985">
        <ele>297</ele>
        <time>2018-10-24T08:06:46Z</time>
      </trkpt>
      <trkpt lat="43.99335" lon="5.14994">
        <ele>297</ele>
        <time>2018-10-24T08:06:56Z</time>
      </trkpt>
      <trkpt lat="43.99327" lon="5.15">
        <ele>298</ele>
        <time>2018-10-24T08:07:05Z</time>
      </trkpt>
      <trkpt lat="43.9932" lon="5.15009">
        <ele>299</ele>
        <time>2018-10-24T08:07:13Z</time>
      </trkpt>
      <trkpt lat="43.99313" lon="5.15019">
        <ele>299</ele>
        <time>2018-10-24T08:07:23Z</time>
      </trkpt>
      <trkpt lat="43.99308" lon="5.1503">
        <ele>300</ele>
        <time>2018-10-24T08:07:32Z</time>
      </trkpt>
      <trkpt lat="43.99303" lon="5.15043">
        <ele>301</ele>
        <time>2018-10-24T08:07:41Z</time>
      </trkpt>
      <trkpt lat="43.99297" lon="5.15055">
        <ele>301</ele>
        <time>2018-10-24T08:07:49Z</time>
      </trkpt>
      <trkpt lat="43.99292" lon="5.15066">
        <ele>302</ele>
        <time>2018-10-24T08:07:57Z</time>
      </trkpt>
      <trkpt lat="43.99286" lon="5.15076">
        <ele>303</ele>
        <time>2018-10-24T08:08:06Z</time>
      </trkpt>
      <trkpt lat="43.9928" lon="5.15086">
        <ele>304</ele>
        <time>2018-10-24T08:08:15Z</time>
      </trkpt>
      <trkpt lat="43.99273" lon="5.15095">
        <ele>304</ele>
        <time>2018-10-24T08:08:23Z</time>
      </trkpt>
      <trkpt lat="43.99267" lon="5.15103">
        <ele>304</ele>
        <time>2018-10-24T08:08:31Z</time>
      </trkpt>
      <trkpt lat="43.99261" lon="5.15114">
        <ele>305</ele>
        <time>2018-10-24T08:08:38Z</time>
      </trkpt>
      <trkpt lat="43.99254" lon="5.15124">
        <ele>308</ele>
        <time>2018-10-24T08:08:47Z</time>
      </trkpt>
      <trkpt lat="43.99247" lon="5.15134">
        <ele>308</ele>
        <time>2018-10-24T08:08:56Z</time>
      </trkpt>
      <trkpt lat="43.99241" lon="5.15144">
        <ele>308</ele>
        <time>2018-10-24T08:09:04Z</time>
      </trkpt>
      <trkpt lat="43.99236" lon="5.15155">
        <ele>310</ele>
        <time>2018-10-24T08:09:13Z</time>
      </trkpt>
      <trkpt lat="43.99232" lon="5.15167">
        <ele>311</ele>
        <time>2018-10-24T08:09:23Z</time>
      </trkpt>
      <trkpt lat="43.99229" lon="5.15179">
        <ele>312</ele>
        <time>2018-10-24T08:09:32Z</time>
      </trkpt>
      <trkpt lat="43.99227" lon="5.15191">
        <ele>313</ele>
        <time>2018-10-24T08:09:41Z</time>
      </trkpt>
      <trkpt lat="43.99223" lon="5.15203">
        <ele>314</ele>
        <time>2018-10-24T08:09:48Z</time>
      </trkpt>
      <trkpt lat="43.99217" lon="5.15212">
        <ele>314</ele>
        <time>2018-10-24T08:09:58Z</time>
      </trkpt>
      <trkpt lat="43.99211" lon="5.15223">
        <ele>315</ele>
        <time>2018-10-24T08:10:07Z</time>
      </trkpt>
      <trkpt lat="43.99205" lon="5.15234">
        <ele>315</ele>
        <time>2018-10-24T08:10:18Z</time>
      </trkpt>
      <trkpt lat="43.99199" lon="5.15243">
        <ele>316</ele>
        <time>2018-10-24T08:10:25Z</time>
      </trkpt>
      <trkpt lat="43.99194" lon="5.15255">
        <ele>315</ele>
        <time>2018-10-24T08:10:34Z</time>
      </trkpt>
      <trkpt lat="43.9919" lon="5.15266">
        <ele>315</ele>
        <time>2018-10-24T08:10:42Z</time>
      </trkpt>
      <trkpt lat="43.99185" lon="5.15278">
        <ele>316</ele>
        <time>2018-10-24T08:10:51Z</time>
      </trkpt>
      <trkpt lat="43.99178" lon="5.15287">
        <ele>315</ele>
        <time>2018-10-24T08:10:58Z</time>
      </trkpt>
      <trkpt lat="43.99172" lon="5.15297">
        <ele>315</ele>
        <time>2018-10-24T08:11:06Z</time>
      </trkpt>
      <trkpt lat="43.99166" lon="5.15307">
        <ele>316</ele>
        <time>2018-10-24T08:11:14Z</time>
      </trkpt>
      <trkpt lat="43.99159" lon="5.15316">
        <ele>317</ele>
        <time>2018-10-24T08:11:23Z</time>
      </trkpt>
      <trkpt lat="43.99151" lon="5.15322">
        <ele>318</ele>
        <time>2018-10-24T08:11:32Z</time>
      </trkpt>
      <trkpt lat="43.99142" lon="5.15328">
        <ele>318</ele>
        <time>2018-10-24T08:11:40Z</time>
      </trkpt>
      <trkpt lat="43.99134" lon="5.15337">
        <ele>319</ele>
        <time>2018-10-24T08:11:48Z</time>
      </trkpt>
      <trkpt lat="43.99126" lon="5.15344">
        <ele>319</ele>
        <time>2018-10-24T08:11:56Z</time>
      </trkpt>
      <trkpt lat="43.99119" lon="5.15352">
        <ele>320</ele>
        <time>2018-10-24T08:12:04Z</time>
      </trkpt>
      <trkpt lat="43.99112" lon="5.1536">
        <ele>319</ele>
        <time>2018-10-24T08:12:14Z</time>
      </trkpt>
      <trkpt lat="43.99105" lon="5.15369">
        <ele>319</ele>
        <time>2018-10-24T08:12:23Z</time>
      </trkpt>
      <trkpt lat="43.99097" lon="5.15378">
        <ele>320</ele>
        <time>2018-10-24T08:12:31Z</time>
      </trkpt>
      <trkpt lat="43.9909" lon="5.15386">
        <ele>323</ele>
        <time>2018-10-24T08:12:42Z</time>
      </trkpt>
      <trkpt lat="43.99083" lon="5.15394">
        <ele>326</ele>
        <time>2018-10-24T08:12:52Z</time>
      </trkpt>
      <trkpt lat="43.99076" lon="5.15403">
        <ele>325</ele>
        <time>2018-10-24T08:13:02Z</time>
      </trkpt>
      <trkpt lat="43.99069" lon="5.15412">
        <ele>327</ele>
        <time>2018-10-24T08:13:11Z</time>
      </trkpt>
      <trkpt lat="43.99062" lon="5.15422">
        <ele>327</ele>
        <time>2018-10-24T08:13:21Z</time>
      </trkpt>
      <trkpt lat="43.99056" lon="5.15432">
        <ele>329</ele>
        <time>2018-10-24T08:13:33Z</time>
      </trkpt>
      <trkpt lat="43.99049" lon="5.15442">
        <ele>330</ele>
        <time>2018-10-24T08:13:43Z</time>
      </trkpt>
      <trkpt lat="43.99044" lon="5.15453">
        <ele>332</ele>
        <time>2018-10-24T08:13:51Z</time>
      </trkpt>
      <trkpt lat="43.99037" lon="5.15463">
        <ele>334</ele>
        <time>2018-10-24T08:14:00Z</time>
      </trkpt>
      <trkpt lat="43.99031" lon="5.15473">
        <ele>336</ele>
        <time>2018-10-24T08:14:08Z</time>
      </trkpt>
      <trkpt lat="43.99025" lon="5.15484">
        <ele>337</ele>
        <time>2018-10-24T08:14:17Z</time>
      </trkpt>
      <trkpt lat="43.99023" lon="5.15496">
        <ele>340</ele>
        <time>2018-10-24T08:14:27Z</time>
      </trkpt>
      <trkpt lat="43.9902" lon="5.15508">
        <ele>342</ele>
        <time>2018-10-24T08:14:36Z</time>
      </trkpt>
      <trkpt lat="43.99018" lon="5.15522">
        <ele>343</ele>
        <time>2018-10-24T08:14:45Z</time>
      </trkpt>
      <trkpt lat="43.99015" lon="5.15534">
        <ele>345</ele>
        <time>2018-10-24T08:14:55Z</time>
      </trkpt>
      <trkpt lat="43.9901" lon="5.15545">
        <ele>346</ele>
        <time>2018-10-24T08:15:04Z</time>
      </trkpt>
      <trkpt lat="43.99005" lon="5.15557">
        <ele>347</ele>
        <time>2018-10-24T08:15:13Z</time>
      </trkpt>
      <trkpt lat="43.99" lon="5.15568">
        <ele>349</ele>
        <time>2018-10-24T08:15:21Z</time>
      </trkpt>
      <trkpt lat="43.98994" lon="5.15578">
        <ele>352</ele>
        <time>2018-10-24T08:15:30Z</time>
      </trkpt>
      <trkpt lat="43.98989" lon="5.15588">
        <ele>352</ele>
        <time>2018-10-24T08:15:40Z</time>
      </trkpt>
      <trkpt lat="43.98982" lon="5.15598">
        <ele>351</ele>
        <time>2018-10-24T08:15:49Z</time>
      </trkpt>
      <trkpt lat="43.98977" lon="5.15609">
        <ele>352</ele>
        <time>2018-10-24T08:15:58Z</time>
      </trkpt>
      <trkpt lat="43.98971" lon="5.1562">
        <ele>355</ele>
        <time>2018-10-24T08:16:07Z</time>
      </trkpt>
      <trkpt lat="43.98966" lon="5.15631">
        <ele>357</ele>
        <time>2018-10-24T08:16:17Z</time>
      </trkpt>
      <trkpt lat="43.9896" lon="5.15641">
        <ele>357</ele>
        <time>2018-10-24T08:16:25Z</time>
      </trkpt>
      <trkpt lat="43.98953" lon="5.15651">
        <ele>358</ele>
        <time>2018-10-24T08:16:34Z</time>
      </trkpt>
      <trkpt lat="43.98947" lon="5.15661">
        <ele>358</ele>
        <time>2018-10-24T08:16:43Z</time>
      </trkpt>
      <trkpt lat="43.98941" lon="5.15671">
        <ele>360</ele>
        <time>2018-10-24T08:16:52Z</time>
      </trkpt>
      <trkpt lat="43.98934" lon="5.15679">
        <ele>359</ele>
        <time>2018-10-24T08:17:01Z</time>
      </trkpt>
      <trkpt lat="43.98927" lon="5.15689">
        <ele>360</ele>
        <time>2018-10-24T08:17:11Z</time>
      </trkpt>
      <trkpt lat="43.9892" lon="5.157">
        <ele>362</ele>
        <time>2018-10-24T08:17:20Z</time>
      </trkpt>
      <trkpt lat="43.98913" lon="5.1571">
        <ele>364</ele>
        <time>2018-10-24T08:17:28Z</time>
      </trkpt>
      <trkpt lat="43.98907" lon="5.1572">
        <ele>367</ele>
        <time>2018-10-24T08:17:37Z</time>
      </trkpt>
      <trkpt lat="43.98901" lon="5.15729">
        <ele>367</ele>
        <time>2018-10-24T08:17:45Z</time>
      </trkpt>
      <trkpt lat="43.98893" lon="5.15737">
        <ele>368</ele>
        <time>2018-10-24T08:17:53Z</time>
      </trkpt>
      <trkpt lat="43.98885" lon="5.15742">
        <ele>370</ele>
        <time>2018-10-24T08:18:02Z</time>
      </trkpt>
      <trkpt lat="43.98875" lon="5.15747">
        <ele>369</ele>
        <time>2018-10-24T08:18:11Z</time>
      </trkpt>
      <trkpt lat="43.98867" lon="5.15751">
        <ele>370</ele>
        <time>2018-10-24T08:18:19Z</time>
      </trkpt>
      <trkpt lat="43.98858" lon="5.15755">
        <ele>371</ele>
        <time>2018-10-24T08:18:27Z</time>
      </trkpt>
      <trkpt lat="43.98848" lon="5.15759">
        <ele>373</ele>
        <time>2018-10-24T08:18:36Z</time>
      </trkpt>
      <trkpt lat="43.98839" lon="5.15764">
        <ele>374</ele>
        <time>2018-10-24T08:18:44Z</time>
      </trkpt>
      <trkpt lat="43.9883" lon="5.15768">
        <ele>375</ele>
        <time>2018-10-24T08:18:52Z</time>
      </trkpt>
      <trkpt lat="43.98821" lon="5.15774">
        <ele>376</ele>
        <time>2018-10-24T08:19:01Z</time>
      </trkpt>
      <trkpt lat="43.98813" lon="5.15781">
        <ele>376</ele>
        <time>2018-10-24T08:19:09Z</time>
      </trkpt>
      <trkpt lat="43.98805" lon="5.15788">
        <ele>377</ele>
        <time>2018-10-24T08:19:17Z</time>
      </trkpt>
      <trkpt lat="43.98798" lon="5.15796">
        <ele>378</ele>
        <time>2018-10-24T08:19:24Z</time>
      </trkpt>
      <trkpt lat="43.9879" lon="5.15805">
        <ele>377</ele>
        <time>2018-10-24T08:19:33Z</time>
      </trkpt>
      <trkpt lat="43.98782" lon="5.15813">
        <ele>377</ele>
        <time>2018-10-24T08:19:41Z</time>
      </trkpt>
      <trkpt lat="43.98774" lon="5.15821">
        <ele>377</ele>
        <time>2018-10-24T08:19:49Z</time>
      </trkpt>
      <trkpt lat="43.98768" lon="5.15831">
        <ele>376</ele>
        <time>2018-10-24T08:19:57Z</time>
      </trkpt>
      <trkpt lat="43.98762" lon="5.15842">
        <ele>375</ele>
        <time>2018-10-24T08:20:05Z</time>
      </trkpt>
      <trkpt lat="43.98757" lon="5.15854">
        <ele>375</ele>
        <time>2018-10-24T08:20:12Z</time>
      </trkpt>
      <trkpt lat="43.9875" lon="5.15864">
        <ele>372</ele>
        <time>2018-10-24T08:20:29Z</time>
      </trkpt>
      <trkpt lat="43.98744" lon="5.15874">
        <ele>370</ele>
        <time>2018-10-24T08:23:13Z</time>
      </trkpt>
      <trkpt lat="43.98738" lon="5.15884">
        <ele>369</ele>
        <time>2018-10-24T08:23:21Z</time>
      </trkpt>
      <trkpt lat="43.98733" lon="5.15895">
        <ele>367</ele>
        <time>2018-10-24T08:23:30Z</time>
      </trkpt>
      <trkpt lat="43.98727" lon="5.15905">
        <ele>367</ele>
        <time>2018-10-24T08:23:37Z</time>
      </trkpt>
      <trkpt lat="43.98722" lon="5.15917">
        <ele>366</ele>
        <time>2018-10-24T08:23:49Z</time>
      </trkpt>
      <trkpt lat="43.98715" lon="5.15927">
        <ele>367</ele>
        <time>2018-10-24T08:23:57Z</time>
      </trkpt>
      <trkpt lat="43.98711" lon="5.15939">
        <ele>367</ele>
        <time>2018-10-24T08:24:05Z</time>
      </trkpt>
      <trkpt lat="43.98709" lon="5.15953">
        <ele>367</ele>
        <time>2018-10-24T08:24:12Z</time>
      </trkpt>
      <trkpt lat="43.98707" lon="5.15966">
        <ele>367</ele>
        <time>2018-10-24T08:24:20Z</time>
      </trkpt>
      <trkpt lat="43.98705" lon="5.15979">
        <ele>367</ele>
        <time>2018-10-24T08:24:28Z</time>
      </trkpt>
      <trkpt lat="43.98704" lon="5.15992">
        <ele>366</ele>
        <time>2018-10-24T08:24:37Z</time>
      </trkpt>
      <trkpt lat="43.98701" lon="5.16004">
        <ele>365</ele>
        <time>2018-10-24T08:24:44Z</time>
      </trkpt>
      <trkpt lat="43.98698" lon="5.16016">
        <ele>366</ele>
        <time>2018-10-24T08:24:52Z</time>
      </trkpt>
      <trkpt lat="43.98694" lon="5.16028">
        <ele>366</ele>
        <time>2018-10-24T08:24:59Z</time>
      </trkpt>
      <trkpt lat="43.9869" lon="5.1604">
        <ele>367</ele>
        <time>2018-10-24T08:25:07Z</time>
      </trkpt>
      <trkpt lat="43.98686" lon="5.16053">
        <ele>366</ele>
        <time>2018-10-24T08:25:15Z</time>
      </trkpt>
      <trkpt lat="43.98682" lon="5.16064">
        <ele>366</ele>
        <time>2018-10-24T08:25:23Z</time>
      </trkpt>
      <trkpt lat="43.98677" lon="5.16075">
        <ele>367</ele>
        <time>2018-10-24T08:25:30Z</time>
      </trkpt>
      <trkpt lat="43.98671" lon="5.16086">
        <ele>366</ele>
        <time>2018-10-24T08:25:38Z</time>
      </trkpt>
      <trkpt lat="43.98665" lon="5.16098">
        <ele>367</ele>
        <time>2018-10-24T08:25:46Z</time>
      </trkpt>
      <trkpt lat="43.98658" lon="5.16107">
        <ele>365</ele>
        <time>2018-10-24T08:25:54Z</time>
      </trkpt>
      <trkpt lat="43.98652" lon="5.16117">
        <ele>365</ele>
        <time>2018-10-24T08:26:02Z</time>
      </trkpt>
      <trkpt lat="43.98645" lon="5.16127">
        <ele>365</ele>
        <time>2018-10-24T08:26:10Z</time>
      </trkpt>
      <trkpt lat="43.98637" lon="5.16136">
        <ele>366</ele>
        <time>2018-10-24T08:26:18Z</time>
      </trkpt>
      <trkpt lat="43.98631" lon="5.16145">
        <ele>366</ele>
        <time>2018-10-24T08:26:26Z</time>
      </trkpt>
      <trkpt lat="43.98624" lon="5.16153">
        <ele>367</ele>
        <time>2018-10-24T08:26:33Z</time>
      </trkpt>
      <trkpt lat="43.98615" lon="5.16161">
        <ele>367</ele>
        <time>2018-10-24T08:26:41Z</time>
      </trkpt>
      <trkpt lat="43.98607" lon="5.16167">
        <ele>366</ele>
        <time>2018-10-24T08:26:48Z</time>
      </trkpt>
      <trkpt lat="43.986" lon="5.16178">
        <ele>367</ele>
        <time>2018-10-24T08:26:56Z</time>
      </trkpt>
      <trkpt lat="43.98594" lon="5.16189">
        <ele>366</ele>
        <time>2018-10-24T08:27:04Z</time>
      </trkpt>
      <trkpt lat="43.98588" lon="5.16198">
        <ele>366</ele>
        <time>2018-10-24T08:27:11Z</time>
      </trkpt>
      <trkpt lat="43.98582" lon="5.16207">
        <ele>366</ele>
        <time>2018-10-24T08:27:18Z</time>
      </trkpt>
      <trkpt lat="43.98575" lon="5.16217">
        <ele>366</ele>
        <time>2018-10-24T08:27:25Z</time>
      </trkpt>
      <trkpt lat="43.98572" lon="5.16228">
        <ele>366</ele>
        <time>2018-10-24T08:27:32Z</time>
      </trkpt>
      <trkpt lat="43.98566" lon="5.16239">
        <ele>364</ele>
        <time>2018-10-24T08:27:40Z</time>
      </trkpt>
      <trkpt lat="43.98558" lon="5.16247">
        <ele>365</ele>
        <time>2018-10-24T08:27:47Z</time>
      </trkpt>
      <trkpt lat="43.9855" lon="5.16254">
        <ele>364</ele>
        <time>2018-10-24T08:27:54Z</time>
      </trkpt>
      <trkpt lat="43.98544" lon="5.16263">
        <ele>364</ele>
        <time>2018-10-24T08:28:01Z</time>
      </trkpt>
      <trkpt lat="43.98537" lon="5.16272">
        <ele>363</ele>
        <time>2018-10-24T08:28:08Z</time>
      </trkpt>
      <trkpt lat="43.9853" lon="5.16282">
        <ele>362</ele>
        <time>2018-10-24T08:28:15Z</time>
      </trkpt>
      <trkpt lat="43.98523" lon="5.16289">
        <ele>361</ele>
        <time>2018-10-24T08:28:23Z</time>
      </trkpt>
      <trkpt lat="43.98514" lon="5.16283">
        <ele>361</ele>
        <time>2018-10-24T08:28:32Z</time>
      </trkpt>
      <trkpt lat="43.98504" lon="5.16282">
        <ele>360</ele>
        <time>2018-10-24T08:28:42Z</time>
      </trkpt>
      <trkpt lat="43.98496" lon="5.16278">
        <ele>359</ele>
        <time>2018-10-24T08:28:52Z</time>
      </trkpt>
      <trkpt lat="43.98487" lon="5.16273">
        <ele>359</ele>
        <time>2018-10-24T08:29:00Z</time>
      </trkpt>
      <trkpt lat="43.98478" lon="5.16269">
        <ele>359</ele>
        <time>2018-10-24T08:29:07Z</time>
      </trkpt>
      <trkpt lat="43.98468" lon="5.16267">
        <ele>358</ele>
        <time>2018-10-24T08:29:16Z</time>
      </trkpt>
      <trkpt lat="43.98459" lon="5.16264">
        <ele>357</ele>
        <time>2018-10-24T08:29:25Z</time>
      </trkpt>
      <trkpt lat="43.98449" lon="5.16263">
        <ele>353</ele>
        <time>2018-10-24T08:29:35Z</time>
      </trkpt>
      <trkpt lat="43.98442" lon="5.16254">
        <ele>352</ele>
        <time>2018-10-24T08:29:44Z</time>
      </trkpt>
      <trkpt lat="43.98444" lon="5.16241">
        <ele>351</ele>
        <time>2018-10-24T08:29:51Z</time>
      </trkpt>
      <trkpt lat="43.98449" lon="5.16229">
        <ele>349</ele>
        <time>2018-10-24T08:30:00Z</time>
      </trkpt>
      <trkpt lat="43.98449" lon="5.16216">
        <ele>348</ele>
        <time>2018-10-24T08:30:09Z</time>
      </trkpt>
      <trkpt lat="43.98441" lon="5.16209">
        <ele>349</ele>
        <time>2018-10-24T08:30:16Z</time>
      </trkpt>
      <trkpt lat="43.98433" lon="5.16202">
        <ele>348</ele>
        <time>2018-10-24T08:30:26Z</time>
      </trkpt>
      <trkpt lat="43.98424" lon="5.16195">
        <ele>348</ele>
        <time>2018-10-24T08:30:34Z</time>
      </trkpt>
      <trkpt lat="43.98416" lon="5.16187">
        <ele>350</ele>
        <time>2018-10-24T08:30:42Z</time>
      </trkpt>
      <trkpt lat="43.98407" lon="5.16184">
        <ele>349</ele>
        <time>2018-10-24T08:30:51Z</time>
      </trkpt>
      <trkpt lat="43.98399" lon="5.16176">
        <ele>348</ele>
        <time>2018-10-24T08:31:01Z</time>
      </trkpt>
      <trkpt lat="43.98391" lon="5.1617">
        <ele>348</ele>
        <time>2018-10-24T08:31:10Z</time>
      </trkpt>
      <trkpt lat="43.98382" lon="5.16164">
        <ele>348</ele>
        <time>2018-10-24T08:31:17Z</time>
      </trkpt>
      <trkpt lat="43.98377" lon="5.16152">
        <ele>348</ele>
        <time>2018-10-24T08:31:25Z</time>
      </trkpt>
      <trkpt lat="43.98369" lon="5.16145">
        <ele>348</ele>
        <time>2018-10-24T08:31:32Z</time>
      </trkpt>
      <trkpt lat="43.98363" lon="5.16135">
        <ele>349</ele>
        <time>2018-10-24T08:31:39Z</time>
      </trkpt>
      <trkpt lat="43.98359" lon="5.16123">
        <ele>348</ele>
        <time>2018-10-24T08:31:47Z</time>
      </trkpt>
      <trkpt lat="43.98361" lon="5.1611">
        <ele>347</ele>
        <time>2018-10-24T08:31:53Z</time>
      </trkpt>
      <trkpt lat="43.98357" lon="5.16098">
        <ele>348</ele>
        <time>2018-10-24T08:32:01Z</time>
      </trkpt>
      <trkpt lat="43.98351" lon="5.16088">
        <ele>347</ele>
        <time>2018-10-24T08:32:08Z</time>
      </trkpt>
      <trkpt lat="43.98346" lon="5.16076">
        <ele>347</ele>
        <time>2018-10-24T08:32:16Z</time>
      </trkpt>
      <trkpt lat="43.98338" lon="5.16069">
        <ele>347</ele>
        <time>2018-10-24T08:32:24Z</time>
      </trkpt>
      <trkpt lat="43.98329" lon="5.16065">
        <ele>346</ele>
        <time>2018-10-24T08:32:31Z</time>
      </trkpt>
      <trkpt lat="43.98321" lon="5.16057">
        <ele>347</ele>
        <time>2018-10-24T08:32:42Z</time>
      </trkpt>
      <trkpt lat="43.98311" lon="5.16056">
        <ele>345</ele>
        <time>2018-10-24T08:32:53Z</time>
      </trkpt>
      <trkpt lat="43.98303" lon="5.16051">
        <ele>346</ele>
        <time>2018-10-24T08:33:00Z</time>
      </trkpt>
      <trkpt lat="43.98295" lon="5.16045">
        <ele>345</ele>
        <time>2018-10-24T08:33:07Z</time>
      </trkpt>
      <trkpt lat="43.98285" lon="5.16042">
        <ele>344</ele>
        <time>2018-10-24T08:33:17Z</time>
      </trkpt>
      <trkpt lat="43.98278" lon="5.16034">
        <ele>344</ele>
        <time>2018-10-24T08:33:24Z</time>
      </trkpt>
      <trkpt lat="43.98271" lon="5.16025">
        <ele>343</ele>
        <time>2018-10-24T08:33:32Z</time>
      </trkpt>
      <trkpt lat="43.98262" lon="5.1602">
        <ele>343</ele>
        <time>2018-10-24T08:33:41Z</time>
      </trkpt>
      <trkpt lat="43.98253" lon="5.16013">
        <ele>342</ele>
        <time>2018-10-24T08:33:50Z</time>
      </trkpt>
      <trkpt lat="43.98246" lon="5.16003">
        <ele>342</ele>
        <time>2018-10-24T08:33:58Z</time>
      </trkpt>
      <trkpt lat="43.98237" lon="5.15999">
        <ele>340</ele>
        <time>2018-10-24T08:34:06Z</time>
      </trkpt>
      <trkpt lat="43.98228" lon="5.15998">
        <ele>340</ele>
        <time>2018-10-24T08:34:16Z</time>
      </trkpt>
      <trkpt lat="43.98219" lon="5.16006">
        <ele>339</ele>
        <time>2018-10-24T08:34:25Z</time>
      </trkpt>
      <trkpt lat="43.9821" lon="5.16008">
        <ele>338</ele>
        <time>2018-10-24T08:34:33Z</time>
      </trkpt>
      <trkpt lat="43.982" lon="5.1601">
        <ele>338</ele>
        <time>2018-10-24T08:34:42Z</time>
      </trkpt>
      <trkpt lat="43.98191" lon="5.16006">
        <ele>337</ele>
        <time>2018-10-24T08:34:50Z</time>
      </trkpt>
      <trkpt lat="43.98181" lon="5.16004">
        <ele>335</ele>
        <time>2018-10-24T08:34:59Z</time>
      </trkpt>
      <trkpt lat="43.98173" lon="5.1601">
        <ele>334</ele>
        <time>2018-10-24T08:35:08Z</time>
      </trkpt>
      <trkpt lat="43.98164" lon="5.16013">
        <ele>336</ele>
        <time>2018-10-24T08:35:16Z</time>
      </trkpt>
      <trkpt lat="43.98155" lon="5.16018">
        <ele>337</ele>
        <time>2018-10-24T08:35:23Z</time>
      </trkpt>
      <trkpt lat="43.98147" lon="5.16024">
        <ele>338</ele>
        <time>2018-10-24T08:35:34Z</time>
      </trkpt>
      <trkpt lat="43.98137" lon="5.16027">
        <ele>340</ele>
        <time>2018-10-24T08:35:45Z</time>
      </trkpt>
      <trkpt lat="43.9813" lon="5.16036">
        <ele>340</ele>
        <time>2018-10-24T08:35:53Z</time>
      </trkpt>
      <trkpt lat="43.98121" lon="5.16041">
        <ele>338</ele>
        <time>2018-10-24T08:36:01Z</time>
      </trkpt>
      <trkpt lat="43.98114" lon="5.16051">
        <ele>338</ele>
        <time>2018-10-24T08:36:11Z</time>
      </trkpt>
      <trkpt lat="43.98108" lon="5.1606">
        <ele>339</ele>
        <time>2018-10-24T08:36:20Z</time>
      </trkpt>
      <trkpt lat="43.981" lon="5.16067">
        <ele>340</ele>
        <time>2018-10-24T08:36:28Z</time>
      </trkpt>
      <trkpt lat="43.98092" lon="5.16074">
        <ele>340</ele>
        <time>2018-10-24T08:36:36Z</time>
      </trkpt>
      <trkpt lat="43.98083" lon="5.16069">
        <ele>340</ele>
        <time>2018-10-24T08:36:47Z</time>
      </trkpt>
      <trkpt lat="43.98074" lon="5.16071">
        <ele>341</ele>
        <time>2018-10-24T08:36:56Z</time>
      </trkpt>
      <trkpt lat="43.98068" lon="5.16082">
        <ele>341</ele>
        <time>2018-10-24T08:37:05Z</time>
      </trkpt>
      <trkpt lat="43.98061" lon="5.1609">
        <ele>341</ele>
        <time>2018-10-24T08:37:13Z</time>
      </trkpt>
      <trkpt lat="43.98055" lon="5.161">
        <ele>340</ele>
        <time>2018-10-24T08:37:21Z</time>
      </trkpt>
      <trkpt lat="43.98048" lon="5.16107">
        <ele>340</ele>
        <time>2018-10-24T08:37:28Z</time>
      </trkpt>
      <trkpt lat="43.98041" lon="5.16116">
        <ele>340</ele>
        <time>2018-10-24T08:37:36Z</time>
      </trkpt>
      <trkpt lat="43.98036" lon="5.16127">
        <ele>340</ele>
        <time>2018-10-24T08:37:44Z</time>
      </trkpt>
      <trkpt lat="43.98032" lon="5.16141">
        <ele>342</ele>
        <time>2018-10-24T08:37:53Z</time>
      </trkpt>
      <trkpt lat="43.98029" lon="5.16152">
        <ele>341</ele>
        <time>2018-10-24T08:38:00Z</time>
      </trkpt>
      <trkpt lat="43.98026" lon="5.16164">
        <ele>341</ele>
        <time>2018-10-24T08:38:07Z</time>
      </trkpt>
      <trkpt lat="43.98023" lon="5.16177">
        <ele>341</ele>
        <time>2018-10-24T08:38:15Z</time>
      </trkpt>
      <trkpt lat="43.98021" lon="5.16191">
        <ele>342</ele>
        <time>2018-10-24T08:38:23Z</time>
      </trkpt>
      <trkpt lat="43.98021" lon="5.16204">
        <ele>342</ele>
        <time>2018-10-24T08:38:30Z</time>
      </trkpt>
      <trkpt lat="43.98023" lon="5.16217">
        <ele>343</ele>
        <time>2018-10-24T08:38:38Z</time>
      </trkpt>
      <trkpt lat="43.98024" lon="5.16231">
        <ele>342</ele>
        <time>2018-10-24T08:38:47Z</time>
      </trkpt>
      <trkpt lat="43.9802" lon="5.16242">
        <ele>343</ele>
        <time>2018-10-24T08:38:54Z</time>
      </trkpt>
      <trkpt lat="43.98023" lon="5.16255">
        <ele>344</ele>
        <time>2018-10-24T08:39:01Z</time>
      </trkpt>
      <trkpt lat="43.98024" lon="5.16268">
        <ele>345</ele>
        <time>2018-10-24T08:39:08Z</time>
      </trkpt>
      <trkpt lat="43.98027" lon="5.16279">
        <ele>345</ele>
        <time>2018-10-24T08:39:15Z</time>
      </trkpt>
      <trkpt lat="43.98028" lon="5.16293">
        <ele>346</ele>
        <time>2018-10-24T08:39:23Z</time>
      </trkpt>
      <trkpt lat="43.98031" lon="5.16305">
        <ele>346</ele>
        <time>2018-10-24T08:39:31Z</time>
      </trkpt>
      <trkpt lat="43.98035" lon="5.16318">
        <ele>347</ele>
        <time>2018-10-24T08:39:39Z</time>
      </trkpt>
      <trkpt lat="43.98038" lon="5.1633">
        <ele>348</ele>
        <time>2018-10-24T08:39:46Z</time>
      </trkpt>
      <trkpt lat="43.98044" lon="5.16341">
        <ele>347</ele>
        <time>2018-10-24T08:39:53Z</time>
      </trkpt>
      <trkpt lat="43.98047" lon="5.16353">
        <ele>348</ele>
        <time>2018-10-24T08:40:00Z</time>
      </trkpt>
      <trkpt lat="43.98053" lon="5.16364">
        <ele>348</ele>
        <time>2018-10-24T08:40:09Z</time>
      </trkpt>
      <trkpt lat="43.98057" lon="5.16377">
        <ele>347</ele>
        <time>2018-10-24T08:40:17Z</time>
      </trkpt>
      <trkpt lat="43.98058" lon="5.1639">
        <ele>349</ele>
        <time>2018-10-24T08:40:25Z</time>
      </trkpt>
      <trkpt lat="43.98059" lon="5.16402">
        <ele>348</ele>
        <time>2018-10-24T08:40:33Z</time>
      </trkpt>
      <trkpt lat="43.98059" lon="5.16415">
        <ele>349</ele>
        <time>2018-10-24T08:40:41Z</time>
      </trkpt>
      <trkpt lat="43.98062" lon="5.16428">
        <ele>349</ele>
        <time>2018-10-24T08:40:49Z</time>
      </trkpt>
      <trkpt lat="43.98061" lon="5.16442">
        <ele>348</ele>
        <time>2018-10-24T08:40:58Z</time>
      </trkpt>
      <trkpt lat="43.98059" lon="5.16455">
        <ele>348</ele>
        <time>2018-10-24T08:41:06Z</time>
      </trkpt>
      <trkpt lat="43.98054" lon="5.16467">
        <ele>347</ele>
        <time>2018-10-24T08:41:14Z</time>
      </trkpt>
      <trkpt lat="43.9805" lon="5.16479">
        <ele>347</ele>
        <time>2018-10-24T08:41:22Z</time>
      </trkpt>
      <trkpt lat="43.98045" lon="5.16491">
        <ele>346</ele>
        <time>2018-10-24T08:41:30Z</time>
      </trkpt>
      <trkpt lat="43.9804" lon="5.16502">
        <ele>345</ele>
        <time>2018-10-24T08:41:37Z</time>
      </trkpt>
      <trkpt lat="43.98039" lon="5.16516">
        <ele>348</ele>
        <time>2018-10-24T08:41:45Z</time>
      </trkpt>
      <trkpt lat="43.98037" lon="5.16529">
        <ele>348</ele>
        <time>2018-10-24T08:41:53Z</time>
      </trkpt>
      <trkpt lat="43.9804" lon="5.16541">
        <ele>348</ele>
        <time>2018-10-24T08:42:01Z</time>
      </trkpt>
      <trkpt lat="43.98042" lon="5.16555">
        <ele>347</ele>
        <time>2018-10-24T08:42:08Z</time>
      </trkpt>
      <trkpt lat="43.98047" lon="5.16566">
        <ele>348</ele>
        <time>2018-10-24T08:42:15Z</time>
      </trkpt>
      <trkpt lat="43.98049" lon="5.16578">
        <ele>349</ele>
        <time>2018-10-24T08:42:24Z</time>
      </trkpt>
      <trkpt lat="43.98051" lon="5.16591">
        <ele>349</ele>
        <time>2018-10-24T08:42:31Z</time>
      </trkpt>
      <trkpt lat="43.9805" lon="5.16605">
        <ele>348</ele>
        <time>2018-10-24T08:42:39Z</time>
      </trkpt>
      <trkpt lat="43.98051" lon="5.16617">
        <ele>349</ele>
        <time>2018-10-24T08:42:47Z</time>
      </trkpt>
      <trkpt lat="43.98049" lon="5.1663">
        <ele>350</ele>
        <time>2018-10-24T08:42:55Z</time>
      </trkpt>
      <trkpt lat="43.98052" lon="5.16643">
        <ele>349</ele>
        <time>2018-10-24T08:43:02Z</time>
      </trkpt>
      <trkpt lat="43.98051" lon="5.16656">
        <ele>348</ele>
        <time>2018-10-24T08:43:10Z</time>
      </trkpt>
      <trkpt lat="43.98051" lon="5.16668">
        <ele>348</ele>
        <time>2018-10-24T08:43:17Z</time>
      </trkpt>
      <trkpt lat="43.98051" lon="5.16682">
        <ele>348</ele>
        <time>2018-10-24T08:43:26Z</time>
      </trkpt>
      <trkpt lat="43.98051" lon="5.16695">
        <ele>348</ele>
        <time>2018-10-24T08:43:33Z</time>
      </trkpt>
      <trkpt lat="43.98049" lon="5.16708">
        <ele>349</ele>
        <time>2018-10-24T08:43:41Z</time>
      </trkpt>
      <trkpt lat="43.98049" lon="5.16722">
        <ele>349</ele>
        <time>2018-10-24T08:43:49Z</time>
      </trkpt>
      <trkpt lat="43.98046" lon="5.16734">
        <ele>346</ele>
        <time>2018-10-24T08:43:58Z</time>
      </trkpt>
      <trkpt lat="43.98045" lon="5.16746">
        <ele>344</ele>
        <time>2018-10-24T08:44:07Z</time>
      </trkpt>
      <trkpt lat="43.98045" lon="5.1676">
        <ele>346</ele>
        <time>2018-10-24T08:44:15Z</time>
      </trkpt>
      <trkpt lat="43.98047" lon="5.16772">
        <ele>346</ele>
        <time>2018-10-24T08:44:22Z</time>
      </trkpt>
      <trkpt lat="43.98049" lon="5.16786">
        <ele>348</ele>
        <time>2018-10-24T08:44:30Z</time>
      </trkpt>
      <trkpt lat="43.9805" lon="5.16798">
        <ele>348</ele>
        <time>2018-10-24T08:44:38Z</time>
      </trkpt>
      <trkpt lat="43.98055" lon="5.1681">
        <ele>348</ele>
        <time>2018-10-24T08:44:47Z</time>
      </trkpt>
      <trkpt lat="43.98059" lon="5.16822">
        <ele>348</ele>
        <time>2018-10-24T08:44:55Z</time>
      </trkpt>
      <trkpt lat="43.98064" lon="5.16834">
        <ele>346</ele>
        <time>2018-10-24T08:45:04Z</time>
      </trkpt>
      <trkpt lat="43.98069" lon="5.16846">
        <ele>347</ele>
        <time>2018-10-24T08:45:13Z</time>
      </trkpt>
      <trkpt lat="43.98075" lon="5.16856">
        <ele>346</ele>
        <time>2018-10-24T08:45:21Z</time>
      </trkpt>
      <trkpt lat="43.98082" lon="5.16865">
        <ele>346</ele>
        <time>2018-10-24T08:45:30Z</time>
      </trkpt>
      <trkpt lat="43.98085" lon="5.16877">
        <ele>346</ele>
        <time>2018-10-24T08:45:39Z</time>
      </trkpt>
      <trkpt lat="43.98092" lon="5.16885">
        <ele>348</ele>
        <time>2018-10-24T08:45:47Z</time>
      </trkpt>
      <trkpt lat="43.98101" lon="5.16894">
        <ele>348</ele>
        <time>2018-10-24T08:45:56Z</time>
      </trkpt>
      <trkpt lat="43.98109" lon="5.16899">
        <ele>350</ele>
        <time>2018-10-24T08:46:02Z</time>
      </trkpt>
      <trkpt lat="43.98117" lon="5.16908">
        <ele>350</ele>
        <time>2018-10-24T08:46:11Z</time>
      </trkpt>
      <trkpt lat="43.98123" lon="5.16917">
        <ele>351</ele>
        <time>2018-10-24T08:46:19Z</time>
      </trkpt>
      <trkpt lat="43.9813" lon="5.16926">
        <ele>350</ele>
        <time>2018-10-24T08:46:26Z</time>
      </trkpt>
      <trkpt lat="43.98135" lon="5.16938">
        <ele>350</ele>
        <time>2018-10-24T08:46:34Z</time>
      </trkpt>
      <trkpt lat="43.98141" lon="5.16949">
        <ele>349</ele>
        <time>2018-10-24T08:46:42Z</time>
      </trkpt>
      <trkpt lat="43.98148" lon="5.16957">
        <ele>351</ele>
        <time>2018-10-24T08:46:50Z</time>
      </trkpt>
      <trkpt lat="43.98154" lon="5.16967">
        <ele>350</ele>
        <time>2018-10-24T08:46:58Z</time>
      </trkpt>
      <trkpt lat="43.98162" lon="5.16974">
        <ele>351</ele>
        <time>2018-10-24T08:47:06Z</time>
      </trkpt>
      <trkpt lat="43.98171" lon="5.16981">
        <ele>352</ele>
        <time>2018-10-24T08:47:14Z</time>
      </trkpt>
      <trkpt lat="43.98178" lon="5.1699">
        <ele>351</ele>
        <time>2018-10-24T08:47:22Z</time>
      </trkpt>
      <trkpt lat="43.98185" lon="5.16999">
        <ele>353</ele>
        <time>2018-10-24T08:47:30Z</time>
      </trkpt>
      <trkpt lat="43.98192" lon="5.17007">
        <ele>353</ele>
        <time>2018-10-24T08:47:37Z</time>
      </trkpt>
      <trkpt lat="43.982" lon="5.17014">
        <ele>352</ele>
        <time>2018-10-24T08:47:45Z</time>
      </trkpt>
      <trkpt lat="43.98208" lon="5.17023">
        <ele>352</ele>
        <time>2018-10-24T08:47:53Z</time>
      </trkpt>
      <trkpt lat="43.98215" lon="5.17031">
        <ele>354</ele>
        <time>2018-10-24T08:48:00Z</time>
      </trkpt>
      <trkpt lat="43.98224" lon="5.17038">
        <ele>353</ele>
        <time>2018-10-24T08:48:09Z</time>
      </trkpt>
      <trkpt lat="43.98229" lon="5.17048">
        <ele>352</ele>
        <time>2018-10-24T08:48:17Z</time>
      </trkpt>
      <trkpt lat="43.98237" lon="5.17056">
        <ele>354</ele>
        <time>2018-10-24T08:48:25Z</time>
      </trkpt>
      <trkpt lat="43.98246" lon="5.17058">
        <ele>353</ele>
        <time>2018-10-24T08:48:32Z</time>
      </trkpt>
      <trkpt lat="43.98255" lon="5.17063">
        <ele>354</ele>
        <time>2018-10-24T08:48:42Z</time>
      </trkpt>
      <trkpt lat="43.98265" lon="5.17067">
        <ele>356</ele>
        <time>2018-10-24T08:48:51Z</time>
      </trkpt>
      <trkpt lat="43.98274" lon="5.17071">
        <ele>355</ele>
        <time>2018-10-24T08:48:59Z</time>
      </trkpt>
      <trkpt lat="43.98281" lon="5.17079">
        <ele>355</ele>
        <time>2018-10-24T08:49:05Z</time>
      </trkpt>
      <trkpt lat="43.98289" lon="5.17086">
        <ele>355</ele>
        <time>2018-10-24T08:49:13Z</time>
      </trkpt>
      <trkpt lat="43.98297" lon="5.17093">
        <ele>356</ele>
        <time>2018-10-24T08:49:21Z</time>
      </trkpt>
      <trkpt lat="43.98305" lon="5.171">
        <ele>356</ele>
        <time>2018-10-24T08:49:28Z</time>
      </trkpt>
      <trkpt lat="43.98313" lon="5.17104">
        <ele>355</ele>
        <time>2018-10-24T08:49:36Z</time>
      </trkpt>
      <trkpt lat="43.98322" lon="5.17109">
        <ele>355</ele>
        <time>2018-10-24T08:49:43Z</time>
      </trkpt>
      <trkpt lat="43.9833" lon="5.17113">
        <ele>355</ele>
        <time>2018-10-24T08:49:50Z</time>
      </trkpt>
      <trkpt lat="43.9834" lon="5.17118">
        <ele>356</ele>
        <time>2018-10-24T08:49:58Z</time>
      </trkpt>
      <trkpt lat="43.98348" lon="5.17127">
        <ele>357</ele>
        <time>2018-10-24T08:50:06Z</time>
      </trkpt>
      <trkpt lat="43.98357" lon="5.17131">
        <ele>356</ele>
        <time>2018-10-24T08:50:15Z</time>
      </trkpt>
      <trkpt lat="43.98366" lon="5.17137">
        <ele>356</ele>
        <time>2018-10-24T08:50:28Z</time>
      </trkpt>
      <trkpt lat="43.98374" lon="5.17142">
        <ele>355</ele>
        <time>2018-10-24T08:50:35Z</time>
      </trkpt>
      <trkpt lat="43.98382" lon="5.17151">
        <ele>357</ele>
        <time>2018-10-24T08:50:44Z</time>
      </trkpt>
      <trkpt lat="43.98388" lon="5.17161">
        <ele>355</ele>
        <time>2018-10-24T08:50:52Z</time>
      </trkpt>
      <trkpt lat="43.98396" lon="5.17169">
        <ele>357</ele>
        <time>2018-10-24T08:50:59Z</time>
      </trkpt>
      <trkpt lat="43.98405" lon="5.17174">
        <ele>358</ele>
        <time>2018-10-24T08:51:08Z</time>
      </trkpt>
      <trkpt lat="43.98413" lon="5.1718">
        <ele>356</ele>
        <time>2018-10-24T08:51:15Z</time>
      </trkpt>
      <trkpt lat="43.9842" lon="5.17188">
        <ele>356</ele>
        <time>2018-10-24T08:51:22Z</time>
      </trkpt>
      <trkpt lat="43.98428" lon="5.17195">
        <ele>356</ele>
        <time>2018-10-24T08:51:29Z</time>
      </trkpt>
      <trkpt lat="43.98436" lon="5.17203">
        <ele>358</ele>
        <time>2018-10-24T08:51:36Z</time>
      </trkpt>
      <trkpt lat="43.98443" lon="5.17214">
        <ele>358</ele>
        <time>2018-10-24T08:51:45Z</time>
      </trkpt>
      <trkpt lat="43.9845" lon="5.17223">
        <ele>357</ele>
        <time>2018-10-24T08:51:51Z</time>
      </trkpt>
      <trkpt lat="43.98457" lon="5.17231">
        <ele>358</ele>
        <time>2018-10-24T08:51:59Z</time>
      </trkpt>
      <trkpt lat="43.98467" lon="5.17235">
        <ele>359</ele>
        <time>2018-10-24T08:52:08Z</time>
      </trkpt>
      <trkpt lat="43.98477" lon="5.17236">
        <ele>357</ele>
        <time>2018-10-24T08:52:17Z</time>
      </trkpt>
      <trkpt lat="43.98486" lon="5.17239">
        <ele>357</ele>
        <time>2018-10-24T08:52:26Z</time>
      </trkpt>
      <trkpt lat="43.98495" lon="5.17242">
        <ele>354</ele>
        <time>2018-10-24T08:52:35Z</time>
      </trkpt>
      <trkpt lat="43.98505" lon="5.17246">
        <ele>354</ele>
        <time>2018-10-24T08:52:43Z</time>
      </trkpt>
      <trkpt lat="43.98514" lon="5.1725">
        <ele>354</ele>
        <time>2018-10-24T08:52:51Z</time>
      </trkpt>
      <trkpt lat="43.98524" lon="5.17253">
        <ele>355</ele>
        <time>2018-10-24T08:53:00Z</time>
      </trkpt>
      <trkpt lat="43.98534" lon="5.17254">
        <ele>354</ele>
        <time>2018-10-24T08:53:10Z</time>
      </trkpt>
      <trkpt lat="43.98543" lon="5.17256">
        <ele>352</ele>
        <time>2018-10-24T08:53:18Z</time>
      </trkpt>
      <trkpt lat="43.98552" lon="5.17256">
        <ele>350</ele>
        <time>2018-10-24T08:53:25Z</time>
      </trkpt>
      <trkpt lat="43.98562" lon="5.17258">
        <ele>348</ele>
        <time>2018-10-24T08:53:32Z</time>
      </trkpt>
      <trkpt lat="43.98572" lon="5.1726">
        <ele>348</ele>
        <time>2018-10-24T08:53:39Z</time>
      </trkpt>
      <trkpt lat="43.98579" lon="5.17269">
        <ele>347</ele>
        <time>2018-10-24T08:53:48Z</time>
      </trkpt>
      <trkpt lat="43.98585" lon="5.17281">
        <ele>346</ele>
        <time>2018-10-24T08:53:57Z</time>
      </trkpt>
      <trkpt lat="43.9859" lon="5.17292">
        <ele>345</ele>
        <time>2018-10-24T08:54:05Z</time>
      </trkpt>
      <trkpt lat="43.98594" lon="5.17304">
        <ele>343</ele>
        <time>2018-10-24T08:54:14Z</time>
      </trkpt>
      <trkpt lat="43.986" lon="5.17314">
        <ele>343</ele>
        <time>2018-10-24T08:54:25Z</time>
      </trkpt>
      <trkpt lat="43.98606" lon="5.17325">
        <ele>341</ele>
        <time>2018-10-24T08:54:33Z</time>
      </trkpt>
      <trkpt lat="43.98611" lon="5.17335">
        <ele>341</ele>
        <time>2018-10-24T08:54:41Z</time>
      </trkpt>
      <trkpt lat="43.98617" lon="5.17345">
        <ele>338</ele>
        <time>2018-10-24T08:54:50Z</time>
      </trkpt>
      <trkpt lat="43.9861" lon="5.17354">
        <ele>333</ele>
        <time>2018-10-24T08:56:18Z</time>
      </trkpt>
      <trkpt lat="43.98616" lon="5.17346">
        <ele>336</ele>
        <time>2018-10-24T08:57:32Z</time>
      </trkpt>
      <trkpt lat="43.98613" lon="5.17357">
        <ele>327</ele>
        <time>2018-10-24T08:58:12Z</time>
      </trkpt>
      <trkpt lat="43.98605" lon="5.17366">
        <ele>328</ele>
        <time>2018-10-24T08:58:22Z</time>
      </trkpt>
      <trkpt lat="43.98598" lon="5.17373">
        <ele>329</ele>
        <time>2018-10-24T08:58:29Z</time>
      </trkpt>
      <trkpt lat="43.98591" lon="5.17382">
        <ele>327</ele>
        <time>2018-10-24T08:58:37Z</time>
      </trkpt>
      <trkpt lat="43.98584" lon="5.17392">
        <ele>327</ele>
        <time>2018-10-24T08:58:45Z</time>
      </trkpt>
      <trkpt lat="43.98576" lon="5.17401">
        <ele>328</ele>
        <time>2018-10-24T08:58:53Z</time>
      </trkpt>
      <trkpt lat="43.98568" lon="5.17408">
        <ele>327</ele>
        <time>2018-10-24T08:59:01Z</time>
      </trkpt>
      <trkpt lat="43.98559" lon="5.17411">
        <ele>328</ele>
        <time>2018-10-24T08:59:13Z</time>
      </trkpt>
      <trkpt lat="43.9855" lon="5.17415">
        <ele>328</ele>
        <time>2018-10-24T08:59:21Z</time>
      </trkpt>
      <trkpt lat="43.98541" lon="5.17418">
        <ele>326</ele>
        <time>2018-10-24T08:59:31Z</time>
      </trkpt>
      <trkpt lat="43.98532" lon="5.17423">
        <ele>326</ele>
        <time>2018-10-24T08:59:40Z</time>
      </trkpt>
      <trkpt lat="43.98522" lon="5.17427">
        <ele>325</ele>
        <time>2018-10-24T08:59:48Z</time>
      </trkpt>
      <trkpt lat="43.98514" lon="5.17429">
        <ele>327</ele>
        <time>2018-10-24T08:59:56Z</time>
      </trkpt>
      <trkpt lat="43.98505" lon="5.17435">
        <ele>326</ele>
        <time>2018-10-24T09:00:05Z</time>
      </trkpt>
      <trkpt lat="43.98496" lon="5.17438">
        <ele>325</ele>
        <time>2018-10-24T09:00:15Z</time>
      </trkpt>
      <trkpt lat="43.98487" lon="5.17444">
        <ele>323</ele>
        <time>2018-10-24T09:00:25Z</time>
      </trkpt>
      <trkpt lat="43.98478" lon="5.17446">
        <ele>323</ele>
        <time>2018-10-24T09:00:32Z</time>
      </trkpt>
      <trkpt lat="43.98469" lon="5.17449">
        <ele>323</ele>
        <time>2018-10-24T09:00:39Z</time>
      </trkpt>
      <trkpt lat="43.9846" lon="5.17451">
        <ele>323</ele>
        <time>2018-10-24T09:00:47Z</time>
      </trkpt>
      <trkpt lat="43.98452" lon="5.17458">
        <ele>323</ele>
        <time>2018-10-24T09:00:57Z</time>
      </trkpt>
      <trkpt lat="43.98444" lon="5.17465">
        <ele>323</ele>
        <time>2018-10-24T09:01:09Z</time>
      </trkpt>
      <trkpt lat="43.98435" lon="5.17469">
        <ele>323</ele>
        <time>2018-10-24T09:01:17Z</time>
      </trkpt>
      <trkpt lat="43.98425" lon="5.17472">
        <ele>323</ele>
        <time>2018-10-24T09:01:23Z</time>
      </trkpt>
      <trkpt lat="43.98416" lon="5.17475">
        <ele>324</ele>
        <time>2018-10-24T09:01:31Z</time>
      </trkpt>
      <trkpt lat="43.98407" lon="5.1748">
        <ele>325</ele>
        <time>2018-10-24T09:01:38Z</time>
      </trkpt>
      <trkpt lat="43.98397" lon="5.17484">
        <ele>322</ele>
        <time>2018-10-24T09:01:46Z</time>
      </trkpt>
      <trkpt lat="43.98388" lon="5.17487">
        <ele>322</ele>
        <time>2018-10-24T09:01:54Z</time>
      </trkpt>
      <trkpt lat="43.9838" lon="5.17492">
        <ele>319</ele>
        <time>2018-10-24T09:02:02Z</time>
      </trkpt>
      <trkpt lat="43.98372" lon="5.17499">
        <ele>320</ele>
        <time>2018-10-24T09:02:10Z</time>
      </trkpt>
      <trkpt lat="43.98363" lon="5.17503">
        <ele>320</ele>
        <time>2018-10-24T09:02:17Z</time>
      </trkpt>
      <trkpt lat="43.98355" lon="5.17508">
        <ele>321</ele>
        <time>2018-10-24T09:02:25Z</time>
      </trkpt>
      <trkpt lat="43.98347" lon="5.17516">
        <ele>321</ele>
        <time>2018-10-24T09:02:33Z</time>
      </trkpt>
      <trkpt lat="43.98338" lon="5.17522">
        <ele>321</ele>
        <time>2018-10-24T09:02:40Z</time>
      </trkpt>
      <trkpt lat="43.9833" lon="5.17529">
        <ele>320</ele>
        <time>2018-10-24T09:02:47Z</time>
      </trkpt>
      <trkpt lat="43.98321" lon="5.17534">
        <ele>320</ele>
        <time>2018-10-24T09:02:54Z</time>
      </trkpt>
      <trkpt lat="43.98312" lon="5.1754">
        <ele>318</ele>
        <time>2018-10-24T09:03:03Z</time>
      </trkpt>
      <trkpt lat="43.98302" lon="5.17543">
        <ele>317</ele>
        <time>2018-10-24T09:03:11Z</time>
      </trkpt>
      <trkpt lat="43.98284" lon="5.17547">
        <ele>316</ele>
        <time>2018-10-24T09:03:24Z</time>
      </trkpt>
      <trkpt lat="43.98277" lon="5.17557">
        <ele>316</ele>
        <time>2018-10-24T09:03:33Z</time>
      </trkpt>
      <trkpt lat="43.98273" lon="5.1757">
        <ele>316</ele>
        <time>2018-10-24T09:03:42Z</time>
      </trkpt>
      <trkpt lat="43.98268" lon="5.17582">
        <ele>315</ele>
        <time>2018-10-24T09:04:00Z</time>
      </trkpt>
      <trkpt lat="43.98263" lon="5.17593">
        <ele>315</ele>
        <time>2018-10-24T09:04:08Z</time>
      </trkpt>
      <trkpt lat="43.98258" lon="5.17604">
        <ele>313</ele>
        <time>2018-10-24T09:04:17Z</time>
      </trkpt>
      <trkpt lat="43.9825" lon="5.17611">
        <ele>316</ele>
        <time>2018-10-24T09:04:37Z</time>
      </trkpt>
      <trkpt lat="43.98243" lon="5.17601">
        <ele>317</ele>
        <time>2018-10-24T09:05:06Z</time>
      </trkpt>
      <trkpt lat="43.98241" lon="5.17589">
        <ele>315</ele>
        <time>2018-10-24T09:05:16Z</time>
      </trkpt>
      <trkpt lat="43.98242" lon="5.17576">
        <ele>315</ele>
        <time>2018-10-24T09:05:24Z</time>
      </trkpt>
      <trkpt lat="43.98243" lon="5.17563">
        <ele>314</ele>
        <time>2018-10-24T09:05:33Z</time>
      </trkpt>
      <trkpt lat="43.98233" lon="5.17561">
        <ele>315</ele>
        <time>2018-10-24T09:05:42Z</time>
      </trkpt>
      <trkpt lat="43.98228" lon="5.17551">
        <ele>316</ele>
        <time>2018-10-24T09:05:50Z</time>
      </trkpt>
      <trkpt lat="43.98223" lon="5.17539">
        <ele>310</ele>
        <time>2018-10-24T09:06:11Z</time>
      </trkpt>
      <trkpt lat="43.98219" lon="5.17527">
        <ele>315</ele>
        <time>2018-10-24T09:06:26Z</time>
      </trkpt>
      <trkpt lat="43.98211" lon="5.17522">
        <ele>315</ele>
        <time>2018-10-24T09:06:35Z</time>
      </trkpt>
      <trkpt lat="43.98207" lon="5.1751">
        <ele>317</ele>
        <time>2018-10-24T09:06:45Z</time>
      </trkpt>
      <trkpt lat="43.98199" lon="5.17506">
        <ele>320</ele>
        <time>2018-10-24T09:07:01Z</time>
      </trkpt>
      <trkpt lat="43.9819" lon="5.17503">
        <ele>321</ele>
        <time>2018-10-24T09:07:10Z</time>
      </trkpt>
      <trkpt lat="43.9818" lon="5.175">
        <ele>322</ele>
        <time>2018-10-24T09:07:20Z</time>
      </trkpt>
      <trkpt lat="43.98171" lon="5.17498">
        <ele>325</ele>
        <time>2018-10-24T09:07:36Z</time>
      </trkpt>
      <trkpt lat="43.98162" lon="5.17503">
        <ele>326</ele>
        <time>2018-10-24T09:07:52Z</time>
      </trkpt>
      <trkpt lat="43.98152" lon="5.175">
        <ele>329</ele>
        <time>2018-10-24T09:08:06Z</time>
      </trkpt>
      <trkpt lat="43.98144" lon="5.17503">
        <ele>328</ele>
        <time>2018-10-24T09:08:25Z</time>
      </trkpt>
      <trkpt lat="43.98135" lon="5.17495">
        <ele>330</ele>
        <time>2018-10-24T09:08:33Z</time>
      </trkpt>
      <trkpt lat="43.98126" lon="5.17489">
        <ele>334</ele>
        <time>2018-10-24T09:08:52Z</time>
      </trkpt>
      <trkpt lat="43.98117" lon="5.17485">
        <ele>335</ele>
        <time>2018-10-24T09:09:08Z</time>
      </trkpt>
      <trkpt lat="43.98109" lon="5.17481">
        <ele>337</ele>
        <time>2018-10-24T09:09:18Z</time>
      </trkpt>
      <trkpt lat="43.981" lon="5.17474">
        <ele>337</ele>
        <time>2018-10-24T09:09:27Z</time>
      </trkpt>
      <trkpt lat="43.98091" lon="5.1747">
        <ele>337</ele>
        <time>2018-10-24T09:09:39Z</time>
      </trkpt>
      <trkpt lat="43.98082" lon="5.17467">
        <ele>338</ele>
        <time>2018-10-24T09:09:53Z</time>
      </trkpt>
      <trkpt lat="43.98075" lon="5.17458">
        <ele>340</ele>
        <time>2018-10-24T09:10:07Z</time>
      </trkpt>
      <trkpt lat="43.98067" lon="5.1745">
        <ele>341</ele>
        <time>2018-10-24T09:10:18Z</time>
      </trkpt>
      <trkpt lat="43.98061" lon="5.17441">
        <ele>347</ele>
        <time>2018-10-24T09:10:39Z</time>
      </trkpt>
      <trkpt lat="43.98052" lon="5.17436">
        <ele>345</ele>
        <time>2018-10-24T09:10:55Z</time>
      </trkpt>
      <trkpt lat="43.98049" lon="5.17423">
        <ele>347</ele>
        <time>2018-10-24T09:11:03Z</time>
      </trkpt>
      <trkpt lat="43.98041" lon="5.17415">
        <ele>350</ele>
        <time>2018-10-24T09:11:15Z</time>
      </trkpt>
      <trkpt lat="43.98037" lon="5.17403">
        <ele>353</ele>
        <time>2018-10-24T09:11:36Z</time>
      </trkpt>
      <trkpt lat="43.98032" lon="5.17391">
        <ele>355</ele>
        <time>2018-10-24T09:11:47Z</time>
      </trkpt>
      <trkpt lat="43.98032" lon="5.17378">
        <ele>355</ele>
        <time>2018-10-24T09:11:56Z</time>
      </trkpt>
      <trkpt lat="43.98024" lon="5.17369">
        <ele>356</ele>
        <time>2018-10-24T09:12:11Z</time>
      </trkpt>
      <trkpt lat="43.98017" lon="5.17361">
        <ele>355</ele>
        <time>2018-10-24T09:12:23Z</time>
      </trkpt>
      <trkpt lat="43.9801" lon="5.17352">
        <ele>356</ele>
        <time>2018-10-24T09:12:35Z</time>
      </trkpt>
      <trkpt lat="43.98004" lon="5.17342">
        <ele>359</ele>
        <time>2018-10-24T09:12:46Z</time>
      </trkpt>
      <trkpt lat="43.97999" lon="5.17332">
        <ele>363</ele>
        <time>2018-10-24T09:12:59Z</time>
      </trkpt>
      <trkpt lat="43.97994" lon="5.1732">
        <ele>367</ele>
        <time>2018-10-24T09:13:33Z</time>
      </trkpt>
      <trkpt lat="43.97989" lon="5.17309">
        <ele>369</ele>
        <time>2018-10-24T09:13:43Z</time>
      </trkpt>
      <trkpt lat="43.97984" lon="5.17299">
        <ele>367</ele>
        <time>2018-10-24T09:13:52Z</time>
      </trkpt>
      <trkpt lat="43.97982" lon="5.17286">
        <ele>366</ele>
        <time>2018-10-24T09:14:03Z</time>
      </trkpt>
      <trkpt lat="43.97975" lon="5.17278">
        <ele>367</ele>
        <time>2018-10-24T09:14:13Z</time>
      </trkpt>
      <trkpt lat="43.9797" lon="5.17267">
        <ele>367</ele>
        <time>2018-10-24T09:14:23Z</time>
      </trkpt>
      <trkpt lat="43.97963" lon="5.17258">
        <ele>366</ele>
        <time>2018-10-24T09:14:36Z</time>
      </trkpt>
      <trkpt lat="43.97956" lon="5.1725">
        <ele>369</ele>
        <time>2018-10-24T09:14:45Z</time>
      </trkpt>
      <trkpt lat="43.97949" lon="5.17241">
        <ele>370</ele>
        <time>2018-10-24T09:15:17Z</time>
      </trkpt>
      <trkpt lat="43.9794" lon="5.17234">
        <ele>369</ele>
        <time>2018-10-24T09:15:27Z</time>
      </trkpt>
      <trkpt lat="43.97931" lon="5.1723">
        <ele>371</ele>
        <time>2018-10-24T09:15:42Z</time>
      </trkpt>
      <trkpt lat="43.97925" lon="5.17221">
        <ele>375</ele>
        <time>2018-10-24T09:16:04Z</time>
      </trkpt>
      <trkpt lat="43.97917" lon="5.17215">
        <ele>375</ele>
        <time>2018-10-24T09:16:17Z</time>
      </trkpt>
      <trkpt lat="43.97907" lon="5.1721">
        <ele>378</ele>
        <time>2018-10-24T09:16:37Z</time>
      </trkpt>
      <trkpt lat="43.97899" lon="5.17203">
        <ele>379</ele>
        <time>2018-10-24T09:16:51Z</time>
      </trkpt>
      <trkpt lat="43.97891" lon="5.17197">
        <ele>379</ele>
        <time>2018-10-24T09:17:04Z</time>
      </trkpt>
      <trkpt lat="43.97883" lon="5.1719">
        <ele>381</ele>
        <time>2018-10-24T09:17:11Z</time>
      </trkpt>
      <trkpt lat="43.97874" lon="5.17186">
        <ele>383</ele>
        <time>2018-10-24T09:17:20Z</time>
      </trkpt>
      <trkpt lat="43.97865" lon="5.17191">
        <ele>387</ele>
        <time>2018-10-24T09:17:31Z</time>
      </trkpt>
      <trkpt lat="43.97857" lon="5.17197">
        <ele>387</ele>
        <time>2018-10-24T09:17:39Z</time>
      </trkpt>
      <trkpt lat="43.97848" lon="5.172">
        <ele>387</ele>
        <time>2018-10-24T09:17:57Z</time>
      </trkpt>
      <trkpt lat="43.97839" lon="5.17204">
        <ele>387</ele>
        <time>2018-10-24T09:18:13Z</time>
      </trkpt>
      <trkpt lat="43.97829" lon="5.17205">
        <ele>392</ele>
        <time>2018-10-24T09:18:32Z</time>
      </trkpt>
      <trkpt lat="43.97825" lon="5.17194">
        <ele>398</ele>
        <time>2018-10-24T09:19:41Z</time>
      </trkpt>
      <trkpt lat="43.97816" lon="5.17188">
        <ele>394</ele>
        <time>2018-10-24T09:19:59Z</time>
      </trkpt>
      <trkpt lat="43.97806" lon="5.17186">
        <ele>397</ele>
        <time>2018-10-24T09:20:06Z</time>
      </trkpt>
      <trkpt lat="43.97796" lon="5.17189">
        <ele>398</ele>
        <time>2018-10-24T09:20:17Z</time>
      </trkpt>
      <trkpt lat="43.97787" lon="5.17194">
        <ele>397</ele>
        <time>2018-10-24T09:20:28Z</time>
      </trkpt>
      <trkpt lat="43.97779" lon="5.172">
        <ele>398</ele>
        <time>2018-10-24T09:20:41Z</time>
      </trkpt>
      <trkpt lat="43.97769" lon="5.172">
        <ele>397</ele>
        <time>2018-10-24T09:20:56Z</time>
      </trkpt>
      <trkpt lat="43.97759" lon="5.172">
        <ele>395</ele>
        <time>2018-10-24T09:21:05Z</time>
      </trkpt>
      <trkpt lat="43.9775" lon="5.17204">
        <ele>397</ele>
        <time>2018-10-24T09:21:14Z</time>
      </trkpt>
      <trkpt lat="43.97741" lon="5.17209">
        <ele>398</ele>
        <time>2018-10-24T09:21:23Z</time>
      </trkpt>
      <trkpt lat="43.97732" lon="5.17216">
        <ele>398</ele>
        <time>2018-10-24T09:21:34Z</time>
      </trkpt>
      <trkpt lat="43.97725" lon="5.17226">
        <ele>398</ele>
        <time>2018-10-24T09:21:44Z</time>
      </trkpt>
      <trkpt lat="43.97717" lon="5.17232">
        <ele>398</ele>
        <time>2018-10-24T09:21:52Z</time>
      </trkpt>
      <trkpt lat="43.97711" lon="5.17242">
        <ele>400</ele>
        <time>2018-10-24T09:22:00Z</time>
      </trkpt>
      <trkpt lat="43.97708" lon="5.17255">
        <ele>401</ele>
        <time>2018-10-24T09:22:10Z</time>
      </trkpt>
      <trkpt lat="43.97709" lon="5.17269">
        <ele>403</ele>
        <time>2018-10-24T09:22:22Z</time>
      </trkpt>
      <trkpt lat="43.97709" lon="5.17282">
        <ele>401</ele>
        <time>2018-10-24T09:22:35Z</time>
      </trkpt>
      <trkpt lat="43.97713" lon="5.17294">
        <ele>399</ele>
        <time>2018-10-24T09:22:47Z</time>
      </trkpt>
      <trkpt lat="43.97715" lon="5.17307">
        <ele>400</ele>
        <time>2018-10-24T09:23:08Z</time>
      </trkpt>
      <trkpt lat="43.97706" lon="5.17311">
        <ele>408</ele>
        <time>2018-10-24T09:25:56Z</time>
      </trkpt>
      <trkpt lat="43.97699" lon="5.17321">
        <ele>409</ele>
        <time>2018-10-24T09:26:04Z</time>
      </trkpt>
      <trkpt lat="43.97699" lon="5.17334">
        <ele>410</ele>
        <time>2018-10-24T09:26:15Z</time>
      </trkpt>
      <trkpt lat="43.9769" lon="5.17335">
        <ele>409</ele>
        <time>2018-10-24T09:26:37Z</time>
      </trkpt>
      <trkpt lat="43.97681" lon="5.1734">
        <ele>408</ele>
        <time>2018-10-24T09:26:55Z</time>
      </trkpt>
      <trkpt lat="43.97672" lon="5.17342">
        <ele>408</ele>
        <time>2018-10-24T09:27:06Z</time>
      </trkpt>
      <trkpt lat="43.97664" lon="5.17348">
        <ele>408</ele>
        <time>2018-10-24T09:27:18Z</time>
      </trkpt>
      <trkpt lat="43.97656" lon="5.17356">
        <ele>408</ele>
        <time>2018-10-24T09:27:30Z</time>
      </trkpt>
      <trkpt lat="43.97647" lon="5.17356">
        <ele>409</ele>
        <time>2018-10-24T09:27:41Z</time>
      </trkpt>
      <trkpt lat="43.97639" lon="5.17349">
        <ele>409</ele>
        <time>2018-10-24T09:27:55Z</time>
      </trkpt>
      <trkpt lat="43.97631" lon="5.17343">
        <ele>409</ele>
        <time>2018-10-24T09:28:06Z</time>
      </trkpt>
      <trkpt lat="43.97622" lon="5.17337">
        <ele>409</ele>
        <time>2018-10-24T09:28:15Z</time>
      </trkpt>
      <trkpt lat="43.97614" lon="5.17331">
        <ele>408</ele>
        <time>2018-10-24T09:28:28Z</time>
      </trkpt>
      <trkpt lat="43.97604" lon="5.17329">
        <ele>408</ele>
        <time>2018-10-24T09:28:42Z</time>
      </trkpt>
      <trkpt lat="43.97596" lon="5.17335">
        <ele>408</ele>
        <time>2018-10-24T09:28:57Z</time>
      </trkpt>
      <trkpt lat="43.97588" lon="5.1733">
        <ele>409</ele>
        <time>2018-10-24T09:29:16Z</time>
      </trkpt>
      <trkpt lat="43.9758" lon="5.1732">
        <ele>411</ele>
        <time>2018-10-24T09:29:29Z</time>
      </trkpt>
      <trkpt lat="43.97573" lon="5.17312">
        <ele>412</ele>
        <time>2018-10-24T09:29:38Z</time>
      </trkpt>
      <trkpt lat="43.97564" lon="5.17309">
        <ele>413</ele>
        <time>2018-10-24T09:29:51Z</time>
      </trkpt>
      <trkpt lat="43.97558" lon="5.173">
        <ele>414</ele>
        <time>2018-10-24T09:30:04Z</time>
      </trkpt>
      <trkpt lat="43.97548" lon="5.17299">
        <ele>415</ele>
        <time>2018-10-24T09:30:17Z</time>
      </trkpt>
      <trkpt lat="43.97541" lon="5.17291">
        <ele>415</ele>
        <time>2018-10-24T09:30:26Z</time>
      </trkpt>
      <trkpt lat="43.97531" lon="5.17289">
        <ele>417</ele>
        <time>2018-10-24T09:30:38Z</time>
      </trkpt>
      <trkpt lat="43.97523" lon="5.17284">
        <ele>418</ele>
        <time>2018-10-24T09:30:47Z</time>
      </trkpt>
      <trkpt lat="43.97513" lon="5.1728">
        <ele>420</ele>
        <time>2018-10-24T09:30:58Z</time>
      </trkpt>
      <trkpt lat="43.97504" lon="5.17282">
        <ele>418</ele>
        <time>2018-10-24T09:31:09Z</time>
      </trkpt>
      <trkpt lat="43.97495" lon="5.17279">
        <ele>419</ele>
        <time>2018-10-24T09:31:20Z</time>
      </trkpt>
      <trkpt lat="43.97486" lon="5.17278">
        <ele>423</ele>
        <time>2018-10-24T09:31:34Z</time>
      </trkpt>
      <trkpt lat="43.97477" lon="5.17278">
        <ele>419</ele>
        <time>2018-10-24T09:31:45Z</time>
      </trkpt>
      <trkpt lat="43.9747" lon="5.1727">
        <ele>420</ele>
        <time>2018-10-24T09:31:57Z</time>
      </trkpt>
      <trkpt lat="43.97461" lon="5.17264">
        <ele>422</ele>
        <time>2018-10-24T09:32:06Z</time>
      </trkpt>
      <trkpt lat="43.97452" lon="5.17264">
        <ele>422</ele>
        <time>2018-10-24T09:32:18Z</time>
      </trkpt>
      <trkpt lat="43.97443" lon="5.17265">
        <ele>423</ele>
        <time>2018-10-24T09:32:36Z</time>
      </trkpt>
      <trkpt lat="43.97434" lon="5.17263">
        <ele>423</ele>
        <time>2018-10-24T09:32:45Z</time>
      </trkpt>
      <trkpt lat="43.97427" lon="5.17254">
        <ele>424</ele>
        <time>2018-10-24T09:32:52Z</time>
      </trkpt>
      <trkpt lat="43.97418" lon="5.1725">
        <ele>425</ele>
        <time>2018-10-24T09:33:02Z</time>
      </trkpt>
      <trkpt lat="43.97411" lon="5.17242">
        <ele>425</ele>
        <time>2018-10-24T09:33:18Z</time>
      </trkpt>
      <trkpt lat="43.97401" lon="5.1724">
        <ele>425</ele>
        <time>2018-10-24T09:33:27Z</time>
      </trkpt>
      <trkpt lat="43.97392" lon="5.17236">
        <ele>427</ele>
        <time>2018-10-24T09:33:45Z</time>
      </trkpt>
      <trkpt lat="43.97383" lon="5.17239">
        <ele>429</ele>
        <time>2018-10-24T09:33:59Z</time>
      </trkpt>
      <trkpt lat="43.97374" lon="5.1724">
        <ele>430</ele>
        <time>2018-10-24T09:34:11Z</time>
      </trkpt>
      <trkpt lat="43.97365" lon="5.17243">
        <ele>429</ele>
        <time>2018-10-24T09:34:25Z</time>
      </trkpt>
      <trkpt lat="43.97356" lon="5.17249">
        <ele>428</ele>
        <time>2018-10-24T09:34:35Z</time>
      </trkpt>
      <trkpt lat="43.97353" lon="5.17262">
        <ele>428</ele>
        <time>2018-10-24T09:34:49Z</time>
      </trkpt>
      <trkpt lat="43.97345" lon="5.17268">
        <ele>428</ele>
        <time>2018-10-24T09:35:00Z</time>
      </trkpt>
      <trkpt lat="43.97336" lon="5.1727">
        <ele>427</ele>
        <time>2018-10-24T09:35:11Z</time>
      </trkpt>
      <trkpt lat="43.97327" lon="5.17274">
        <ele>427</ele>
        <time>2018-10-24T09:35:23Z</time>
      </trkpt>
      <trkpt lat="43.97321" lon="5.17283">
        <ele>430</ele>
        <time>2018-10-24T09:35:48Z</time>
      </trkpt>
      <trkpt lat="43.97312" lon="5.1728">
        <ele>431</ele>
        <time>2018-10-24T09:36:02Z</time>
      </trkpt>
      <trkpt lat="43.97304" lon="5.17288">
        <ele>432</ele>
        <time>2018-10-24T09:36:34Z</time>
      </trkpt>
      <trkpt lat="43.97294" lon="5.17285">
        <ele>437</ele>
        <time>2018-10-24T09:36:49Z</time>
      </trkpt>
      <trkpt lat="43.97292" lon="5.17297">
        <ele>438</ele>
        <time>2018-10-24T09:37:06Z</time>
      </trkpt>
      <trkpt lat="43.97286" lon="5.17307">
        <ele>444</ele>
        <time>2018-10-24T09:37:21Z</time>
      </trkpt>
      <trkpt lat="43.97281" lon="5.17317">
        <ele>448</ele>
        <time>2018-10-24T09:37:44Z</time>
      </trkpt>
      <trkpt lat="43.97275" lon="5.17327">
        <ele>450</ele>
        <time>2018-10-24T09:38:00Z</time>
      </trkpt>
      <trkpt lat="43.9727" lon="5.17337">
        <ele>454</ele>
        <time>2018-10-24T09:41:17Z</time>
      </trkpt>
      <trkpt lat="43.97263" lon="5.17345">
        <ele>453</ele>
        <time>2018-10-24T09:41:37Z</time>
      </trkpt>
      <trkpt lat="43.9726" lon="5.17357">
        <ele>456</ele>
        <time>2018-10-24T09:42:09Z</time>
      </trkpt>
      <trkpt lat="43.97251" lon="5.17355">
        <ele>463</ele>
        <time>2018-10-24T09:42:47Z</time>
      </trkpt>
      <trkpt lat="43.97243" lon="5.17362">
        <ele>462</ele>
        <time>2018-10-24T09:42:58Z</time>
      </trkpt>
      <trkpt lat="43.97235" lon="5.1737">
        <ele>462</ele>
        <time>2018-10-24T09:43:11Z</time>
      </trkpt>
      <trkpt lat="43.97226" lon="5.17369">
        <ele>462</ele>
        <time>2018-10-24T09:43:22Z</time>
      </trkpt>
      <trkpt lat="43.97216" lon="5.17367">
        <ele>465</ele>
        <time>2018-10-24T09:43:38Z</time>
      </trkpt>
      <trkpt lat="43.97207" lon="5.17364">
        <ele>467</ele>
        <time>2018-10-24T09:43:50Z</time>
      </trkpt>
      <trkpt lat="43.97198" lon="5.17362">
        <ele>471</ele>
        <time>2018-10-24T09:44:01Z</time>
      </trkpt>
      <trkpt lat="43.97189" lon="5.17363">
        <ele>471</ele>
        <time>2018-10-24T09:44:13Z</time>
      </trkpt>
      <trkpt lat="43.9718" lon="5.1736">
        <ele>473</ele>
        <time>2018-10-24T09:44:28Z</time>
      </trkpt>
      <trkpt lat="43.97171" lon="5.17355">
        <ele>479</ele>
        <time>2018-10-24T09:44:55Z</time>
      </trkpt>
      <trkpt lat="43.97162" lon="5.17352">
        <ele>479</ele>
        <time>2018-10-24T09:45:11Z</time>
      </trkpt>
      <trkpt lat="43.97153" lon="5.17349">
        <ele>483</ele>
        <time>2018-10-24T09:45:27Z</time>
      </trkpt>
      <trkpt lat="43.97144" lon="5.17343">
        <ele>485</ele>
        <time>2018-10-24T09:45:42Z</time>
      </trkpt>
      <trkpt lat="43.97135" lon="5.1734">
        <ele>491</ele>
        <time>2018-10-24T09:46:07Z</time>
      </trkpt>
      <trkpt lat="43.97127" lon="5.17348">
        <ele>492</ele>
        <time>2018-10-24T09:46:56Z</time>
      </trkpt>
      <trkpt lat="43.97122" lon="5.17358">
        <ele>497</ele>
        <time>2018-10-24T09:47:29Z</time>
      </trkpt>
      <trkpt lat="43.97113" lon="5.17358">
        <ele>509</ele>
        <time>2018-10-24T09:50:06Z</time>
      </trkpt>
      <trkpt lat="43.97104" lon="5.17357">
        <ele>504</ele>
        <time>2018-10-24T09:50:21Z</time>
      </trkpt>
      <trkpt lat="43.97094" lon="5.17358">
        <ele>504</ele>
        <time>2018-10-24T09:50:34Z</time>
      </trkpt>
      <trkpt lat="43.97087" lon="5.17366">
        <ele>503</ele>
        <time>2018-10-24T09:50:50Z</time>
      </trkpt>
      <trkpt lat="43.9708" lon="5.17375">
        <ele>502</ele>
        <time>2018-10-24T09:51:03Z</time>
      </trkpt>
      <trkpt lat="43.97072" lon="5.17383">
        <ele>504</ele>
        <time>2018-10-24T09:51:18Z</time>
      </trkpt>
      <trkpt lat="43.97064" lon="5.17388">
        <ele>508</ele>
        <time>2018-10-24T09:51:41Z</time>
      </trkpt>
      <trkpt lat="43.97067" lon="5.174">
        <ele>511</ele>
        <time>2018-10-24T09:52:03Z</time>
      </trkpt>
      <trkpt lat="43.97059" lon="5.17407">
        <ele>516</ele>
        <time>2018-10-24T09:52:27Z</time>
      </trkpt>
      <trkpt lat="43.9705" lon="5.17406">
        <ele>519</ele>
        <time>2018-10-24T09:52:54Z</time>
      </trkpt>
      <trkpt lat="43.97041" lon="5.17408">
        <ele>530</ele>
        <time>2018-10-24T09:53:29Z</time>
      </trkpt>
      <trkpt lat="43.97034" lon="5.17417">
        <ele>533</ele>
        <time>2018-10-24T09:54:06Z</time>
      </trkpt>
      <trkpt lat="43.97026" lon="5.17411">
        <ele>534</ele>
        <time>2018-10-24T09:54:28Z</time>
      </trkpt>
      <trkpt lat="43.97017" lon="5.17413">
        <ele>536</ele>
        <time>2018-10-24T09:54:51Z</time>
      </trkpt>
      <trkpt lat="43.97008" lon="5.17405">
        <ele>546</ele>
        <time>2018-10-24T09:55:53Z</time>
      </trkpt>
      <trkpt lat="43.97" lon="5.17413">
        <ele>550</ele>
        <time>2018-10-24T09:58:57Z</time>
      </trkpt>
      <trkpt lat="43.97002" lon="5.17425">
        <ele>553</ele>
        <time>2018-10-24T09:59:35Z</time>
      </trkpt>
      <trkpt lat="43.97008" lon="5.17435">
        <ele>553</ele>
        <time>2018-10-24T10:49:26Z</time>
      </trkpt>
      <trkpt lat="43.97017" lon="5.17439">
        <ele>554</ele>
        <time>2018-10-24T10:49:49Z</time>
      </trkpt>
      <trkpt lat="43.97008" lon="5.17437">
        <ele>555</ele>
        <time>2018-10-24T10:50:27Z</time>
      </trkpt>
      <trkpt lat="43.97002" lon="5.17426">
        <ele>556</ele>
        <time>2018-10-24T10:54:18Z</time>
      </trkpt>
      <trkpt lat="43.96993" lon="5.17423">
        <ele>553</ele>
        <time>2018-10-24T10:54:27Z</time>
      </trkpt>
      <trkpt lat="43.96984" lon="5.17426">
        <ele>553</ele>
        <time>2018-10-24T10:54:40Z</time>
      </trkpt>
      <trkpt lat="43.96975" lon="5.17433">
        <ele>552</ele>
        <time>2018-10-24T10:54:53Z</time>
      </trkpt>
      <trkpt lat="43.96967" lon="5.17427">
        <ele>553</ele>
        <time>2018-10-24T10:55:07Z</time>
      </trkpt>
      <trkpt lat="43.96957" lon="5.17427">
        <ele>552</ele>
        <time>2018-10-24T10:55:21Z</time>
      </trkpt>
      <trkpt lat="43.96948" lon="5.17427">
        <ele>552</ele>
        <time>2018-10-24T10:55:36Z</time>
      </trkpt>
      <trkpt lat="43.96939" lon="5.17425">
        <ele>552</ele>
        <time>2018-10-24T10:55:46Z</time>
      </trkpt>
      <trkpt lat="43.9693" lon="5.1742">
        <ele>550</ele>
        <time>2018-10-24T10:55:59Z</time>
      </trkpt>
      <trkpt lat="43.96923" lon="5.17412">
        <ele>549</ele>
        <time>2018-10-24T10:56:10Z</time>
      </trkpt>
      <trkpt lat="43.96913" lon="5.17413">
        <ele>548</ele>
        <time>2018-10-24T10:56:21Z</time>
      </trkpt>
      <trkpt lat="43.96904" lon="5.17408">
        <ele>548</ele>
        <time>2018-10-24T10:56:36Z</time>
      </trkpt>
      <trkpt lat="43.96896" lon="5.17401">
        <ele>546</ele>
        <time>2018-10-24T10:56:55Z</time>
      </trkpt>
      <trkpt lat="43.96887" lon="5.17395">
        <ele>545</ele>
        <time>2018-10-24T10:57:05Z</time>
      </trkpt>
      <trkpt lat="43.96877" lon="5.17394">
        <ele>544</ele>
        <time>2018-10-24T10:57:15Z</time>
      </trkpt>
      <trkpt lat="43.96869" lon="5.17388">
        <ele>545</ele>
        <time>2018-10-24T10:57:28Z</time>
      </trkpt>
      <trkpt lat="43.96861" lon="5.17381">
        <ele>544</ele>
        <time>2018-10-24T10:57:41Z</time>
      </trkpt>
      <trkpt lat="43.96853" lon="5.17376">
        <ele>544</ele>
        <time>2018-10-24T10:57:55Z</time>
      </trkpt>
      <trkpt lat="43.96846" lon="5.17366">
        <ele>544</ele>
        <time>2018-10-24T10:58:10Z</time>
      </trkpt>
      <trkpt lat="43.96838" lon="5.17361">
        <ele>544</ele>
        <time>2018-10-24T10:58:23Z</time>
      </trkpt>
      <trkpt lat="43.96828" lon="5.17358">
        <ele>543</ele>
        <time>2018-10-24T10:58:36Z</time>
      </trkpt>
      <trkpt lat="43.96818" lon="5.17354">
        <ele>542</ele>
        <time>2018-10-24T10:58:46Z</time>
      </trkpt>
      <trkpt lat="43.9681" lon="5.17349">
        <ele>541</ele>
        <time>2018-10-24T10:58:54Z</time>
      </trkpt>
      <trkpt lat="43.96801" lon="5.17345">
        <ele>540</ele>
        <time>2018-10-24T10:59:14Z</time>
      </trkpt>
      <trkpt lat="43.96794" lon="5.17336">
        <ele>539</ele>
        <time>2018-10-24T10:59:34Z</time>
      </trkpt>
      <trkpt lat="43.96787" lon="5.17343">
        <ele>539</ele>
        <time>2018-10-24T10:59:49Z</time>
      </trkpt>
      <trkpt lat="43.96778" lon="5.17349">
        <ele>538</ele>
        <time>2018-10-24T11:00:01Z</time>
      </trkpt>
      <trkpt lat="43.96769" lon="5.17348">
        <ele>539</ele>
        <time>2018-10-24T11:00:12Z</time>
      </trkpt>
      <trkpt lat="43.96763" lon="5.17337">
        <ele>537</ele>
        <time>2018-10-24T11:00:25Z</time>
      </trkpt>
      <trkpt lat="43.96758" lon="5.17326">
        <ele>536</ele>
        <time>2018-10-24T11:00:36Z</time>
      </trkpt>
      <trkpt lat="43.9675" lon="5.17321">
        <ele>535</ele>
        <time>2018-10-24T11:00:47Z</time>
      </trkpt>
      <trkpt lat="43.96741" lon="5.17317">
        <ele>532</ele>
        <time>2018-10-24T11:01:18Z</time>
      </trkpt>
      <trkpt lat="43.96732" lon="5.17315">
        <ele>531</ele>
        <time>2018-10-24T11:01:42Z</time>
      </trkpt>
      <trkpt lat="43.96723" lon="5.1731">
        <ele>530</ele>
        <time>2018-10-24T11:02:05Z</time>
      </trkpt>
      <trkpt lat="43.96716" lon="5.17301">
        <ele>529</ele>
        <time>2018-10-24T11:02:32Z</time>
      </trkpt>
      <trkpt lat="43.96711" lon="5.1729">
        <ele>529</ele>
        <time>2018-10-24T11:02:41Z</time>
      </trkpt>
      <trkpt lat="43.96703" lon="5.17284">
        <ele>530</ele>
        <time>2018-10-24T11:03:05Z</time>
      </trkpt>
      <trkpt lat="43.96698" lon="5.17273">
        <ele>532</ele>
        <time>2018-10-24T11:03:19Z</time>
      </trkpt>
      <trkpt lat="43.96689" lon="5.17266">
        <ele>533</ele>
        <time>2018-10-24T11:03:29Z</time>
      </trkpt>
      <trkpt lat="43.96679" lon="5.17263">
        <ele>534</ele>
        <time>2018-10-24T11:04:03Z</time>
      </trkpt>
      <trkpt lat="43.96672" lon="5.1727">
        <ele>537</ele>
        <time>2018-10-24T11:04:19Z</time>
      </trkpt>
      <trkpt lat="43.96667" lon="5.17281">
        <ele>536</ele>
        <time>2018-10-24T11:04:32Z</time>
      </trkpt>
      <trkpt lat="43.9666" lon="5.17289">
        <ele>536</ele>
        <time>2018-10-24T11:04:56Z</time>
      </trkpt>
      <trkpt lat="43.96653" lon="5.17299">
        <ele>534</ele>
        <time>2018-10-24T11:05:09Z</time>
      </trkpt>
      <trkpt lat="43.96649" lon="5.1731">
        <ele>534</ele>
        <time>2018-10-24T11:05:18Z</time>
      </trkpt>
      <trkpt lat="43.96642" lon="5.1732">
        <ele>533</ele>
        <time>2018-10-24T11:05:28Z</time>
      </trkpt>
      <trkpt lat="43.96635" lon="5.17328">
        <ele>533</ele>
        <time>2018-10-24T11:05:38Z</time>
      </trkpt>
      <trkpt lat="43.96628" lon="5.17337">
        <ele>534</ele>
        <time>2018-10-24T11:05:51Z</time>
      </trkpt>
      <trkpt lat="43.9662" lon="5.17343">
        <ele>534</ele>
        <time>2018-10-24T11:06:00Z</time>
      </trkpt>
      <trkpt lat="43.96614" lon="5.17353">
        <ele>534</ele>
        <time>2018-10-24T11:06:07Z</time>
      </trkpt>
      <trkpt lat="43.96605" lon="5.17355">
        <ele>534</ele>
        <time>2018-10-24T11:06:26Z</time>
      </trkpt>
      <trkpt lat="43.96603" lon="5.17367">
        <ele>532</ele>
        <time>2018-10-24T11:06:36Z</time>
      </trkpt>
      <trkpt lat="43.96598" lon="5.17378">
        <ele>532</ele>
        <time>2018-10-24T11:06:48Z</time>
      </trkpt>
      <trkpt lat="43.96593" lon="5.1739">
        <ele>533</ele>
        <time>2018-10-24T11:06:57Z</time>
      </trkpt>
      <trkpt lat="43.96588" lon="5.17402">
        <ele>532</ele>
        <time>2018-10-24T11:07:06Z</time>
      </trkpt>
      <trkpt lat="43.96584" lon="5.17415">
        <ele>533</ele>
        <time>2018-10-24T11:07:17Z</time>
      </trkpt>
      <trkpt lat="43.96578" lon="5.17425">
        <ele>533</ele>
        <time>2018-10-24T11:07:29Z</time>
      </trkpt>
      <trkpt lat="43.9657" lon="5.17418">
        <ele>533</ele>
        <time>2018-10-24T11:07:50Z</time>
      </trkpt>
      <trkpt lat="43.96564" lon="5.17407">
        <ele>534</ele>
        <time>2018-10-24T11:08:01Z</time>
      </trkpt>
      <trkpt lat="43.96557" lon="5.17399">
        <ele>535</ele>
        <time>2018-10-24T11:08:15Z</time>
      </trkpt>
      <trkpt lat="43.96548" lon="5.17396">
        <ele>536</ele>
        <time>2018-10-24T11:08:27Z</time>
      </trkpt>
      <trkpt lat="43.96539" lon="5.17395">
        <ele>537</ele>
        <time>2018-10-24T11:08:40Z</time>
      </trkpt>
      <trkpt lat="43.96528" lon="5.17392">
        <ele>537</ele>
        <time>2018-10-24T11:08:52Z</time>
      </trkpt>
      <trkpt lat="43.96519" lon="5.17388">
        <ele>538</ele>
        <time>2018-10-24T11:09:03Z</time>
      </trkpt>
      <trkpt lat="43.96514" lon="5.17377">
        <ele>539</ele>
        <time>2018-10-24T11:09:14Z</time>
      </trkpt>
      <trkpt lat="43.96512" lon="5.17365">
        <ele>539</ele>
        <time>2018-10-24T11:09:23Z</time>
      </trkpt>
      <trkpt lat="43.96504" lon="5.17356">
        <ele>540</ele>
        <time>2018-10-24T11:09:32Z</time>
      </trkpt>
      <trkpt lat="43.96499" lon="5.17344">
        <ele>541</ele>
        <time>2018-10-24T11:09:42Z</time>
      </trkpt>
      <trkpt lat="43.96491" lon="5.17336">
        <ele>541</ele>
        <time>2018-10-24T11:09:53Z</time>
      </trkpt>
      <trkpt lat="43.96486" lon="5.17326">
        <ele>541</ele>
        <time>2018-10-24T11:10:05Z</time>
      </trkpt>
      <trkpt lat="43.96477" lon="5.17321">
        <ele>541</ele>
        <time>2018-10-24T11:10:15Z</time>
      </trkpt>
      <trkpt lat="43.96469" lon="5.17312">
        <ele>541</ele>
        <time>2018-10-24T11:10:27Z</time>
      </trkpt>
      <trkpt lat="43.96461" lon="5.17307">
        <ele>542</ele>
        <time>2018-10-24T11:10:36Z</time>
      </trkpt>
      <trkpt lat="43.96452" lon="5.173">
        <ele>543</ele>
        <time>2018-10-24T11:10:43Z</time>
      </trkpt>
      <trkpt lat="43.96445" lon="5.17294">
        <ele>545</ele>
        <time>2018-10-24T11:10:53Z</time>
      </trkpt>
      <trkpt lat="43.96435" lon="5.1729">
        <ele>545</ele>
        <time>2018-10-24T11:11:04Z</time>
      </trkpt>
      <trkpt lat="43.96426" lon="5.17285">
        <ele>546</ele>
        <time>2018-10-24T11:11:14Z</time>
      </trkpt>
      <trkpt lat="43.96418" lon="5.17277">
        <ele>544</ele>
        <time>2018-10-24T11:11:25Z</time>
      </trkpt>
      <trkpt lat="43.96412" lon="5.17269">
        <ele>544</ele>
        <time>2018-10-24T11:11:33Z</time>
      </trkpt>
      <trkpt lat="43.96404" lon="5.17261">
        <ele>545</ele>
        <time>2018-10-24T11:11:41Z</time>
      </trkpt>
      <trkpt lat="43.96396" lon="5.17258">
        <ele>545</ele>
        <time>2018-10-24T11:11:52Z</time>
      </trkpt>
      <trkpt lat="43.96389" lon="5.17249">
        <ele>546</ele>
        <time>2018-10-24T11:12:16Z</time>
      </trkpt>
      <trkpt lat="43.96379" lon="5.17245">
        <ele>545</ele>
        <time>2018-10-24T11:12:28Z</time>
      </trkpt>
      <trkpt lat="43.96371" lon="5.17249">
        <ele>544</ele>
        <time>2018-10-24T11:12:38Z</time>
      </trkpt>
      <trkpt lat="43.96361" lon="5.1725">
        <ele>543</ele>
        <time>2018-10-24T11:12:48Z</time>
      </trkpt>
      <trkpt lat="43.96352" lon="5.17251">
        <ele>543</ele>
        <time>2018-10-24T11:13:02Z</time>
      </trkpt>
      <trkpt lat="43.96343" lon="5.17252">
        <ele>542</ele>
        <time>2018-10-24T11:13:11Z</time>
      </trkpt>
      <trkpt lat="43.96333" lon="5.17251">
        <ele>542</ele>
        <time>2018-10-24T11:13:18Z</time>
      </trkpt>
      <trkpt lat="43.96324" lon="5.1725">
        <ele>542</ele>
        <time>2018-10-24T11:13:29Z</time>
      </trkpt>
      <trkpt lat="43.96314" lon="5.1725">
        <ele>540</ele>
        <time>2018-10-24T11:13:38Z</time>
      </trkpt>
      <trkpt lat="43.96303" lon="5.17246">
        <ele>540</ele>
        <time>2018-10-24T11:13:47Z</time>
      </trkpt>
      <trkpt lat="43.96293" lon="5.17247">
        <ele>540</ele>
        <time>2018-10-24T11:13:56Z</time>
      </trkpt>
      <trkpt lat="43.96283" lon="5.17246">
        <ele>538</ele>
        <time>2018-10-24T11:14:05Z</time>
      </trkpt>
      <trkpt lat="43.96279" lon="5.17235">
        <ele>543</ele>
        <time>2018-10-24T11:15:21Z</time>
      </trkpt>
      <trkpt lat="43.96286" lon="5.17227">
        <ele>535</ele>
        <time>2018-10-24T11:15:39Z</time>
      </trkpt>
      <trkpt lat="43.96294" lon="5.17218">
        <ele>533</ele>
        <time>2018-10-24T11:15:49Z</time>
      </trkpt>
      <trkpt lat="43.963" lon="5.17209">
        <ele>532</ele>
        <time>2018-10-24T11:15:58Z</time>
      </trkpt>
      <trkpt lat="43.96306" lon="5.17199">
        <ele>532</ele>
        <time>2018-10-24T11:16:10Z</time>
      </trkpt>
      <trkpt lat="43.96311" lon="5.17188">
        <ele>532</ele>
        <time>2018-10-24T11:16:22Z</time>
      </trkpt>
      <trkpt lat="43.96319" lon="5.1718">
        <ele>532</ele>
        <time>2018-10-24T11:16:31Z</time>
      </trkpt>
      <trkpt lat="43.96324" lon="5.17168">
        <ele>531</ele>
        <time>2018-10-24T11:16:38Z</time>
      </trkpt>
      <trkpt lat="43.96329" lon="5.17157">
        <ele>529</ele>
        <time>2018-10-24T11:16:48Z</time>
      </trkpt>
      <trkpt lat="43.96336" lon="5.17148">
        <ele>528</ele>
        <time>2018-10-24T11:16:58Z</time>
      </trkpt>
      <trkpt lat="43.96337" lon="5.17135">
        <ele>528</ele>
        <time>2018-10-24T11:17:07Z</time>
      </trkpt>
      <trkpt lat="43.96343" lon="5.17124">
        <ele>528</ele>
        <time>2018-10-24T11:17:18Z</time>
      </trkpt>
      <trkpt lat="43.96347" lon="5.17112">
        <ele>526</ele>
        <time>2018-10-24T11:17:28Z</time>
      </trkpt>
      <trkpt lat="43.96356" lon="5.17106">
        <ele>525</ele>
        <time>2018-10-24T11:17:38Z</time>
      </trkpt>
      <trkpt lat="43.96365" lon="5.17104">
        <ele>527</ele>
        <time>2018-10-24T11:17:48Z</time>
      </trkpt>
      <trkpt lat="43.96375" lon="5.171">
        <ele>526</ele>
        <time>2018-10-24T11:17:55Z</time>
      </trkpt>
      <trkpt lat="43.96383" lon="5.17095">
        <ele>524</ele>
        <time>2018-10-24T11:18:04Z</time>
      </trkpt>
      <trkpt lat="43.96392" lon="5.17092">
        <ele>522</ele>
        <time>2018-10-24T11:18:13Z</time>
      </trkpt>
      <trkpt lat="43.96398" lon="5.17082">
        <ele>521</ele>
        <time>2018-10-24T11:18:21Z</time>
      </trkpt>
      <trkpt lat="43.96407" lon="5.17076">
        <ele>520</ele>
        <time>2018-10-24T11:18:28Z</time>
      </trkpt>
      <trkpt lat="43.96416" lon="5.17071">
        <ele>520</ele>
        <time>2018-10-24T11:18:37Z</time>
      </trkpt>
      <trkpt lat="43.96423" lon="5.17061">
        <ele>519</ele>
        <time>2018-10-24T11:18:47Z</time>
      </trkpt>
      <trkpt lat="43.96429" lon="5.17051">
        <ele>526</ele>
        <time>2018-10-24T11:18:54Z</time>
      </trkpt>
      <trkpt lat="43.96438" lon="5.17045">
        <ele>526</ele>
        <time>2018-10-24T11:19:01Z</time>
      </trkpt>
      <trkpt lat="43.96443" lon="5.17034">
        <ele>525</ele>
        <time>2018-10-24T11:19:09Z</time>
      </trkpt>
      <trkpt lat="43.96444" lon="5.17021">
        <ele>524</ele>
        <time>2018-10-24T11:19:22Z</time>
      </trkpt>
      <trkpt lat="43.96454" lon="5.17017">
        <ele>523</ele>
        <time>2018-10-24T11:19:32Z</time>
      </trkpt>
      <trkpt lat="43.96462" lon="5.17011">
        <ele>522</ele>
        <time>2018-10-24T11:19:46Z</time>
      </trkpt>
      <trkpt lat="43.96471" lon="5.17004">
        <ele>522</ele>
        <time>2018-10-24T11:19:57Z</time>
      </trkpt>
      <trkpt lat="43.96479" lon="5.16996">
        <ele>522</ele>
        <time>2018-10-24T11:20:06Z</time>
      </trkpt>
      <trkpt lat="43.96488" lon="5.16991">
        <ele>521</ele>
        <time>2018-10-24T11:20:19Z</time>
      </trkpt>
      <trkpt lat="43.96496" lon="5.16985">
        <ele>520</ele>
        <time>2018-10-24T11:20:33Z</time>
      </trkpt>
      <trkpt lat="43.96505" lon="5.16986">
        <ele>519</ele>
        <time>2018-10-24T11:20:44Z</time>
      </trkpt>
      <trkpt lat="43.96514" lon="5.16984">
        <ele>518</ele>
        <time>2018-10-24T11:20:53Z</time>
      </trkpt>
      <trkpt lat="43.96523" lon="5.16985">
        <ele>517</ele>
        <time>2018-10-24T11:21:02Z</time>
      </trkpt>
      <trkpt lat="43.96533" lon="5.16981">
        <ele>515</ele>
        <time>2018-10-24T11:21:13Z</time>
      </trkpt>
      <trkpt lat="43.96539" lon="5.16972">
        <ele>515</ele>
        <time>2018-10-24T11:21:23Z</time>
      </trkpt>
      <trkpt lat="43.96548" lon="5.16965">
        <ele>515</ele>
        <time>2018-10-24T11:21:31Z</time>
      </trkpt>
      <trkpt lat="43.96557" lon="5.1696">
        <ele>515</ele>
        <time>2018-10-24T11:21:44Z</time>
      </trkpt>
      <trkpt lat="43.96565" lon="5.16954">
        <ele>514</ele>
        <time>2018-10-24T11:21:58Z</time>
      </trkpt>
      <trkpt lat="43.9657" lon="5.16943">
        <ele>512</ele>
        <time>2018-10-24T11:22:17Z</time>
      </trkpt>
      <trkpt lat="43.96579" lon="5.1694">
        <ele>510</ele>
        <time>2018-10-24T11:22:28Z</time>
      </trkpt>
      <trkpt lat="43.96587" lon="5.16932">
        <ele>509</ele>
        <time>2018-10-24T11:22:39Z</time>
      </trkpt>
      <trkpt lat="43.96593" lon="5.16922">
        <ele>508</ele>
        <time>2018-10-24T11:22:49Z</time>
      </trkpt>
      <trkpt lat="43.96597" lon="5.1691">
        <ele>507</ele>
        <time>2018-10-24T11:22:59Z</time>
      </trkpt>
      <trkpt lat="43.966" lon="5.16898">
        <ele>507</ele>
        <time>2018-10-24T11:23:13Z</time>
      </trkpt>
      <trkpt lat="43.96607" lon="5.16889">
        <ele>505</ele>
        <time>2018-10-24T11:23:23Z</time>
      </trkpt>
      <trkpt lat="43.96609" lon="5.16876">
        <ele>504</ele>
        <time>2018-10-24T11:23:35Z</time>
      </trkpt>
      <trkpt lat="43.96612" lon="5.16864">
        <ele>503</ele>
        <time>2018-10-24T11:23:47Z</time>
      </trkpt>
      <trkpt lat="43.96618" lon="5.16854">
        <ele>503</ele>
        <time>2018-10-24T11:23:57Z</time>
      </trkpt>
      <trkpt lat="43.96628" lon="5.1685">
        <ele>503</ele>
        <time>2018-10-24T11:24:05Z</time>
      </trkpt>
      <trkpt lat="43.96636" lon="5.16844">
        <ele>502</ele>
        <time>2018-10-24T11:24:19Z</time>
      </trkpt>
      <trkpt lat="43.96644" lon="5.16836">
        <ele>501</ele>
        <time>2018-10-24T11:24:30Z</time>
      </trkpt>
      <trkpt lat="43.96652" lon="5.1683">
        <ele>501</ele>
        <time>2018-10-24T11:24:42Z</time>
      </trkpt>
      <trkpt lat="43.96662" lon="5.1683">
        <ele>499</ele>
        <time>2018-10-24T11:24:50Z</time>
      </trkpt>
      <trkpt lat="43.96669" lon="5.16821">
        <ele>499</ele>
        <time>2018-10-24T11:24:58Z</time>
      </trkpt>
      <trkpt lat="43.96677" lon="5.16812">
        <ele>499</ele>
        <time>2018-10-24T11:25:05Z</time>
      </trkpt>
      <trkpt lat="43.96685" lon="5.16804">
        <ele>498</ele>
        <time>2018-10-24T11:25:16Z</time>
      </trkpt>
      <trkpt lat="43.96693" lon="5.16796">
        <ele>495</ele>
        <time>2018-10-24T11:25:26Z</time>
      </trkpt>
      <trkpt lat="43.96691" lon="5.16783">
        <ele>495</ele>
        <time>2018-10-24T11:25:33Z</time>
      </trkpt>
      <trkpt lat="43.96695" lon="5.1677">
        <ele>492</ele>
        <time>2018-10-24T11:25:41Z</time>
      </trkpt>
      <trkpt lat="43.96704" lon="5.16766">
        <ele>491</ele>
        <time>2018-10-24T11:25:51Z</time>
      </trkpt>
      <trkpt lat="43.9671" lon="5.16755">
        <ele>491</ele>
        <time>2018-10-24T11:26:04Z</time>
      </trkpt>
      <trkpt lat="43.96719" lon="5.16749">
        <ele>490</ele>
        <time>2018-10-24T11:26:14Z</time>
      </trkpt>
      <trkpt lat="43.96729" lon="5.16751">
        <ele>487</ele>
        <time>2018-10-24T11:26:21Z</time>
      </trkpt>
      <trkpt lat="43.96739" lon="5.1675">
        <ele>485</ele>
        <time>2018-10-24T11:26:30Z</time>
      </trkpt>
      <trkpt lat="43.96748" lon="5.16753">
        <ele>483</ele>
        <time>2018-10-24T11:26:44Z</time>
      </trkpt>
      <trkpt lat="43.96757" lon="5.16748">
        <ele>481</ele>
        <time>2018-10-24T11:26:54Z</time>
      </trkpt>
      <trkpt lat="43.96764" lon="5.1674">
        <ele>483</ele>
        <time>2018-10-24T11:27:06Z</time>
      </trkpt>
      <trkpt lat="43.96773" lon="5.16736">
        <ele>482</ele>
        <time>2018-10-24T11:27:20Z</time>
      </trkpt>
      <trkpt lat="43.9678" lon="5.16727">
        <ele>482</ele>
        <time>2018-10-24T11:27:34Z</time>
      </trkpt>
      <trkpt lat="43.96788" lon="5.1672">
        <ele>483</ele>
        <time>2018-10-24T11:27:44Z</time>
      </trkpt>
      <trkpt lat="43.96791" lon="5.16708">
        <ele>481</ele>
        <time>2018-10-24T11:27:54Z</time>
      </trkpt>
      <trkpt lat="43.96792" lon="5.16696">
        <ele>482</ele>
        <time>2018-10-24T11:28:05Z</time>
      </trkpt>
      <trkpt lat="43.96799" lon="5.16688">
        <ele>483</ele>
        <time>2018-10-24T11:28:18Z</time>
      </trkpt>
      <trkpt lat="43.96809" lon="5.16688">
        <ele>482</ele>
        <time>2018-10-24T11:28:31Z</time>
      </trkpt>
      <trkpt lat="43.96815" lon="5.16679">
        <ele>482</ele>
        <time>2018-10-24T11:28:42Z</time>
      </trkpt>
      <trkpt lat="43.96824" lon="5.16674">
        <ele>482</ele>
        <time>2018-10-24T11:28:55Z</time>
      </trkpt>
      <trkpt lat="43.9683" lon="5.16664">
        <ele>481</ele>
        <time>2018-10-24T11:29:06Z</time>
      </trkpt>
      <trkpt lat="43.96835" lon="5.16652">
        <ele>478</ele>
        <time>2018-10-24T11:29:15Z</time>
      </trkpt>
      <trkpt lat="43.96839" lon="5.1664">
        <ele>477</ele>
        <time>2018-10-24T11:29:28Z</time>
      </trkpt>
      <trkpt lat="43.96846" lon="5.16632">
        <ele>479</ele>
        <time>2018-10-24T11:29:39Z</time>
      </trkpt>
      <trkpt lat="43.96854" lon="5.16625">
        <ele>477</ele>
        <time>2018-10-24T11:29:55Z</time>
      </trkpt>
      <trkpt lat="43.96863" lon="5.16621">
        <ele>475</ele>
        <time>2018-10-24T11:30:04Z</time>
      </trkpt>
      <trkpt lat="43.96868" lon="5.1661">
        <ele>475</ele>
        <time>2018-10-24T11:30:12Z</time>
      </trkpt>
      <trkpt lat="43.96877" lon="5.16605">
        <ele>476</ele>
        <time>2018-10-24T11:30:23Z</time>
      </trkpt>
      <trkpt lat="43.96886" lon="5.16603">
        <ele>475</ele>
        <time>2018-10-24T11:30:45Z</time>
      </trkpt>
      <trkpt lat="43.96888" lon="5.16589">
        <ele>487</ele>
        <time>2018-10-24T11:32:10Z</time>
      </trkpt>
      <trkpt lat="43.96896" lon="5.16583">
        <ele>467</ele>
        <time>2018-10-24T11:33:21Z</time>
      </trkpt>
      <trkpt lat="43.96905" lon="5.16578">
        <ele>466</ele>
        <time>2018-10-24T11:33:33Z</time>
      </trkpt>
      <trkpt lat="43.96913" lon="5.1657">
        <ele>466</ele>
        <time>2018-10-24T11:33:44Z</time>
      </trkpt>
      <trkpt lat="43.96918" lon="5.16559">
        <ele>469</ele>
        <time>2018-10-24T11:33:56Z</time>
      </trkpt>
      <trkpt lat="43.96918" lon="5.16546">
        <ele>466</ele>
        <time>2018-10-24T11:34:14Z</time>
      </trkpt>
      <trkpt lat="43.96926" lon="5.16541">
        <ele>473</ele>
        <time>2018-10-24T11:34:34Z</time>
      </trkpt>
      <trkpt lat="43.96935" lon="5.16537">
        <ele>471</ele>
        <time>2018-10-24T11:34:47Z</time>
      </trkpt>
      <trkpt lat="43.96944" lon="5.16539">
        <ele>470</ele>
        <time>2018-10-24T11:34:57Z</time>
      </trkpt>
      <trkpt lat="43.96952" lon="5.16544">
        <ele>468</ele>
        <time>2018-10-24T11:35:07Z</time>
      </trkpt>
      <trkpt lat="43.96961" lon="5.16546">
        <ele>468</ele>
        <time>2018-10-24T11:35:17Z</time>
      </trkpt>
      <trkpt lat="43.9697" lon="5.1655">
        <ele>467</ele>
        <time>2018-10-24T11:35:28Z</time>
      </trkpt>
      <trkpt lat="43.96979" lon="5.16551">
        <ele>465</ele>
        <time>2018-10-24T11:35:39Z</time>
      </trkpt>
      <trkpt lat="43.96988" lon="5.16556">
        <ele>463</ele>
        <time>2018-10-24T11:35:50Z</time>
      </trkpt>
      <trkpt lat="43.96997" lon="5.16556">
        <ele>463</ele>
        <time>2018-10-24T11:36:06Z</time>
      </trkpt>
      <trkpt lat="43.97007" lon="5.16558">
        <ele>463</ele>
        <time>2018-10-24T11:36:16Z</time>
      </trkpt>
      <trkpt lat="43.97016" lon="5.16562">
        <ele>462</ele>
        <time>2018-10-24T11:36:27Z</time>
      </trkpt>
      <trkpt lat="43.97025" lon="5.16564">
        <ele>462</ele>
        <time>2018-10-24T11:36:41Z</time>
      </trkpt>
      <trkpt lat="43.97035" lon="5.16567">
        <ele>462</ele>
        <time>2018-10-24T11:36:52Z</time>
      </trkpt>
      <trkpt lat="43.97044" lon="5.16569">
        <ele>460</ele>
        <time>2018-10-24T11:37:01Z</time>
      </trkpt>
      <trkpt lat="43.97054" lon="5.16571">
        <ele>459</ele>
        <time>2018-10-24T11:37:15Z</time>
      </trkpt>
      <trkpt lat="43.97063" lon="5.16573">
        <ele>459</ele>
        <time>2018-10-24T11:37:24Z</time>
      </trkpt>
      <trkpt lat="43.97073" lon="5.16573">
        <ele>459</ele>
        <time>2018-10-24T11:37:35Z</time>
      </trkpt>
      <trkpt lat="43.97082" lon="5.16576">
        <ele>457</ele>
        <time>2018-10-24T11:37:48Z</time>
      </trkpt>
      <trkpt lat="43.97091" lon="5.1658">
        <ele>457</ele>
        <time>2018-10-24T11:37:57Z</time>
      </trkpt>
      <trkpt lat="43.971" lon="5.16585">
        <ele>455</ele>
        <time>2018-10-24T11:38:05Z</time>
      </trkpt>
      <trkpt lat="43.97108" lon="5.1658">
        <ele>454</ele>
        <time>2018-10-24T11:38:37Z</time>
      </trkpt>
      <trkpt lat="43.97117" lon="5.16574">
        <ele>454</ele>
        <time>2018-10-24T11:39:08Z</time>
      </trkpt>
      <trkpt lat="43.97127" lon="5.1657">
        <ele>456</ele>
        <time>2018-10-24T11:39:18Z</time>
      </trkpt>
      <trkpt lat="43.97135" lon="5.16565">
        <ele>457</ele>
        <time>2018-10-24T11:39:31Z</time>
      </trkpt>
      <trkpt lat="43.97144" lon="5.16562">
        <ele>455</ele>
        <time>2018-10-24T11:39:49Z</time>
      </trkpt>
      <trkpt lat="43.9715" lon="5.16552">
        <ele>452</ele>
        <time>2018-10-24T11:40:03Z</time>
      </trkpt>
      <trkpt lat="43.97156" lon="5.16543">
        <ele>457</ele>
        <time>2018-10-24T11:40:28Z</time>
      </trkpt>
      <trkpt lat="43.97164" lon="5.16535">
        <ele>456</ele>
        <time>2018-10-24T11:40:47Z</time>
      </trkpt>
      <trkpt lat="43.97172" lon="5.1653">
        <ele>460</ele>
        <time>2018-10-24T11:41:19Z</time>
      </trkpt>
      <trkpt lat="43.9718" lon="5.16524">
        <ele>462</ele>
        <time>2018-10-24T11:41:37Z</time>
      </trkpt>
      <trkpt lat="43.97188" lon="5.16517">
        <ele>464</ele>
        <time>2018-10-24T11:41:49Z</time>
      </trkpt>
      <trkpt lat="43.97197" lon="5.1651">
        <ele>464</ele>
        <time>2018-10-24T11:42:02Z</time>
      </trkpt>
      <trkpt lat="43.97202" lon="5.16499">
        <ele>466</ele>
        <time>2018-10-24T11:42:15Z</time>
      </trkpt>
      <trkpt lat="43.97208" lon="5.16489">
        <ele>467</ele>
        <time>2018-10-24T11:42:29Z</time>
      </trkpt>
      <trkpt lat="43.97212" lon="5.16477">
        <ele>467</ele>
        <time>2018-10-24T11:42:40Z</time>
      </trkpt>
      <trkpt lat="43.97215" lon="5.16464">
        <ele>467</ele>
        <time>2018-10-24T11:42:55Z</time>
      </trkpt>
      <trkpt lat="43.9722" lon="5.16453">
        <ele>469</ele>
        <time>2018-10-24T11:43:08Z</time>
      </trkpt>
      <trkpt lat="43.97226" lon="5.16443">
        <ele>473</ele>
        <time>2018-10-24T11:43:36Z</time>
      </trkpt>
      <trkpt lat="43.97231" lon="5.16432">
        <ele>477</ele>
        <time>2018-10-24T11:44:11Z</time>
      </trkpt>
      <trkpt lat="43.97237" lon="5.16422">
        <ele>475</ele>
        <time>2018-10-24T11:44:32Z</time>
      </trkpt>
      <trkpt lat="43.97244" lon="5.16414">
        <ele>478</ele>
        <time>2018-10-24T11:44:49Z</time>
      </trkpt>
      <trkpt lat="43.97252" lon="5.16408">
        <ele>476</ele>
        <time>2018-10-24T11:45:10Z</time>
      </trkpt>
      <trkpt lat="43.97261" lon="5.16403">
        <ele>477</ele>
        <time>2018-10-24T11:45:23Z</time>
      </trkpt>
      <trkpt lat="43.97267" lon="5.16394">
        <ele>479</ele>
        <time>2018-10-24T11:45:36Z</time>
      </trkpt>
      <trkpt lat="43.97275" lon="5.16388">
        <ele>484</ele>
        <time>2018-10-24T11:45:59Z</time>
      </trkpt>
      <trkpt lat="43.97283" lon="5.16381">
        <ele>488</ele>
        <time>2018-10-24T11:46:15Z</time>
      </trkpt>
      <trkpt lat="43.97291" lon="5.16374">
        <ele>495</ele>
        <time>2018-10-24T11:46:34Z</time>
      </trkpt>
      <trkpt lat="43.973" lon="5.16374">
        <ele>496</ele>
        <time>2018-10-24T11:46:48Z</time>
      </trkpt>
      <trkpt lat="43.97308" lon="5.16367">
        <ele>498</ele>
        <time>2018-10-24T11:47:01Z</time>
      </trkpt>
      <trkpt lat="43.97317" lon="5.16362">
        <ele>499</ele>
        <time>2018-10-24T11:47:18Z</time>
      </trkpt>
      <trkpt lat="43.97328" lon="5.16352">
        <ele>504</ele>
        <time>2018-10-24T11:50:59Z</time>
      </trkpt>
      <trkpt lat="43.97334" lon="5.16343">
        <ele>507</ele>
        <time>2018-10-24T11:51:09Z</time>
      </trkpt>
      <trkpt lat="43.9734" lon="5.16332">
        <ele>508</ele>
        <time>2018-10-24T11:51:27Z</time>
      </trkpt>
      <trkpt lat="43.97345" lon="5.16321">
        <ele>509</ele>
        <time>2018-10-24T11:51:40Z</time>
      </trkpt>
      <trkpt lat="43.97349" lon="5.16309">
        <ele>509</ele>
        <time>2018-10-24T11:51:55Z</time>
      </trkpt>
      <trkpt lat="43.97354" lon="5.16298">
        <ele>510</ele>
        <time>2018-10-24T11:52:06Z</time>
      </trkpt>
      <trkpt lat="43.97362" lon="5.16291">
        <ele>511</ele>
        <time>2018-10-24T11:52:28Z</time>
      </trkpt>
      <trkpt lat="43.97368" lon="5.16282">
        <ele>511</ele>
        <time>2018-10-24T11:52:41Z</time>
      </trkpt>
      <trkpt lat="43.97366" lon="5.16269">
        <ele>514</ele>
        <time>2018-10-24T11:53:38Z</time>
      </trkpt>
      <trkpt lat="43.97366" lon="5.16256">
        <ele>515</ele>
        <time>2018-10-24T11:53:58Z</time>
      </trkpt>
      <trkpt lat="43.97366" lon="5.16244">
        <ele>510</ele>
        <time>2018-10-24T11:56:02Z</time>
      </trkpt>
      <trkpt lat="43.97362" lon="5.16231">
        <ele>505</ele>
        <time>2018-10-24T11:56:22Z</time>
      </trkpt>
      <trkpt lat="43.97358" lon="5.1622">
        <ele>504</ele>
        <time>2018-10-24T11:56:35Z</time>
      </trkpt>
      <trkpt lat="43.97356" lon="5.16207">
        <ele>504</ele>
        <time>2018-10-24T11:56:51Z</time>
      </trkpt>
      <trkpt lat="43.97353" lon="5.16195">
        <ele>504</ele>
        <time>2018-10-24T11:57:06Z</time>
      </trkpt>
      <trkpt lat="43.97353" lon="5.16182">
        <ele>501</ele>
        <time>2018-10-24T11:57:25Z</time>
      </trkpt>
      <trkpt lat="43.97353" lon="5.16169">
        <ele>499</ele>
        <time>2018-10-24T11:57:41Z</time>
      </trkpt>
      <trkpt lat="43.97348" lon="5.16158">
        <ele>498</ele>
        <time>2018-10-24T11:57:51Z</time>
      </trkpt>
      <trkpt lat="43.97342" lon="5.16147">
        <ele>498</ele>
        <time>2018-10-24T11:58:00Z</time>
      </trkpt>
      <trkpt lat="43.97338" lon="5.16135">
        <ele>498</ele>
        <time>2018-10-24T11:58:11Z</time>
      </trkpt>
      <trkpt lat="43.97337" lon="5.16122">
        <ele>497</ele>
        <time>2018-10-24T11:58:20Z</time>
      </trkpt>
      <trkpt lat="43.97337" lon="5.16109">
        <ele>495</ele>
        <time>2018-10-24T11:58:34Z</time>
      </trkpt>
      <trkpt lat="43.97335" lon="5.16096">
        <ele>494</ele>
        <time>2018-10-24T11:58:45Z</time>
      </trkpt>
      <trkpt lat="43.97332" lon="5.16084">
        <ele>494</ele>
        <time>2018-10-24T11:58:56Z</time>
      </trkpt>
      <trkpt lat="43.97333" lon="5.16071">
        <ele>494</ele>
        <time>2018-10-24T11:59:08Z</time>
      </trkpt>
      <trkpt lat="43.97327" lon="5.1606">
        <ele>494</ele>
        <time>2018-10-24T11:59:21Z</time>
      </trkpt>
      <trkpt lat="43.97326" lon="5.16048">
        <ele>493</ele>
        <time>2018-10-24T11:59:36Z</time>
      </trkpt>
      <trkpt lat="43.97324" lon="5.16036">
        <ele>493</ele>
        <time>2018-10-24T11:59:57Z</time>
      </trkpt>
      <trkpt lat="43.9733" lon="5.16025">
        <ele>490</ele>
        <time>2018-10-24T12:00:12Z</time>
      </trkpt>
      <trkpt lat="43.97333" lon="5.16014">
        <ele>489</ele>
        <time>2018-10-24T12:00:34Z</time>
      </trkpt>
      <trkpt lat="43.97338" lon="5.1599">
        <ele>480</ele>
        <time>2018-10-24T12:03:53Z</time>
      </trkpt>
      <trkpt lat="43.97336" lon="5.15977">
        <ele>477</ele>
        <time>2018-10-24T12:04:05Z</time>
      </trkpt>
      <trkpt lat="43.97337" lon="5.15964">
        <ele>480</ele>
        <time>2018-10-24T12:04:16Z</time>
      </trkpt>
      <trkpt lat="43.97335" lon="5.15951">
        <ele>481</ele>
        <time>2018-10-24T12:04:28Z</time>
      </trkpt>
      <trkpt lat="43.97335" lon="5.15939">
        <ele>479</ele>
        <time>2018-10-24T12:04:40Z</time>
      </trkpt>
      <trkpt lat="43.97333" lon="5.15925">
        <ele>479</ele>
        <time>2018-10-24T12:04:52Z</time>
      </trkpt>
      <trkpt lat="43.97332" lon="5.15912">
        <ele>478</ele>
        <time>2018-10-24T12:05:04Z</time>
      </trkpt>
      <trkpt lat="43.97331" lon="5.15899">
        <ele>476</ele>
        <time>2018-10-24T12:05:16Z</time>
      </trkpt>
      <trkpt lat="43.97326" lon="5.15888">
        <ele>474</ele>
        <time>2018-10-24T12:05:27Z</time>
      </trkpt>
      <trkpt lat="43.97321" lon="5.15876">
        <ele>473</ele>
        <time>2018-10-24T12:05:40Z</time>
      </trkpt>
      <trkpt lat="43.9732" lon="5.15863">
        <ele>471</ele>
        <time>2018-10-24T12:05:54Z</time>
      </trkpt>
      <trkpt lat="43.97325" lon="5.15851">
        <ele>470</ele>
        <time>2018-10-24T12:06:07Z</time>
      </trkpt>
      <trkpt lat="43.9733" lon="5.15841">
        <ele>469</ele>
        <time>2018-10-24T12:06:16Z</time>
      </trkpt>
      <trkpt lat="43.97333" lon="5.15828">
        <ele>467</ele>
        <time>2018-10-24T12:06:26Z</time>
      </trkpt>
      <trkpt lat="43.97333" lon="5.15815">
        <ele>465</ele>
        <time>2018-10-24T12:06:34Z</time>
      </trkpt>
      <trkpt lat="43.97333" lon="5.15803">
        <ele>464</ele>
        <time>2018-10-24T12:06:42Z</time>
      </trkpt>
      <trkpt lat="43.97336" lon="5.1579">
        <ele>463</ele>
        <time>2018-10-24T12:06:51Z</time>
      </trkpt>
      <trkpt lat="43.97342" lon="5.1578">
        <ele>462</ele>
        <time>2018-10-24T12:06:58Z</time>
      </trkpt>
      <trkpt lat="43.97349" lon="5.1577">
        <ele>462</ele>
        <time>2018-10-24T12:07:08Z</time>
      </trkpt>
      <trkpt lat="43.97356" lon="5.15762">
        <ele>461</ele>
        <time>2018-10-24T12:07:18Z</time>
      </trkpt>
      <trkpt lat="43.9736" lon="5.1575">
        <ele>465</ele>
        <time>2018-10-24T12:07:27Z</time>
      </trkpt>
      <trkpt lat="43.97365" lon="5.15739">
        <ele>462</ele>
        <time>2018-10-24T12:07:37Z</time>
      </trkpt>
      <trkpt lat="43.9737" lon="5.15728">
        <ele>460</ele>
        <time>2018-10-24T12:07:45Z</time>
      </trkpt>
      <trkpt lat="43.97371" lon="5.15714">
        <ele>460</ele>
        <time>2018-10-24T12:07:53Z</time>
      </trkpt>
      <trkpt lat="43.97375" lon="5.15702">
        <ele>461</ele>
        <time>2018-10-24T12:08:02Z</time>
      </trkpt>
      <trkpt lat="43.97377" lon="5.15689">
        <ele>460</ele>
        <time>2018-10-24T12:08:11Z</time>
      </trkpt>
      <trkpt lat="43.97379" lon="5.15676">
        <ele>459</ele>
        <time>2018-10-24T12:08:21Z</time>
      </trkpt>
      <trkpt lat="43.97377" lon="5.15664">
        <ele>459</ele>
        <time>2018-10-24T12:08:36Z</time>
      </trkpt>
      <trkpt lat="43.97379" lon="5.15651">
        <ele>457</ele>
        <time>2018-10-24T12:08:45Z</time>
      </trkpt>
      <trkpt lat="43.97378" lon="5.15638">
        <ele>456</ele>
        <time>2018-10-24T12:08:54Z</time>
      </trkpt>
      <trkpt lat="43.97377" lon="5.15625">
        <ele>456</ele>
        <time>2018-10-24T12:09:02Z</time>
      </trkpt>
      <trkpt lat="43.97379" lon="5.15612">
        <ele>456</ele>
        <time>2018-10-24T12:09:11Z</time>
      </trkpt>
      <trkpt lat="43.97375" lon="5.15601">
        <ele>456</ele>
        <time>2018-10-24T12:09:20Z</time>
      </trkpt>
      <trkpt lat="43.97374" lon="5.15588">
        <ele>454</ele>
        <time>2018-10-24T12:09:30Z</time>
      </trkpt>
      <trkpt lat="43.97372" lon="5.15575">
        <ele>454</ele>
        <time>2018-10-24T12:09:38Z</time>
      </trkpt>
      <trkpt lat="43.9737" lon="5.15562">
        <ele>451</ele>
        <time>2018-10-24T12:09:48Z</time>
      </trkpt>
      <trkpt lat="43.97368" lon="5.1555">
        <ele>451</ele>
        <time>2018-10-24T12:09:57Z</time>
      </trkpt>
      <trkpt lat="43.97366" lon="5.15536">
        <ele>451</ele>
        <time>2018-10-24T12:10:05Z</time>
      </trkpt>
      <trkpt lat="43.97366" lon="5.15524">
        <ele>449</ele>
        <time>2018-10-24T12:10:15Z</time>
      </trkpt>
      <trkpt lat="43.97368" lon="5.1551">
        <ele>448</ele>
        <time>2018-10-24T12:10:24Z</time>
      </trkpt>
      <trkpt lat="43.97372" lon="5.15499">
        <ele>447</ele>
        <time>2018-10-24T12:10:32Z</time>
      </trkpt>
      <trkpt lat="43.97374" lon="5.15486">
        <ele>444</ele>
        <time>2018-10-24T12:10:41Z</time>
      </trkpt>
      <trkpt lat="43.97374" lon="5.15473">
        <ele>445</ele>
        <time>2018-10-24T12:10:48Z</time>
      </trkpt>
      <trkpt lat="43.97374" lon="5.15459">
        <ele>443</ele>
        <time>2018-10-24T12:10:57Z</time>
      </trkpt>
      <trkpt lat="43.97375" lon="5.15446">
        <ele>445</ele>
        <time>2018-10-24T12:11:05Z</time>
      </trkpt>
      <trkpt lat="43.97376" lon="5.15433">
        <ele>445</ele>
        <time>2018-10-24T12:11:13Z</time>
      </trkpt>
      <trkpt lat="43.97376" lon="5.15419">
        <ele>445</ele>
        <time>2018-10-24T12:11:23Z</time>
      </trkpt>
      <trkpt lat="43.97375" lon="5.15407">
        <ele>446</ele>
        <time>2018-10-24T12:11:32Z</time>
      </trkpt>
      <trkpt lat="43.97371" lon="5.15393">
        <ele>446</ele>
        <time>2018-10-24T12:11:40Z</time>
      </trkpt>
      <trkpt lat="43.97372" lon="5.1538">
        <ele>444</ele>
        <time>2018-10-24T12:11:48Z</time>
      </trkpt>
      <trkpt lat="43.97372" lon="5.15367">
        <ele>443</ele>
        <time>2018-10-24T12:11:57Z</time>
      </trkpt>
      <trkpt lat="43.9737" lon="5.15353">
        <ele>440</ele>
        <time>2018-10-24T12:12:07Z</time>
      </trkpt>
      <trkpt lat="43.97372" lon="5.15341">
        <ele>439</ele>
        <time>2018-10-24T12:12:15Z</time>
      </trkpt>
      <trkpt lat="43.97375" lon="5.15328">
        <ele>438</ele>
        <time>2018-10-24T12:12:23Z</time>
      </trkpt>
      <trkpt lat="43.97378" lon="5.15316">
        <ele>440</ele>
        <time>2018-10-24T12:12:31Z</time>
      </trkpt>
      <trkpt lat="43.97381" lon="5.15304">
        <ele>441</ele>
        <time>2018-10-24T12:12:40Z</time>
      </trkpt>
      <trkpt lat="43.97383" lon="5.15292">
        <ele>441</ele>
        <time>2018-10-24T12:12:49Z</time>
      </trkpt>
      <trkpt lat="43.97382" lon="5.15279">
        <ele>441</ele>
        <time>2018-10-24T12:12:57Z</time>
      </trkpt>
      <trkpt lat="43.97383" lon="5.15266">
        <ele>438</ele>
        <time>2018-10-24T12:13:06Z</time>
      </trkpt>
      <trkpt lat="43.97383" lon="5.15253">
        <ele>437</ele>
        <time>2018-10-24T12:13:16Z</time>
      </trkpt>
      <trkpt lat="43.97385" lon="5.15241">
        <ele>437</ele>
        <time>2018-10-24T12:13:24Z</time>
      </trkpt>
      <trkpt lat="43.97389" lon="5.15229">
        <ele>438</ele>
        <time>2018-10-24T12:13:33Z</time>
      </trkpt>
      <trkpt lat="43.97395" lon="5.15218">
        <ele>436</ele>
        <time>2018-10-24T12:13:42Z</time>
      </trkpt>
      <trkpt lat="43.97398" lon="5.15206">
        <ele>436</ele>
        <time>2018-10-24T12:13:51Z</time>
      </trkpt>
      <trkpt lat="43.97403" lon="5.15195">
        <ele>435</ele>
        <time>2018-10-24T12:13:59Z</time>
      </trkpt>
      <trkpt lat="43.97409" lon="5.15185">
        <ele>435</ele>
        <time>2018-10-24T12:14:07Z</time>
      </trkpt>
      <trkpt lat="43.97414" lon="5.15174">
        <ele>432</ele>
        <time>2018-10-24T12:14:18Z</time>
      </trkpt>
      <trkpt lat="43.97418" lon="5.15162">
        <ele>431</ele>
        <time>2018-10-24T12:14:28Z</time>
      </trkpt>
      <trkpt lat="43.97424" lon="5.15152">
        <ele>430</ele>
        <time>2018-10-24T12:14:40Z</time>
      </trkpt>
      <trkpt lat="43.97432" lon="5.15144">
        <ele>429</ele>
        <time>2018-10-24T12:14:49Z</time>
      </trkpt>
      <trkpt lat="43.97439" lon="5.15135">
        <ele>429</ele>
        <time>2018-10-24T12:14:59Z</time>
      </trkpt>
      <trkpt lat="43.97446" lon="5.15126">
        <ele>426</ele>
        <time>2018-10-24T12:15:11Z</time>
      </trkpt>
      <trkpt lat="43.9745" lon="5.15114">
        <ele>427</ele>
        <time>2018-10-24T12:15:36Z</time>
      </trkpt>
      <trkpt lat="43.97457" lon="5.15105">
        <ele>428</ele>
        <time>2018-10-24T12:15:46Z</time>
      </trkpt>
      <trkpt lat="43.97464" lon="5.15095">
        <ele>426</ele>
        <time>2018-10-24T12:15:55Z</time>
      </trkpt>
      <trkpt lat="43.97469" lon="5.15085">
        <ele>425</ele>
        <time>2018-10-24T12:16:05Z</time>
      </trkpt>
      <trkpt lat="43.97476" lon="5.15076">
        <ele>425</ele>
        <time>2018-10-24T12:16:15Z</time>
      </trkpt>
      <trkpt lat="43.97479" lon="5.15064">
        <ele>425</ele>
        <time>2018-10-24T12:16:23Z</time>
      </trkpt>
      <trkpt lat="43.97483" lon="5.15052">
        <ele>425</ele>
        <time>2018-10-24T12:16:31Z</time>
      </trkpt>
      <trkpt lat="43.97487" lon="5.15041">
        <ele>422</ele>
        <time>2018-10-24T12:16:40Z</time>
      </trkpt>
      <trkpt lat="43.9749" lon="5.15028">
        <ele>422</ele>
        <time>2018-10-24T12:16:48Z</time>
      </trkpt>
      <trkpt lat="43.97492" lon="5.15015">
        <ele>420</ele>
        <time>2018-10-24T12:16:57Z</time>
      </trkpt>
      <trkpt lat="43.97494" lon="5.15002">
        <ele>418</ele>
        <time>2018-10-24T12:17:06Z</time>
      </trkpt>
      <trkpt lat="43.97498" lon="5.14988">
        <ele>418</ele>
        <time>2018-10-24T12:17:14Z</time>
      </trkpt>
      <trkpt lat="43.97501" lon="5.14975">
        <ele>419</ele>
        <time>2018-10-24T12:17:22Z</time>
      </trkpt>
      <trkpt lat="43.97501" lon="5.14962">
        <ele>418</ele>
        <time>2018-10-24T12:17:32Z</time>
      </trkpt>
      <trkpt lat="43.97501" lon="5.14948">
        <ele>418</ele>
        <time>2018-10-24T12:17:42Z</time>
      </trkpt>
      <trkpt lat="43.97502" lon="5.14935">
        <ele>418</ele>
        <time>2018-10-24T12:17:50Z</time>
      </trkpt>
      <trkpt lat="43.97504" lon="5.14922">
        <ele>418</ele>
        <time>2018-10-24T12:17:59Z</time>
      </trkpt>
      <trkpt lat="43.97508" lon="5.14911">
        <ele>416</ele>
        <time>2018-10-24T12:18:08Z</time>
      </trkpt>
      <trkpt lat="43.97515" lon="5.14903">
        <ele>416</ele>
        <time>2018-10-24T12:18:16Z</time>
      </trkpt>
      <trkpt lat="43.97517" lon="5.14889">
        <ele>414</ele>
        <time>2018-10-24T12:18:23Z</time>
      </trkpt>
      <trkpt lat="43.97522" lon="5.14879">
        <ele>411</ele>
        <time>2018-10-24T12:18:31Z</time>
      </trkpt>
      <trkpt lat="43.97527" lon="5.14869">
        <ele>410</ele>
        <time>2018-10-24T12:18:39Z</time>
      </trkpt>
      <trkpt lat="43.97529" lon="5.14856">
        <ele>407</ele>
        <time>2018-10-24T12:18:48Z</time>
      </trkpt>
      <trkpt lat="43.97533" lon="5.14844">
        <ele>407</ele>
        <time>2018-10-24T12:18:56Z</time>
      </trkpt>
      <trkpt lat="43.97539" lon="5.14833">
        <ele>404</ele>
        <time>2018-10-24T12:19:04Z</time>
      </trkpt>
      <trkpt lat="43.97546" lon="5.14824">
        <ele>403</ele>
        <time>2018-10-24T12:19:13Z</time>
      </trkpt>
      <trkpt lat="43.97553" lon="5.14815">
        <ele>401</ele>
        <time>2018-10-24T12:19:21Z</time>
      </trkpt>
      <trkpt lat="43.97559" lon="5.14805">
        <ele>401</ele>
        <time>2018-10-24T12:19:29Z</time>
      </trkpt>
      <trkpt lat="43.97565" lon="5.14796">
        <ele>398</ele>
        <time>2018-10-24T12:19:38Z</time>
      </trkpt>
      <trkpt lat="43.97573" lon="5.14787">
        <ele>398</ele>
        <time>2018-10-24T12:19:47Z</time>
      </trkpt>
      <trkpt lat="43.97578" lon="5.14776">
        <ele>396</ele>
        <time>2018-10-24T12:19:56Z</time>
      </trkpt>
      <trkpt lat="43.97586" lon="5.14767">
        <ele>394</ele>
        <time>2018-10-24T12:20:05Z</time>
      </trkpt>
      <trkpt lat="43.97594" lon="5.1476">
        <ele>394</ele>
        <time>2018-10-24T12:20:13Z</time>
      </trkpt>
      <trkpt lat="43.97601" lon="5.14751">
        <ele>393</ele>
        <time>2018-10-24T12:20:22Z</time>
      </trkpt>
      <trkpt lat="43.97606" lon="5.14739">
        <ele>392</ele>
        <time>2018-10-24T12:20:32Z</time>
      </trkpt>
      <trkpt lat="43.97611" lon="5.14727">
        <ele>390</ele>
        <time>2018-10-24T12:20:41Z</time>
      </trkpt>
      <trkpt lat="43.97614" lon="5.14715">
        <ele>389</ele>
        <time>2018-10-24T12:20:49Z</time>
      </trkpt>
      <trkpt lat="43.97615" lon="5.14703">
        <ele>387</ele>
        <time>2018-10-24T12:20:57Z</time>
      </trkpt>
      <trkpt lat="43.97617" lon="5.14689">
        <ele>386</ele>
        <time>2018-10-24T12:21:06Z</time>
      </trkpt>
      <trkpt lat="43.9762" lon="5.14677">
        <ele>383</ele>
        <time>2018-10-24T12:21:15Z</time>
      </trkpt>
      <trkpt lat="43.97626" lon="5.14667">
        <ele>379</ele>
        <time>2018-10-24T12:21:25Z</time>
      </trkpt>
      <trkpt lat="43.97629" lon="5.14655">
        <ele>380</ele>
        <time>2018-10-24T12:21:33Z</time>
      </trkpt>
      <trkpt lat="43.97635" lon="5.14644">
        <ele>377</ele>
        <time>2018-10-24T12:21:41Z</time>
      </trkpt>
      <trkpt lat="43.97642" lon="5.14634">
        <ele>377</ele>
        <time>2018-10-24T12:21:49Z</time>
      </trkpt>
      <trkpt lat="43.97648" lon="5.14623">
        <ele>375</ele>
        <time>2018-10-24T12:21:57Z</time>
      </trkpt>
      <trkpt lat="43.97654" lon="5.14613">
        <ele>376</ele>
        <time>2018-10-24T12:22:05Z</time>
      </trkpt>
      <trkpt lat="43.9766" lon="5.14603">
        <ele>373</ele>
        <time>2018-10-24T12:22:13Z</time>
      </trkpt>
      <trkpt lat="43.97668" lon="5.14594">
        <ele>374</ele>
        <time>2018-10-24T12:22:21Z</time>
      </trkpt>
      <trkpt lat="43.97675" lon="5.14585">
        <ele>373</ele>
        <time>2018-10-24T12:22:29Z</time>
      </trkpt>
      <trkpt lat="43.97683" lon="5.14577">
        <ele>372</ele>
        <time>2018-10-24T12:22:37Z</time>
      </trkpt>
      <trkpt lat="43.9769" lon="5.14569">
        <ele>375</ele>
        <time>2018-10-24T12:22:45Z</time>
      </trkpt>
      <trkpt lat="43.97698" lon="5.1456">
        <ele>374</ele>
        <time>2018-10-24T12:22:53Z</time>
      </trkpt>
      <trkpt lat="43.97705" lon="5.1455">
        <ele>374</ele>
        <time>2018-10-24T12:23:01Z</time>
      </trkpt>
      <trkpt lat="43.97712" lon="5.14541">
        <ele>372</ele>
        <time>2018-10-24T12:23:09Z</time>
      </trkpt>
      <trkpt lat="43.9772" lon="5.14532">
        <ele>370</ele>
        <time>2018-10-24T12:23:17Z</time>
      </trkpt>
      <trkpt lat="43.97729" lon="5.14527">
        <ele>368</ele>
        <time>2018-10-24T12:23:25Z</time>
      </trkpt>
      <trkpt lat="43.97728" lon="5.14539">
        <ele>365</ele>
        <time>2018-10-24T12:24:10Z</time>
      </trkpt>
      <trkpt lat="43.97723" lon="5.14549">
        <ele>366</ele>
        <time>2018-10-24T12:24:18Z</time>
      </trkpt>
      <trkpt lat="43.97716" lon="5.1456">
        <ele>366</ele>
        <time>2018-10-24T12:24:26Z</time>
      </trkpt>
      <trkpt lat="43.97711" lon="5.14571">
        <ele>367</ele>
        <time>2018-10-24T12:24:34Z</time>
      </trkpt>
      <trkpt lat="43.97707" lon="5.14582">
        <ele>366</ele>
        <time>2018-10-24T12:24:42Z</time>
      </trkpt>
      <trkpt lat="43.97706" lon="5.14596">
        <ele>365</ele>
        <time>2018-10-24T12:24:50Z</time>
      </trkpt>
      <trkpt lat="43.97704" lon="5.14609">
        <ele>368</ele>
        <time>2018-10-24T12:25:20Z</time>
      </trkpt>
      <trkpt lat="43.97701" lon="5.14622">
        <ele>365</ele>
        <time>2018-10-24T12:25:27Z</time>
      </trkpt>
      <trkpt lat="43.977" lon="5.14635">
        <ele>361</ele>
        <time>2018-10-24T12:25:36Z</time>
      </trkpt>
      <trkpt lat="43.97699" lon="5.14648">
        <ele>362</ele>
        <time>2018-10-24T12:25:44Z</time>
      </trkpt>
      <trkpt lat="43.97698" lon="5.14661">
        <ele>362</ele>
        <time>2018-10-24T12:25:51Z</time>
      </trkpt>
      <trkpt lat="43.97698" lon="5.14674">
        <ele>362</ele>
        <time>2018-10-24T12:25:59Z</time>
      </trkpt>
      <trkpt lat="43.97696" lon="5.14686">
        <ele>362</ele>
        <time>2018-10-24T12:26:06Z</time>
      </trkpt>
      <trkpt lat="43.97699" lon="5.14698">
        <ele>362</ele>
        <time>2018-10-24T12:26:14Z</time>
      </trkpt>
      <trkpt lat="43.97701" lon="5.14712">
        <ele>363</ele>
        <time>2018-10-24T12:26:22Z</time>
      </trkpt>
      <trkpt lat="43.97701" lon="5.14725">
        <ele>363</ele>
        <time>2018-10-24T12:26:30Z</time>
      </trkpt>
      <trkpt lat="43.97698" lon="5.14738">
        <ele>363</ele>
        <time>2018-10-24T12:26:37Z</time>
      </trkpt>
      <trkpt lat="43.97697" lon="5.14752">
        <ele>364</ele>
        <time>2018-10-24T12:26:46Z</time>
      </trkpt>
      <trkpt lat="43.977" lon="5.14764">
        <ele>364</ele>
        <time>2018-10-24T12:26:54Z</time>
      </trkpt>
      <trkpt lat="43.97703" lon="5.14776">
        <ele>363</ele>
        <time>2018-10-24T12:27:00Z</time>
      </trkpt>
      <trkpt lat="43.97705" lon="5.1479">
        <ele>364</ele>
        <time>2018-10-24T12:27:11Z</time>
      </trkpt>
      <trkpt lat="43.97708" lon="5.14803">
        <ele>363</ele>
        <time>2018-10-24T12:27:20Z</time>
      </trkpt>
      <trkpt lat="43.97712" lon="5.14814">
        <ele>362</ele>
        <time>2018-10-24T12:27:29Z</time>
      </trkpt>
      <trkpt lat="43.97715" lon="5.14826">
        <ele>365</ele>
        <time>2018-10-24T12:27:37Z</time>
      </trkpt>
      <trkpt lat="43.97719" lon="5.14838">
        <ele>366</ele>
        <time>2018-10-24T12:27:48Z</time>
      </trkpt>
      <trkpt lat="43.97722" lon="5.14852">
        <ele>366</ele>
        <time>2018-10-24T12:27:58Z</time>
      </trkpt>
      <trkpt lat="43.97725" lon="5.14864">
        <ele>367</ele>
        <time>2018-10-24T12:28:06Z</time>
      </trkpt>
      <trkpt lat="43.97729" lon="5.14875">
        <ele>368</ele>
        <time>2018-10-24T12:28:14Z</time>
      </trkpt>
      <trkpt lat="43.9773" lon="5.14888">
        <ele>368</ele>
        <time>2018-10-24T12:28:21Z</time>
      </trkpt>
      <trkpt lat="43.97729" lon="5.14901">
        <ele>369</ele>
        <time>2018-10-24T12:28:28Z</time>
      </trkpt>
      <trkpt lat="43.97728" lon="5.14915">
        <ele>371</ele>
        <time>2018-10-24T12:28:37Z</time>
      </trkpt>
      <trkpt lat="43.97724" lon="5.14927">
        <ele>373</ele>
        <time>2018-10-24T12:28:45Z</time>
      </trkpt>
      <trkpt lat="43.9772" lon="5.14939">
        <ele>375</ele>
        <time>2018-10-24T12:28:53Z</time>
      </trkpt>
      <trkpt lat="43.97715" lon="5.14949">
        <ele>376</ele>
        <time>2018-10-24T12:29:01Z</time>
      </trkpt>
      <trkpt lat="43.9771" lon="5.14961">
        <ele>377</ele>
        <time>2018-10-24T12:29:09Z</time>
      </trkpt>
      <trkpt lat="43.97705" lon="5.14972">
        <ele>378</ele>
        <time>2018-10-24T12:29:16Z</time>
      </trkpt>
      <trkpt lat="43.977" lon="5.14985">
        <ele>378</ele>
        <time>2018-10-24T12:29:24Z</time>
      </trkpt>
      <trkpt lat="43.97695" lon="5.14996">
        <ele>379</ele>
        <time>2018-10-24T12:29:32Z</time>
      </trkpt>
      <trkpt lat="43.9769" lon="5.15008">
        <ele>378</ele>
        <time>2018-10-24T12:29:40Z</time>
      </trkpt>
      <trkpt lat="43.97685" lon="5.1502">
        <ele>378</ele>
        <time>2018-10-24T12:29:48Z</time>
      </trkpt>
      <trkpt lat="43.97683" lon="5.15032">
        <ele>379</ele>
        <time>2018-10-24T12:29:56Z</time>
      </trkpt>
      <trkpt lat="43.97677" lon="5.15042">
        <ele>379</ele>
        <time>2018-10-24T12:30:04Z</time>
      </trkpt>
      <trkpt lat="43.97673" lon="5.15055">
        <ele>378</ele>
        <time>2018-10-24T12:30:12Z</time>
      </trkpt>
      <trkpt lat="43.97668" lon="5.15066">
        <ele>378</ele>
        <time>2018-10-24T12:30:21Z</time>
      </trkpt>
      <trkpt lat="43.97663" lon="5.15077">
        <ele>376</ele>
        <time>2018-10-24T12:30:29Z</time>
      </trkpt>
      <trkpt lat="43.97662" lon="5.15091">
        <ele>376</ele>
        <time>2018-10-24T12:30:37Z</time>
      </trkpt>
      <trkpt lat="43.97663" lon="5.15103">
        <ele>376</ele>
        <time>2018-10-24T12:30:45Z</time>
      </trkpt>
      <trkpt lat="43.97663" lon="5.15116">
        <ele>376</ele>
        <time>2018-10-24T12:30:53Z</time>
      </trkpt>
      <trkpt lat="43.97665" lon="5.15129">
        <ele>376</ele>
        <time>2018-10-24T12:31:00Z</time>
      </trkpt>
      <trkpt lat="43.97666" lon="5.15143">
        <ele>378</ele>
        <time>2018-10-24T12:31:07Z</time>
      </trkpt>
      <trkpt lat="43.97666" lon="5.15156">
        <ele>379</ele>
        <time>2018-10-24T12:31:15Z</time>
      </trkpt>
      <trkpt lat="43.97665" lon="5.15169">
        <ele>379</ele>
        <time>2018-10-24T12:31:22Z</time>
      </trkpt>
      <trkpt lat="43.97672" lon="5.15179">
        <ele>377</ele>
        <time>2018-10-24T12:31:31Z</time>
      </trkpt>
      <trkpt lat="43.9768" lon="5.15187">
        <ele>376</ele>
        <time>2018-10-24T12:31:39Z</time>
      </trkpt>
      <trkpt lat="43.97689" lon="5.15186">
        <ele>375</ele>
        <time>2018-10-24T12:31:48Z</time>
      </trkpt>
      <trkpt lat="43.97698" lon="5.15183">
        <ele>372</ele>
        <time>2018-10-24T12:32:12Z</time>
      </trkpt>
      <trkpt lat="43.97704" lon="5.15172">
        <ele>372</ele>
        <time>2018-10-24T12:32:23Z</time>
      </trkpt>
      <trkpt lat="43.97713" lon="5.15169">
        <ele>374</ele>
        <time>2018-10-24T12:32:31Z</time>
      </trkpt>
      <trkpt lat="43.97722" lon="5.15173">
        <ele>375</ele>
        <time>2018-10-24T12:32:38Z</time>
      </trkpt>
      <trkpt lat="43.97732" lon="5.15174">
        <ele>375</ele>
        <time>2018-10-24T12:32:48Z</time>
      </trkpt>
      <trkpt lat="43.97741" lon="5.15178">
        <ele>375</ele>
        <time>2018-10-24T12:32:57Z</time>
      </trkpt>
      <trkpt lat="43.9775" lon="5.15181">
        <ele>376</ele>
        <time>2018-10-24T12:33:09Z</time>
      </trkpt>
      <trkpt lat="43.97759" lon="5.15183">
        <ele>376</ele>
        <time>2018-10-24T12:33:17Z</time>
      </trkpt>
      <trkpt lat="43.97769" lon="5.15184">
        <ele>375</ele>
        <time>2018-10-24T12:33:25Z</time>
      </trkpt>
      <trkpt lat="43.97776" lon="5.15175">
        <ele>374</ele>
        <time>2018-10-24T12:33:43Z</time>
      </trkpt>
      <trkpt lat="43.97766" lon="5.15177">
        <ele>374</ele>
        <time>2018-10-24T12:34:09Z</time>
      </trkpt>
      <trkpt lat="43.97757" lon="5.15174">
        <ele>376</ele>
        <time>2018-10-24T12:34:18Z</time>
      </trkpt>
      <trkpt lat="43.97748" lon="5.15177">
        <ele>375</ele>
        <time>2018-10-24T12:34:29Z</time>
      </trkpt>
      <trkpt lat="43.97739" lon="5.15175">
        <ele>378</ele>
        <time>2018-10-24T12:34:48Z</time>
      </trkpt>
      <trkpt lat="43.97732" lon="5.15167">
        <ele>380</ele>
        <time>2018-10-24T12:34:58Z</time>
      </trkpt>
      <trkpt lat="43.97722" lon="5.1517">
        <ele>377</ele>
        <time>2018-10-24T12:35:08Z</time>
      </trkpt>
      <trkpt lat="43.97714" lon="5.15176">
        <ele>378</ele>
        <time>2018-10-24T12:35:16Z</time>
      </trkpt>
      <trkpt lat="43.97706" lon="5.15183">
        <ele>377</ele>
        <time>2018-10-24T12:35:23Z</time>
      </trkpt>
      <trkpt lat="43.97696" lon="5.15188">
        <ele>376</ele>
        <time>2018-10-24T12:35:31Z</time>
      </trkpt>
      <trkpt lat="43.97687" lon="5.15191">
        <ele>376</ele>
        <time>2018-10-24T12:35:41Z</time>
      </trkpt>
      <trkpt lat="43.97686" lon="5.15204">
        <ele>375</ele>
        <time>2018-10-24T12:35:54Z</time>
      </trkpt>
      <trkpt lat="43.97691" lon="5.15215">
        <ele>371</ele>
        <time>2018-10-24T12:36:12Z</time>
      </trkpt>
      <trkpt lat="43.97694" lon="5.15227">
        <ele>372</ele>
        <time>2018-10-24T12:36:29Z</time>
      </trkpt>
      <trkpt lat="43.97698" lon="5.15239">
        <ele>369</ele>
        <time>2018-10-24T12:36:42Z</time>
      </trkpt>
      <trkpt lat="43.97706" lon="5.15247">
        <ele>368</ele>
        <time>2018-10-24T12:36:52Z</time>
      </trkpt>
      <trkpt lat="43.97711" lon="5.15256">
        <ele>366</ele>
        <time>2018-10-24T12:37:02Z</time>
      </trkpt>
      <trkpt lat="43.97715" lon="5.15268">
        <ele>364</ele>
        <time>2018-10-24T12:37:14Z</time>
      </trkpt>
      <trkpt lat="43.97721" lon="5.15278">
        <ele>360</ele>
        <time>2018-10-24T12:37:25Z</time>
      </trkpt>
      <trkpt lat="43.97727" lon="5.15289">
        <ele>359</ele>
        <time>2018-10-24T12:37:35Z</time>
      </trkpt>
      <trkpt lat="43.97735" lon="5.15293">
        <ele>357</ele>
        <time>2018-10-24T12:37:45Z</time>
      </trkpt>
      <trkpt lat="43.97743" lon="5.15301">
        <ele>354</ele>
        <time>2018-10-24T12:38:00Z</time>
      </trkpt>
      <trkpt lat="43.97752" lon="5.15309">
        <ele>353</ele>
        <time>2018-10-24T12:38:12Z</time>
      </trkpt>
      <trkpt lat="43.97759" lon="5.15316">
        <ele>352</ele>
        <time>2018-10-24T12:38:22Z</time>
      </trkpt>
      <trkpt lat="43.97765" lon="5.15326">
        <ele>350</ele>
        <time>2018-10-24T12:38:32Z</time>
      </trkpt>
      <trkpt lat="43.97773" lon="5.15333">
        <ele>347</ele>
        <time>2018-10-24T12:38:41Z</time>
      </trkpt>
      <trkpt lat="43.97781" lon="5.15342">
        <ele>345</ele>
        <time>2018-10-24T12:38:50Z</time>
      </trkpt>
      <trkpt lat="43.9779" lon="5.15347">
        <ele>344</ele>
        <time>2018-10-24T12:39:02Z</time>
      </trkpt>
      <trkpt lat="43.97798" lon="5.15349">
        <ele>341</ele>
        <time>2018-10-24T12:39:13Z</time>
      </trkpt>
      <trkpt lat="43.97806" lon="5.15358">
        <ele>339</ele>
        <time>2018-10-24T12:39:24Z</time>
      </trkpt>
      <trkpt lat="43.97813" lon="5.15367">
        <ele>336</ele>
        <time>2018-10-24T12:39:35Z</time>
      </trkpt>
      <trkpt lat="43.97821" lon="5.15374">
        <ele>335</ele>
        <time>2018-10-24T12:39:46Z</time>
      </trkpt>
      <trkpt lat="43.97829" lon="5.15381">
        <ele>333</ele>
        <time>2018-10-24T12:39:57Z</time>
      </trkpt>
      <trkpt lat="43.97838" lon="5.1538">
        <ele>332</ele>
        <time>2018-10-24T12:40:08Z</time>
      </trkpt>
      <trkpt lat="43.97847" lon="5.1538">
        <ele>331</ele>
        <time>2018-10-24T12:40:17Z</time>
      </trkpt>
      <trkpt lat="43.97855" lon="5.15387">
        <ele>328</ele>
        <time>2018-10-24T12:40:25Z</time>
      </trkpt>
      <trkpt lat="43.97864" lon="5.15388">
        <ele>326</ele>
        <time>2018-10-24T12:40:34Z</time>
      </trkpt>
      <trkpt lat="43.97873" lon="5.15391">
        <ele>323</ele>
        <time>2018-10-24T12:40:44Z</time>
      </trkpt>
      <trkpt lat="43.97882" lon="5.15396">
        <ele>321</ele>
        <time>2018-10-24T12:40:54Z</time>
      </trkpt>
      <trkpt lat="43.97892" lon="5.15399">
        <ele>319</ele>
        <time>2018-10-24T12:41:03Z</time>
      </trkpt>
      <trkpt lat="43.97901" lon="5.15401">
        <ele>318</ele>
        <time>2018-10-24T12:41:12Z</time>
      </trkpt>
      <trkpt lat="43.97911" lon="5.15406">
        <ele>317</ele>
        <time>2018-10-24T12:41:22Z</time>
      </trkpt>
      <trkpt lat="43.9792" lon="5.15409">
        <ele>317</ele>
        <time>2018-10-24T12:41:30Z</time>
      </trkpt>
      <trkpt lat="43.97928" lon="5.15417">
        <ele>314</ele>
        <time>2018-10-24T12:41:39Z</time>
      </trkpt>
      <trkpt lat="43.97938" lon="5.15419">
        <ele>312</ele>
        <time>2018-10-24T12:41:47Z</time>
      </trkpt>
      <trkpt lat="43.97947" lon="5.15426">
        <ele>310</ele>
        <time>2018-10-24T12:41:54Z</time>
      </trkpt>
      <trkpt lat="43.97954" lon="5.15434">
        <ele>310</ele>
        <time>2018-10-24T12:42:02Z</time>
      </trkpt>
      <trkpt lat="43.97964" lon="5.15438">
        <ele>309</ele>
        <time>2018-10-24T12:42:11Z</time>
      </trkpt>
      <trkpt lat="43.97971" lon="5.15445">
        <ele>308</ele>
        <time>2018-10-24T12:42:19Z</time>
      </trkpt>
      <trkpt lat="43.9798" lon="5.15449">
        <ele>306</ele>
        <time>2018-10-24T12:42:26Z</time>
      </trkpt>
      <trkpt lat="43.97989" lon="5.15451">
        <ele>304</ele>
        <time>2018-10-24T12:42:36Z</time>
      </trkpt>
      <trkpt lat="43.97999" lon="5.15451">
        <ele>303</ele>
        <time>2018-10-24T12:42:45Z</time>
      </trkpt>
      <trkpt lat="43.98008" lon="5.15445">
        <ele>303</ele>
        <time>2018-10-24T12:42:53Z</time>
      </trkpt>
      <trkpt lat="43.98015" lon="5.15435">
        <ele>303</ele>
        <time>2018-10-24T12:43:02Z</time>
      </trkpt>
      <trkpt lat="43.98023" lon="5.15427">
        <ele>303</ele>
        <time>2018-10-24T12:43:10Z</time>
      </trkpt>
      <trkpt lat="43.98032" lon="5.15429">
        <ele>301</ele>
        <time>2018-10-24T12:43:20Z</time>
      </trkpt>
      <trkpt lat="43.98042" lon="5.15429">
        <ele>298</ele>
        <time>2018-10-24T12:43:29Z</time>
      </trkpt>
      <trkpt lat="43.98053" lon="5.1543">
        <ele>297</ele>
        <time>2018-10-24T12:43:38Z</time>
      </trkpt>
      <trkpt lat="43.98061" lon="5.15438">
        <ele>295</ele>
        <time>2018-10-24T12:43:50Z</time>
      </trkpt>
      <trkpt lat="43.9807" lon="5.15434">
        <ele>292</ele>
        <time>2018-10-24T12:43:58Z</time>
      </trkpt>
      <trkpt lat="43.9808" lon="5.15432">
        <ele>292</ele>
        <time>2018-10-24T12:44:06Z</time>
      </trkpt>
      <trkpt lat="43.9809" lon="5.15434">
        <ele>291</ele>
        <time>2018-10-24T12:44:17Z</time>
      </trkpt>
      <trkpt lat="43.98099" lon="5.15436">
        <ele>290</ele>
        <time>2018-10-24T12:44:26Z</time>
      </trkpt>
      <trkpt lat="43.98109" lon="5.15433">
        <ele>286</ele>
        <time>2018-10-24T12:44:36Z</time>
      </trkpt>
      <trkpt lat="43.98118" lon="5.15429">
        <ele>286</ele>
        <time>2018-10-24T12:44:44Z</time>
      </trkpt>
      <trkpt lat="43.98128" lon="5.15427">
        <ele>286</ele>
        <time>2018-10-24T12:44:51Z</time>
      </trkpt>
      <trkpt lat="43.98138" lon="5.15423">
        <ele>283</ele>
        <time>2018-10-24T12:45:00Z</time>
      </trkpt>
      <trkpt lat="43.98147" lon="5.1542">
        <ele>281</ele>
        <time>2018-10-24T12:45:08Z</time>
      </trkpt>
      <trkpt lat="43.98157" lon="5.15419">
        <ele>279</ele>
        <time>2018-10-24T12:45:16Z</time>
      </trkpt>
      <trkpt lat="43.98166" lon="5.15415">
        <ele>279</ele>
        <time>2018-10-24T12:45:24Z</time>
      </trkpt>
      <trkpt lat="43.98175" lon="5.15417">
        <ele>278</ele>
        <time>2018-10-24T12:45:32Z</time>
      </trkpt>
      <trkpt lat="43.98184" lon="5.15418">
        <ele>276</ele>
        <time>2018-10-24T12:45:40Z</time>
      </trkpt>
      <trkpt lat="43.98195" lon="5.15418">
        <ele>274</ele>
        <time>2018-10-24T12:45:48Z</time>
      </trkpt>
      <trkpt lat="43.98204" lon="5.15417">
        <ele>271</ele>
        <time>2018-10-24T12:45:56Z</time>
      </trkpt>
      <trkpt lat="43.98214" lon="5.15422">
        <ele>269</ele>
        <time>2018-10-24T12:46:07Z</time>
      </trkpt>
      <trkpt lat="43.98223" lon="5.15426">
        <ele>268</ele>
        <time>2018-10-24T12:46:14Z</time>
      </trkpt>
      <trkpt lat="43.9823" lon="5.15434">
        <ele>267</ele>
        <time>2018-10-24T12:46:23Z</time>
      </trkpt>
      <trkpt lat="43.9824" lon="5.15432">
        <ele>265</ele>
        <time>2018-10-24T12:46:30Z</time>
      </trkpt>
      <trkpt lat="43.98249" lon="5.15426">
        <ele>265</ele>
        <time>2018-10-24T12:46:38Z</time>
      </trkpt>
      <trkpt lat="43.98256" lon="5.15417">
        <ele>262</ele>
        <time>2018-10-24T12:46:45Z</time>
      </trkpt>
      <trkpt lat="43.98259" lon="5.15404">
        <ele>259</ele>
        <time>2018-10-24T12:46:52Z</time>
      </trkpt>
      <trkpt lat="43.9826" lon="5.15391">
        <ele>258</ele>
        <time>2018-10-24T12:46:58Z</time>
      </trkpt>
      <trkpt lat="43.98261" lon="5.15378">
        <ele>255</ele>
        <time>2018-10-24T12:47:05Z</time>
      </trkpt>
      <trkpt lat="43.98262" lon="5.15365">
        <ele>254</ele>
        <time>2018-10-24T12:47:12Z</time>
      </trkpt>
      <trkpt lat="43.98262" lon="5.15352">
        <ele>253</ele>
        <time>2018-10-24T12:47:20Z</time>
      </trkpt>
      <trkpt lat="43.98265" lon="5.1534">
        <ele>254</ele>
        <time>2018-10-24T12:47:27Z</time>
      </trkpt>
      <trkpt lat="43.98266" lon="5.15327">
        <ele>253</ele>
        <time>2018-10-24T12:47:35Z</time>
      </trkpt>
      <trkpt lat="43.98267" lon="5.15313">
        <ele>253</ele>
        <time>2018-10-24T12:47:43Z</time>
      </trkpt>
      <trkpt lat="43.98272" lon="5.153">
        <ele>254</ele>
        <time>2018-10-24T12:47:51Z</time>
      </trkpt>
      <trkpt lat="43.98277" lon="5.15289">
        <ele>253</ele>
        <time>2018-10-24T12:47:59Z</time>
      </trkpt>
      <trkpt lat="43.9828" lon="5.15275">
        <ele>251</ele>
        <time>2018-10-24T12:48:07Z</time>
      </trkpt>
      <trkpt lat="43.98284" lon="5.15262">
        <ele>251</ele>
        <time>2018-10-24T12:48:14Z</time>
      </trkpt>
      <trkpt lat="43.98288" lon="5.15249">
        <ele>251</ele>
        <time>2018-10-24T12:48:22Z</time>
      </trkpt>
      <trkpt lat="43.98293" lon="5.15238">
        <ele>252</ele>
        <time>2018-10-24T12:48:29Z</time>
      </trkpt>
      <trkpt lat="43.98295" lon="5.15225">
        <ele>251</ele>
        <time>2018-10-24T12:48:38Z</time>
      </trkpt>
      <trkpt lat="43.98295" lon="5.15213">
        <ele>249</ele>
        <time>2018-10-24T12:49:20Z</time>
      </trkpt>
      <trkpt lat="43.98293" lon="5.15199">
        <ele>244</ele>
        <time>2018-10-24T12:49:30Z</time>
      </trkpt>
      <trkpt lat="43.98297" lon="5.15187">
        <ele>249</ele>
        <time>2018-10-24T12:53:14Z</time>
      </trkpt>
      <trkpt lat="43.98297" lon="5.15174">
        <ele>251</ele>
        <time>2018-10-24T12:53:23Z</time>
      </trkpt>
      <trkpt lat="43.98297" lon="5.15161">
        <ele>251</ele>
        <time>2018-10-24T12:53:34Z</time>
      </trkpt>
      <trkpt lat="43.98298" lon="5.15148">
        <ele>252</ele>
        <time>2018-10-24T12:53:44Z</time>
      </trkpt>
      <trkpt lat="43.98298" lon="5.15136">
        <ele>254</ele>
        <time>2018-10-24T12:53:53Z</time>
      </trkpt>
      <trkpt lat="43.983" lon="5.15123">
        <ele>256</ele>
        <time>2018-10-24T12:54:01Z</time>
      </trkpt>
      <trkpt lat="43.98301" lon="5.15111">
        <ele>255</ele>
        <time>2018-10-24T12:54:09Z</time>
      </trkpt>
      <trkpt lat="43.98304" lon="5.15099">
        <ele>256</ele>
        <time>2018-10-24T12:54:17Z</time>
      </trkpt>
      <trkpt lat="43.98307" lon="5.15086">
        <ele>257</ele>
        <time>2018-10-24T12:54:28Z</time>
      </trkpt>
      <trkpt lat="43.98311" lon="5.15075">
        <ele>255</ele>
        <time>2018-10-24T12:54:40Z</time>
      </trkpt>
      <trkpt lat="43.98316" lon="5.15064">
        <ele>256</ele>
        <time>2018-10-24T12:54:49Z</time>
      </trkpt>
      <trkpt lat="43.98323" lon="5.15055">
        <ele>257</ele>
        <time>2018-10-24T12:54:57Z</time>
      </trkpt>
      <trkpt lat="43.98328" lon="5.15043">
        <ele>253</ele>
        <time>2018-10-24T12:55:06Z</time>
      </trkpt>
      <trkpt lat="43.98334" lon="5.15033">
        <ele>254</ele>
        <time>2018-10-24T12:55:15Z</time>
      </trkpt>
      <trkpt lat="43.98339" lon="5.15022">
        <ele>253</ele>
        <time>2018-10-24T12:55:24Z</time>
      </trkpt>
      <trkpt lat="43.98341" lon="5.1501">
        <ele>252</ele>
        <time>2018-10-24T12:55:41Z</time>
      </trkpt>
      <trkpt lat="43.98344" lon="5.14997">
        <ele>255</ele>
        <time>2018-10-24T12:55:49Z</time>
      </trkpt>
      <trkpt lat="43.98349" lon="5.14984">
        <ele>255</ele>
        <time>2018-10-24T12:55:57Z</time>
      </trkpt>
      <trkpt lat="43.98353" lon="5.14972">
        <ele>254</ele>
        <time>2018-10-24T12:56:07Z</time>
      </trkpt>
      <trkpt lat="43.98351" lon="5.14959">
        <ele>252</ele>
        <time>2018-10-24T12:56:18Z</time>
      </trkpt>
      <trkpt lat="43.98351" lon="5.14945">
        <ele>249</ele>
        <time>2018-10-24T12:56:29Z</time>
      </trkpt>
      <trkpt lat="43.98355" lon="5.14933">
        <ele>247</ele>
        <time>2018-10-24T12:56:36Z</time>
      </trkpt>
      <trkpt lat="43.9836" lon="5.14922">
        <ele>248</ele>
        <time>2018-10-24T12:56:42Z</time>
      </trkpt>
      <trkpt lat="43.98365" lon="5.1491">
        <ele>248</ele>
        <time>2018-10-24T12:56:50Z</time>
      </trkpt>
      <trkpt lat="43.98366" lon="5.14897">
        <ele>248</ele>
        <time>2018-10-24T12:57:00Z</time>
      </trkpt>
      <trkpt lat="43.98361" lon="5.14885">
        <ele>248</ele>
        <time>2018-10-24T12:57:10Z</time>
      </trkpt>
      <trkpt lat="43.98356" lon="5.14874">
        <ele>247</ele>
        <time>2018-10-24T12:57:18Z</time>
      </trkpt>
      <trkpt lat="43.98353" lon="5.14862">
        <ele>247</ele>
        <time>2018-10-24T12:57:27Z</time>
      </trkpt>
      <trkpt lat="43.98352" lon="5.1485">
        <ele>246</ele>
        <time>2018-10-24T12:57:35Z</time>
      </trkpt>
      <trkpt lat="43.9835" lon="5.14837">
        <ele>248</ele>
        <time>2018-10-24T12:57:42Z</time>
      </trkpt>
      <trkpt lat="43.98351" lon="5.14824">
        <ele>246</ele>
        <time>2018-10-24T12:57:50Z</time>
      </trkpt>
      <trkpt lat="43.9835" lon="5.14811">
        <ele>245</ele>
        <time>2018-10-24T12:57:59Z</time>
      </trkpt>
      <trkpt lat="43.98348" lon="5.14798">
        <ele>244</ele>
        <time>2018-10-24T12:58:07Z</time>
      </trkpt>
      <trkpt lat="43.98347" lon="5.14785">
        <ele>242</ele>
        <time>2018-10-24T12:58:15Z</time>
      </trkpt>
      <trkpt lat="43.98347" lon="5.14773">
        <ele>243</ele>
        <time>2018-10-24T12:58:23Z</time>
      </trkpt>
      <trkpt lat="43.98344" lon="5.1476">
        <ele>243</ele>
        <time>2018-10-24T12:58:31Z</time>
      </trkpt>
      <trkpt lat="43.98341" lon="5.14747">
        <ele>242</ele>
        <time>2018-10-24T12:58:39Z</time>
      </trkpt>
      <trkpt lat="43.98336" lon="5.14736">
        <ele>244</ele>
        <time>2018-10-24T12:58:46Z</time>
      </trkpt>
      <trkpt lat="43.98337" lon="5.14721">
        <ele>243</ele>
        <time>2018-10-24T12:58:55Z</time>
      </trkpt>
      <trkpt lat="43.98345" lon="5.14715">
        <ele>241</ele>
        <time>2018-10-24T12:59:04Z</time>
      </trkpt>
      <trkpt lat="43.98357" lon="5.14716">
        <ele>240</ele>
        <time>2018-10-24T12:59:11Z</time>
      </trkpt>
      <trkpt lat="43.98373" lon="5.14718">
        <ele>238</ele>
        <time>2018-10-24T12:59:22Z</time>
      </trkpt>
      <trkpt lat="43.98381" lon="5.14713">
        <ele>237</ele>
        <time>2018-10-24T12:59:30Z</time>
      </trkpt>
      <trkpt lat="43.98386" lon="5.14701">
        <ele>236</ele>
        <time>2018-10-24T12:59:38Z</time>
      </trkpt>
      <trkpt lat="43.98394" lon="5.14695">
        <ele>235</ele>
        <time>2018-10-24T12:59:44Z</time>
      </trkpt>
      <trkpt lat="43.98401" lon="5.14687">
        <ele>232</ele>
        <time>2018-10-24T12:59:53Z</time>
      </trkpt>
      <trkpt lat="43.98407" lon="5.14677">
        <ele>230</ele>
        <time>2018-10-24T13:00:02Z</time>
      </trkpt>
      <trkpt lat="43.98415" lon="5.14669">
        <ele>230</ele>
        <time>2018-10-24T13:00:10Z</time>
      </trkpt>
      <trkpt lat="43.98422" lon="5.14661">
        <ele>229</ele>
        <time>2018-10-24T13:00:18Z</time>
      </trkpt>
      <trkpt lat="43.98431" lon="5.14655">
        <ele>229</ele>
        <time>2018-10-24T13:00:26Z</time>
      </trkpt>
      <trkpt lat="43.9844" lon="5.14655">
        <ele>229</ele>
        <time>2018-10-24T13:00:32Z</time>
      </trkpt>
      <trkpt lat="43.98446" lon="5.14645">
        <ele>229</ele>
        <time>2018-10-24T13:00:42Z</time>
      </trkpt>
      <trkpt lat="43.98455" lon="5.14641">
        <ele>229</ele>
        <time>2018-10-24T13:00:50Z</time>
      </trkpt>
      <trkpt lat="43.98464" lon="5.14634">
        <ele>229</ele>
        <time>2018-10-24T13:00:58Z</time>
      </trkpt>
      <trkpt lat="43.98471" lon="5.14626">
        <ele>227</ele>
        <time>2018-10-24T13:01:05Z</time>
      </trkpt>
      <trkpt lat="43.98475" lon="5.14615">
        <ele>227</ele>
        <time>2018-10-24T13:01:12Z</time>
      </trkpt>
      <trkpt lat="43.98482" lon="5.14605">
        <ele>226</ele>
        <time>2018-10-24T13:01:19Z</time>
      </trkpt>
      <trkpt lat="43.98488" lon="5.14595">
        <ele>225</ele>
        <time>2018-10-24T13:01:30Z</time>
      </trkpt>
      <trkpt lat="43.98498" lon="5.14589">
        <ele>224</ele>
        <time>2018-10-24T13:01:37Z</time>
      </trkpt>
      <trkpt lat="43.98505" lon="5.14579">
        <ele>223</ele>
        <time>2018-10-24T13:01:45Z</time>
      </trkpt>
      <trkpt lat="43.98511" lon="5.14569">
        <ele>224</ele>
        <time>2018-10-24T13:01:53Z</time>
      </trkpt>
      <trkpt lat="43.98517" lon="5.14558">
        <ele>226</ele>
        <time>2018-10-24T13:02:01Z</time>
      </trkpt>
      <trkpt lat="43.98526" lon="5.14551">
        <ele>226</ele>
        <time>2018-10-24T13:02:08Z</time>
      </trkpt>
      <trkpt lat="43.98534" lon="5.14545">
        <ele>225</ele>
        <time>2018-10-24T13:02:16Z</time>
      </trkpt>
      <trkpt lat="43.98541" lon="5.14536">
        <ele>224</ele>
        <time>2018-10-24T13:02:24Z</time>
      </trkpt>
      <trkpt lat="43.98547" lon="5.14527">
        <ele>224</ele>
        <time>2018-10-24T13:02:32Z</time>
      </trkpt>
      <trkpt lat="43.98555" lon="5.1452">
        <ele>224</ele>
        <time>2018-10-24T13:02:39Z</time>
      </trkpt>
      <trkpt lat="43.98562" lon="5.1451">
        <ele>221</ele>
        <time>2018-10-24T13:02:48Z</time>
      </trkpt>
      <trkpt lat="43.98579" lon="5.14502">
        <ele>221</ele>
        <time>2018-10-24T13:03:02Z</time>
      </trkpt>
      <trkpt lat="43.98586" lon="5.14492">
        <ele>222</ele>
        <time>2018-10-24T13:03:11Z</time>
      </trkpt>
      <trkpt lat="43.98591" lon="5.14481">
        <ele>222</ele>
        <time>2018-10-24T13:03:20Z</time>
      </trkpt>
      <trkpt lat="43.98597" lon="5.1447">
        <ele>220</ele>
        <time>2018-10-24T13:03:28Z</time>
      </trkpt>
      <trkpt lat="43.98601" lon="5.14458">
        <ele>218</ele>
        <time>2018-10-24T13:03:36Z</time>
      </trkpt>
      <trkpt lat="43.98603" lon="5.14445">
        <ele>219</ele>
        <time>2018-10-24T13:03:44Z</time>
      </trkpt>
      <trkpt lat="43.98605" lon="5.14431">
        <ele>217</ele>
        <time>2018-10-24T13:03:52Z</time>
      </trkpt>
      <trkpt lat="43.98608" lon="5.14418">
        <ele>217</ele>
        <time>2018-10-24T13:04:01Z</time>
      </trkpt>
      <trkpt lat="43.9861" lon="5.14405">
        <ele>218</ele>
        <time>2018-10-24T13:04:09Z</time>
      </trkpt>
      <trkpt lat="43.98614" lon="5.14393">
        <ele>218</ele>
        <time>2018-10-24T13:04:17Z</time>
      </trkpt>
      <trkpt lat="43.98619" lon="5.14381">
        <ele>220</ele>
        <time>2018-10-24T13:04:25Z</time>
      </trkpt>
      <trkpt lat="43.98625" lon="5.14369">
        <ele>220</ele>
        <time>2018-10-24T13:04:33Z</time>
      </trkpt>
      <trkpt lat="43.98631" lon="5.14359">
        <ele>218</ele>
        <time>2018-10-24T13:04:41Z</time>
      </trkpt>
      <trkpt lat="43.98637" lon="5.14349">
        <ele>219</ele>
        <time>2018-10-24T13:04:50Z</time>
      </trkpt>
      <trkpt lat="43.98644" lon="5.1434">
        <ele>218</ele>
        <time>2018-10-24T13:04:58Z</time>
      </trkpt>
      <trkpt lat="43.98648" lon="5.14328">
        <ele>218</ele>
        <time>2018-10-24T13:05:08Z</time>
      </trkpt>
      <trkpt lat="43.98655" lon="5.1432">
        <ele>218</ele>
        <time>2018-10-24T13:05:16Z</time>
      </trkpt>
      <trkpt lat="43.98664" lon="5.14315">
        <ele>218</ele>
        <time>2018-10-24T13:05:24Z</time>
      </trkpt>
      <trkpt lat="43.98669" lon="5.14326">
        <ele>219</ele>
        <time>2018-10-24T13:06:40Z</time>
      </trkpt>
      <trkpt lat="43.98678" lon="5.14326">
        <ele>221</ele>
        <time>2018-10-24T13:07:01Z</time>
      </trkpt>
      <trkpt lat="43.98686" lon="5.14329">
        <ele>221</ele>
        <time>2018-10-24T13:07:16Z</time>
      </trkpt>
      <trkpt lat="43.98696" lon="5.14328">
        <ele>222</ele>
        <time>2018-10-24T13:07:26Z</time>
      </trkpt>
      <trkpt lat="43.98705" lon="5.14327">
        <ele>222</ele>
        <time>2018-10-24T13:07:36Z</time>
      </trkpt>
      <trkpt lat="43.98714" lon="5.14323">
        <ele>222</ele>
        <time>2018-10-24T13:07:46Z</time>
      </trkpt>
      <trkpt lat="43.98723" lon="5.14328">
        <ele>220</ele>
        <time>2018-10-24T13:07:57Z</time>
      </trkpt>
      <trkpt lat="43.98732" lon="5.14325">
        <ele>222</ele>
        <time>2018-10-24T13:08:14Z</time>
      </trkpt>
      <trkpt lat="43.98741" lon="5.14323">
        <ele>222</ele>
        <time>2018-10-24T13:08:24Z</time>
      </trkpt>
      <trkpt lat="43.9875" lon="5.14321">
        <ele>224</ele>
        <time>2018-10-24T13:08:32Z</time>
      </trkpt>
      <trkpt lat="43.98759" lon="5.14322">
        <ele>227</ele>
        <time>2018-10-24T13:08:49Z</time>
      </trkpt>
      <trkpt lat="43.98767" lon="5.14329">
        <ele>228</ele>
        <time>2018-10-24T13:09:01Z</time>
      </trkpt>
      <trkpt lat="43.98776" lon="5.14337">
        <ele>230</ele>
        <time>2018-10-24T13:09:14Z</time>
      </trkpt>
      <trkpt lat="43.98785" lon="5.14342">
        <ele>233</ele>
        <time>2018-10-24T13:09:27Z</time>
      </trkpt>
      <trkpt lat="43.98792" lon="5.14351">
        <ele>236</ele>
        <time>2018-10-24T13:09:42Z</time>
      </trkpt>
      <trkpt lat="43.988" lon="5.14359">
        <ele>238</ele>
        <time>2018-10-24T13:09:54Z</time>
      </trkpt>
      <trkpt lat="43.98803" lon="5.14371">
        <ele>239</ele>
        <time>2018-10-24T13:10:07Z</time>
      </trkpt>
      <trkpt lat="43.98806" lon="5.14384">
        <ele>239</ele>
        <time>2018-10-24T13:10:19Z</time>
      </trkpt>
      <trkpt lat="43.98809" lon="5.14397">
        <ele>242</ele>
        <time>2018-10-24T13:10:30Z</time>
      </trkpt>
      <trkpt lat="43.98815" lon="5.14406">
        <ele>242</ele>
        <time>2018-10-24T13:10:40Z</time>
      </trkpt>
      <trkpt lat="43.9882" lon="5.14417">
        <ele>245</ele>
        <time>2018-10-24T13:10:53Z</time>
      </trkpt>
      <trkpt lat="43.98829" lon="5.1442">
        <ele>246</ele>
        <time>2018-10-24T13:11:09Z</time>
      </trkpt>
      <trkpt lat="43.98839" lon="5.14419">
        <ele>246</ele>
        <time>2018-10-24T13:11:19Z</time>
      </trkpt>
      <trkpt lat="43.98849" lon="5.14421">
        <ele>246</ele>
        <time>2018-10-24T13:11:30Z</time>
      </trkpt>
      <trkpt lat="43.98858" lon="5.14421">
        <ele>246</ele>
        <time>2018-10-24T13:11:39Z</time>
      </trkpt>
      <trkpt lat="43.98854" lon="5.14432">
        <ele>251</ele>
        <time>2018-10-24T13:11:59Z</time>
      </trkpt>
      <trkpt lat="43.98845" lon="5.14436">
        <ele>254</ele>
        <time>2018-10-24T13:12:15Z</time>
      </trkpt>
      <trkpt lat="43.98844" lon="5.1445">
        <ele>257</ele>
        <time>2018-10-24T13:13:07Z</time>
      </trkpt>
      <trkpt lat="43.9884" lon="5.14461">
        <ele>258</ele>
        <time>2018-10-24T13:13:24Z</time>
      </trkpt>
      <trkpt lat="43.98834" lon="5.14471">
        <ele>261</ele>
        <time>2018-10-24T13:13:41Z</time>
      </trkpt>
      <trkpt lat="43.98827" lon="5.14479">
        <ele>262</ele>
        <time>2018-10-24T13:13:56Z</time>
      </trkpt>
      <trkpt lat="43.9882" lon="5.14488">
        <ele>265</ele>
        <time>2018-10-24T13:14:08Z</time>
      </trkpt>
      <trkpt lat="43.98825" lon="5.14499">
        <ele>268</ele>
        <time>2018-10-24T13:14:31Z</time>
      </trkpt>
      <trkpt lat="43.98834" lon="5.14505">
        <ele>269</ele>
        <time>2018-10-24T13:14:42Z</time>
      </trkpt>
      <trkpt lat="43.98843" lon="5.14505">
        <ele>273</ele>
        <time>2018-10-24T13:15:01Z</time>
      </trkpt>
      <trkpt lat="43.98851" lon="5.14513">
        <ele>276</ele>
        <time>2018-10-24T13:15:17Z</time>
      </trkpt>
      <trkpt lat="43.98859" lon="5.14522">
        <ele>281</ele>
        <time>2018-10-24T13:15:31Z</time>
      </trkpt>
      <trkpt lat="43.98868" lon="5.14525">
        <ele>282</ele>
        <time>2018-10-24T13:15:41Z</time>
      </trkpt>
      <trkpt lat="43.98875" lon="5.14535">
        <ele>283</ele>
        <time>2018-10-24T13:15:57Z</time>
      </trkpt>
      <trkpt lat="43.98878" lon="5.14548">
        <ele>286</ele>
        <time>2018-10-24T13:16:08Z</time>
      </trkpt>
      <trkpt lat="43.98883" lon="5.14559">
        <ele>285</ele>
        <time>2018-10-24T13:16:16Z</time>
      </trkpt>
      <trkpt lat="43.98892" lon="5.14567">
        <ele>287</ele>
        <time>2018-10-24T13:16:25Z</time>
      </trkpt>
      <trkpt lat="43.98897" lon="5.14578">
        <ele>288</ele>
        <time>2018-10-24T13:16:36Z</time>
      </trkpt>
      <trkpt lat="43.98904" lon="5.14585">
        <ele>289</ele>
        <time>2018-10-24T13:16:47Z</time>
      </trkpt>
      <trkpt lat="43.98906" lon="5.14598">
        <ele>291</ele>
        <time>2018-10-24T13:16:59Z</time>
      </trkpt>
      <trkpt lat="43.98911" lon="5.14609">
        <ele>293</ele>
        <time>2018-10-24T13:17:07Z</time>
      </trkpt>
      <trkpt lat="43.98917" lon="5.1462">
        <ele>294</ele>
        <time>2018-10-24T13:17:20Z</time>
      </trkpt>
      <trkpt lat="43.98928" lon="5.14623">
        <ele>293</ele>
        <time>2018-10-24T13:17:27Z</time>
      </trkpt>
      <trkpt lat="43.98932" lon="5.14634">
        <ele>293</ele>
        <time>2018-10-24T13:17:36Z</time>
      </trkpt>
      <trkpt lat="43.98935" lon="5.14646">
        <ele>295</ele>
        <time>2018-10-24T13:17:48Z</time>
      </trkpt>
      <trkpt lat="43.98941" lon="5.14657">
        <ele>297</ele>
        <time>2018-10-24T13:17:58Z</time>
      </trkpt>
      <trkpt lat="43.98949" lon="5.14665">
        <ele>299</ele>
        <time>2018-10-24T13:18:06Z</time>
      </trkpt>
      <trkpt lat="43.98955" lon="5.14675">
        <ele>301</ele>
        <time>2018-10-24T13:18:14Z</time>
      </trkpt>
      <trkpt lat="43.98961" lon="5.14686">
        <ele>304</ele>
        <time>2018-10-24T13:18:23Z</time>
      </trkpt>
      <trkpt lat="43.98964" lon="5.14698">
        <ele>306</ele>
        <time>2018-10-24T13:18:35Z</time>
      </trkpt>
      <trkpt lat="43.98968" lon="5.14711">
        <ele>306</ele>
        <time>2018-10-24T13:18:45Z</time>
      </trkpt>
      <trkpt lat="43.98973" lon="5.14722">
        <ele>307</ele>
        <time>2018-10-24T13:18:53Z</time>
      </trkpt>
      <trkpt lat="43.9898" lon="5.1473">
        <ele>309</ele>
        <time>2018-10-24T13:19:02Z</time>
      </trkpt>
      <trkpt lat="43.98984" lon="5.14742">
        <ele>309</ele>
        <time>2018-10-24T13:19:10Z</time>
      </trkpt>
      <trkpt lat="43.98988" lon="5.14755">
        <ele>310</ele>
        <time>2018-10-24T13:19:19Z</time>
      </trkpt>
      <trkpt lat="43.98993" lon="5.14766">
        <ele>312</ele>
        <time>2018-10-24T13:19:28Z</time>
      </trkpt>
      <trkpt lat="43.98997" lon="5.14777">
        <ele>312</ele>
        <time>2018-10-24T13:19:39Z</time>
      </trkpt>
      <trkpt lat="43.99002" lon="5.14788">
        <ele>311</ele>
        <time>2018-10-24T13:19:49Z</time>
      </trkpt>
      <trkpt lat="43.99004" lon="5.14801">
        <ele>311</ele>
        <time>2018-10-24T13:19:57Z</time>
      </trkpt>
      <trkpt lat="43.9901" lon="5.14811">
        <ele>310</ele>
        <time>2018-10-24T13:20:06Z</time>
      </trkpt>
      <trkpt lat="43.99017" lon="5.1482">
        <ele>310</ele>
        <time>2018-10-24T13:20:14Z</time>
      </trkpt>
      <trkpt lat="43.99023" lon="5.1483">
        <ele>308</ele>
        <time>2018-10-24T13:20:23Z</time>
      </trkpt>
      <trkpt lat="43.99027" lon="5.14841">
        <ele>308</ele>
        <time>2018-10-24T13:20:32Z</time>
      </trkpt>
      <trkpt lat="43.99036" lon="5.14849">
        <ele>307</ele>
        <time>2018-10-24T13:20:41Z</time>
      </trkpt>
      <trkpt lat="43.99041" lon="5.1486">
        <ele>307</ele>
        <time>2018-10-24T13:20:50Z</time>
      </trkpt>
      <trkpt lat="43.99045" lon="5.14873">
        <ele>309</ele>
        <time>2018-10-24T13:20:59Z</time>
      </trkpt>
      <trkpt lat="43.9905" lon="5.14883">
        <ele>306</ele>
        <time>2018-10-24T13:21:07Z</time>
      </trkpt>
      <trkpt lat="43.9906" lon="5.14884">
        <ele>306</ele>
        <time>2018-10-24T13:21:16Z</time>
      </trkpt>
      <trkpt lat="43.99069" lon="5.14886">
        <ele>304</ele>
        <time>2018-10-24T13:21:24Z</time>
      </trkpt>
      <trkpt lat="43.99079" lon="5.14889">
        <ele>304</ele>
        <time>2018-10-24T13:21:34Z</time>
      </trkpt>
      <trkpt lat="43.99088" lon="5.14885">
        <ele>303</ele>
        <time>2018-10-24T13:21:43Z</time>
      </trkpt>
      <trkpt lat="43.99097" lon="5.14888">
        <ele>301</ele>
        <time>2018-10-24T13:21:54Z</time>
      </trkpt>
      <trkpt lat="43.99107" lon="5.1489">
        <ele>300</ele>
        <time>2018-10-24T13:22:02Z</time>
      </trkpt>
      <trkpt lat="43.99116" lon="5.14889">
        <ele>301</ele>
        <time>2018-10-24T13:22:11Z</time>
      </trkpt>
      <trkpt lat="43.99126" lon="5.14891">
        <ele>299</ele>
        <time>2018-10-24T13:22:22Z</time>
      </trkpt>
      <trkpt lat="43.99135" lon="5.14886">
        <ele>297</ele>
        <time>2018-10-24T13:22:37Z</time>
      </trkpt>
      <trkpt lat="43.99144" lon="5.14882">
        <ele>296</ele>
        <time>2018-10-24T13:22:45Z</time>
      </trkpt>
      <trkpt lat="43.99153" lon="5.1488">
        <ele>296</ele>
        <time>2018-10-24T13:22:52Z</time>
      </trkpt>
      <trkpt lat="43.99162" lon="5.1488">
        <ele>294</ele>
        <time>2018-10-24T13:22:58Z</time>
      </trkpt>
      <trkpt lat="43.9917" lon="5.14871">
        <ele>294</ele>
        <time>2018-10-24T13:23:07Z</time>
      </trkpt>
      <trkpt lat="43.99178" lon="5.14864">
        <ele>290</ele>
        <time>2018-10-24T13:23:16Z</time>
      </trkpt>
      <trkpt lat="43.99186" lon="5.14855">
        <ele>288</ele>
        <time>2018-10-24T13:23:26Z</time>
      </trkpt>
      <trkpt lat="43.99194" lon="5.14848">
        <ele>288</ele>
        <time>2018-10-24T13:23:33Z</time>
      </trkpt>
      <trkpt lat="43.99203" lon="5.14847">
        <ele>288</ele>
        <time>2018-10-24T13:23:44Z</time>
      </trkpt>
      <trkpt lat="43.99212" lon="5.14844">
        <ele>289</ele>
        <time>2018-10-24T13:23:52Z</time>
      </trkpt>
      <trkpt lat="43.99221" lon="5.14839">
        <ele>287</ele>
        <time>2018-10-24T13:24:00Z</time>
      </trkpt>
      <trkpt lat="43.9923" lon="5.14836">
        <ele>287</ele>
        <time>2018-10-24T13:24:08Z</time>
      </trkpt>
      <trkpt lat="43.99239" lon="5.14832">
        <ele>286</ele>
        <time>2018-10-24T13:24:16Z</time>
      </trkpt>
      <trkpt lat="43.99248" lon="5.14829">
        <ele>286</ele>
        <time>2018-10-24T13:24:25Z</time>
      </trkpt>
      <trkpt lat="43.99257" lon="5.14825">
        <ele>287</ele>
        <time>2018-10-24T13:24:32Z</time>
      </trkpt>
      <trkpt lat="43.99267" lon="5.14822">
        <ele>288</ele>
        <time>2018-10-24T13:24:41Z</time>
      </trkpt>
      <trkpt lat="43.99276" lon="5.1482">
        <ele>288</ele>
        <time>2018-10-24T13:24:50Z</time>
      </trkpt>
      <trkpt lat="43.99285" lon="5.14815">
        <ele>290</ele>
        <time>2018-10-24T13:24:59Z</time>
      </trkpt>
      <trkpt lat="43.99293" lon="5.14809">
        <ele>290</ele>
        <time>2018-10-24T13:25:08Z</time>
      </trkpt>
      <trkpt lat="43.99303" lon="5.14806">
        <ele>290</ele>
        <time>2018-10-24T13:25:18Z</time>
      </trkpt>
      <trkpt lat="43.99312" lon="5.14798">
        <ele>289</ele>
        <time>2018-10-24T13:25:27Z</time>
      </trkpt>
      <trkpt lat="43.99321" lon="5.14798">
        <ele>289</ele>
        <time>2018-10-24T13:25:36Z</time>
      </trkpt>
      <trkpt lat="43.99329" lon="5.14793">
        <ele>288</ele>
        <time>2018-10-24T13:25:46Z</time>
      </trkpt>
      <trkpt lat="43.99338" lon="5.14792">
        <ele>288</ele>
        <time>2018-10-24T13:25:53Z</time>
      </trkpt>
      <trkpt lat="43.99348" lon="5.14791">
        <ele>288</ele>
        <time>2018-10-24T13:26:00Z</time>
      </trkpt>
      <trkpt lat="43.99356" lon="5.14785">
        <ele>289</ele>
        <time>2018-10-24T13:26:07Z</time>
      </trkpt>
      <trkpt lat="43.99365" lon="5.14779">
        <ele>287</ele>
        <time>2018-10-24T13:26:18Z</time>
      </trkpt>
      <trkpt lat="43.99375" lon="5.14777">
        <ele>288</ele>
        <time>2018-10-24T13:26:25Z</time>
      </trkpt>
      <trkpt lat="43.99385" lon="5.14773">
        <ele>287</ele>
        <time>2018-10-24T13:26:33Z</time>
      </trkpt>
      <trkpt lat="43.99394" lon="5.1477">
        <ele>289</ele>
        <time>2018-10-24T13:26:41Z</time>
      </trkpt>
      <trkpt lat="43.99403" lon="5.1477">
        <ele>289</ele>
        <time>2018-10-24T13:26:48Z</time>
      </trkpt>
      <trkpt lat="43.99413" lon="5.14773">
        <ele>288</ele>
        <time>2018-10-24T13:26:58Z</time>
      </trkpt>
      <trkpt lat="43.99422" lon="5.14777">
        <ele>289</ele>
        <time>2018-10-24T13:27:05Z</time>
      </trkpt>
      <trkpt lat="43.99432" lon="5.14777">
        <ele>289</ele>
        <time>2018-10-24T13:27:14Z</time>
      </trkpt>
      <trkpt lat="43.99441" lon="5.14778">
        <ele>287</ele>
        <time>2018-10-24T13:27:23Z</time>
      </trkpt>
      <trkpt lat="43.9945" lon="5.1478">
        <ele>289</ele>
        <time>2018-10-24T13:27:34Z</time>
      </trkpt>
      <trkpt lat="43.99459" lon="5.14785">
        <ele>288</ele>
        <time>2018-10-24T13:27:44Z</time>
      </trkpt>
      <trkpt lat="43.99469" lon="5.1479">
        <ele>288</ele>
        <time>2018-10-24T13:27:51Z</time>
      </trkpt>
      <trkpt lat="43.99477" lon="5.14797">
        <ele>289</ele>
        <time>2018-10-24T13:27:59Z</time>
      </trkpt>
      <trkpt lat="43.99486" lon="5.14799">
        <ele>291</ele>
        <time>2018-10-24T13:28:09Z</time>
      </trkpt>
      <trkpt lat="43.99476" lon="5.14795">
        <ele>296</ele>
        <time>2018-10-24T13:29:36Z</time>
      </trkpt>
      <trkpt lat="43.99476" lon="5.14796">
        <ele>297</ele>
        <time>2018-10-24T13:30:51Z</time>
      </trkpt>
      <trkpt lat="43.99476" lon="5.14796">
        <ele>297</ele>
        <time>2018-10-24T13:30:51Z</time>
      </trkpt>
    </trkseg>
  </trk>
</gpx>